<?xml version="1.0" encoding="UTF-8" standalone="no" ?>
<gpx xmlns="http://www.topografix.com/GPX/1/1" xmlns:xsi="http://www.w3.org/2001/XMLSchema-instance" xsi:schemaLocation="http://www.topografix.com/GPX/1/1 http://www.topografix.com/GPX/1/1/gpx.xsd" version="1.1" creator="VisuGPX - https://www.visugpx.com">
  <metadata>
    <name>Les bords de Saine et le tram</name>
    <desc><![CDATA[Parcours de Foncine le Bas à Foncine le Haut par les bords de Saine et montée à Chatelblanc par la voie du tram.
Retour par la route du Pré d\'Haut, le moulin du bief Brideaux, les Bergines, Grandes Côtes, Villeneuve et le bas de ville.
Circuit en très grande partie sur chemins, sentiers et prairies.
La dernière partie est réalisée sur la route. Possibilité de revenir du bas de ville à Foncine le Bas en empruntant l\'itinéraire aller par la chapelle Saint-Roch et la Chevry.  ]]></desc>
  </metadata>
  <trk>
    <name><![CDATA[Tracé actuel: 14 OCT 2011 14:04]]></name>
    <trkseg>
      <trkpt lat="46.6369" lon="6.0284">
        <ele>797.55</ele>
        <time>2011-10-14T12:04:22Z</time>
      </trkpt>
      <trkpt lat="46.6369" lon="6.0284">
        <ele>796.59</ele>
        <time>2011-10-14T12:04:25Z</time>
      </trkpt>
      <trkpt lat="46.6369" lon="6.0284">
        <ele>805.72</ele>
        <time>2011-10-14T12:22:20Z</time>
      </trkpt>
      <trkpt lat="46.6369" lon="6.0284">
        <ele>798.03</ele>
        <time>2011-10-14T12:22:21Z</time>
      </trkpt>
      <trkpt lat="46.6369" lon="6.0284">
        <ele>798.03</ele>
        <time>2011-10-14T12:22:22Z</time>
      </trkpt>
      <trkpt lat="46.63654" lon="6.02843">
        <ele>798.99</ele>
        <time>2011-10-14T12:22:28Z</time>
      </trkpt>
      <trkpt lat="46.63669" lon="6.02854">
        <ele>802.36</ele>
        <time>2011-10-14T12:23:27Z</time>
      </trkpt>
      <trkpt lat="46.63669" lon="6.02854">
        <ele>806.2</ele>
        <time>2011-10-14T12:23:30Z</time>
      </trkpt>
      <trkpt lat="46.63669" lon="6.02854">
        <ele>805.72</ele>
        <time>2011-10-14T12:23:31Z</time>
      </trkpt>
      <trkpt lat="46.63669" lon="6.02854">
        <ele>809.09</ele>
        <time>2011-10-14T12:23:33Z</time>
      </trkpt>
      <trkpt lat="46.6367" lon="6.02853">
        <ele>811.01</ele>
        <time>2011-10-14T12:23:36Z</time>
      </trkpt>
      <trkpt lat="46.6367" lon="6.02853">
        <ele>814.37</ele>
        <time>2011-10-14T12:23:38Z</time>
      </trkpt>
      <trkpt lat="46.6367" lon="6.02853">
        <ele>814.37</ele>
        <time>2011-10-14T12:23:39Z</time>
      </trkpt>
      <trkpt lat="46.6367" lon="6.02853">
        <ele>817.74</ele>
        <time>2011-10-14T12:23:43Z</time>
      </trkpt>
      <trkpt lat="46.63672" lon="6.02852">
        <ele>818.7</ele>
        <time>2011-10-14T12:23:46Z</time>
      </trkpt>
      <trkpt lat="46.63673" lon="6.02852">
        <ele>820.62</ele>
        <time>2011-10-14T12:23:48Z</time>
      </trkpt>
      <trkpt lat="46.63674" lon="6.02852">
        <ele>822.55</ele>
        <time>2011-10-14T12:23:51Z</time>
      </trkpt>
      <trkpt lat="46.63673" lon="6.02853">
        <ele>823.99</ele>
        <time>2011-10-14T12:23:54Z</time>
      </trkpt>
      <trkpt lat="46.63673" lon="6.02853">
        <ele>825.91</ele>
        <time>2011-10-14T12:23:57Z</time>
      </trkpt>
      <trkpt lat="46.63672" lon="6.02854">
        <ele>829.76</ele>
        <time>2011-10-14T12:24:03Z</time>
      </trkpt>
      <trkpt lat="46.63673" lon="6.02854">
        <ele>829.27</ele>
        <time>2011-10-14T12:24:04Z</time>
      </trkpt>
      <trkpt lat="46.63673" lon="6.02853">
        <ele>831.2</ele>
        <time>2011-10-14T12:24:07Z</time>
      </trkpt>
      <trkpt lat="46.63673" lon="6.02853">
        <ele>832.16</ele>
        <time>2011-10-14T12:24:09Z</time>
      </trkpt>
      <trkpt lat="46.63673" lon="6.02853">
        <ele>836</ele>
        <time>2011-10-14T12:24:23Z</time>
      </trkpt>
      <trkpt lat="46.63673" lon="6.02853">
        <ele>838.41</ele>
        <time>2011-10-14T12:24:37Z</time>
      </trkpt>
      <trkpt lat="46.63674" lon="6.02853">
        <ele>839.37</ele>
        <time>2011-10-14T12:24:44Z</time>
      </trkpt>
      <trkpt lat="46.63669" lon="6.02857">
        <ele>837.45</ele>
        <time>2011-10-14T12:24:49Z</time>
      </trkpt>
      <trkpt lat="46.63661" lon="6.02868">
        <ele>836.96</ele>
        <time>2011-10-14T12:24:53Z</time>
      </trkpt>
      <trkpt lat="46.63658" lon="6.0287">
        <ele>837.45</ele>
        <time>2011-10-14T12:24:54Z</time>
      </trkpt>
      <trkpt lat="46.63651" lon="6.02883">
        <ele>836</ele>
        <time>2011-10-14T12:24:57Z</time>
      </trkpt>
      <trkpt lat="46.63651" lon="6.02891">
        <ele>838.89</ele>
        <time>2011-10-14T12:24:59Z</time>
      </trkpt>
      <trkpt lat="46.63651" lon="6.02895">
        <ele>836.96</ele>
        <time>2011-10-14T12:25:00Z</time>
      </trkpt>
      <trkpt lat="46.63652" lon="6.02899">
        <ele>836.48</ele>
        <time>2011-10-14T12:25:01Z</time>
      </trkpt>
      <trkpt lat="46.63652" lon="6.02901">
        <ele>831.68</ele>
        <time>2011-10-14T12:25:02Z</time>
      </trkpt>
      <trkpt lat="46.63652" lon="6.02904">
        <ele>836.48</ele>
        <time>2011-10-14T12:25:03Z</time>
      </trkpt>
      <trkpt lat="46.63652" lon="6.02907">
        <ele>835.52</ele>
        <time>2011-10-14T12:25:04Z</time>
      </trkpt>
      <trkpt lat="46.63652" lon="6.0291">
        <ele>833.12</ele>
        <time>2011-10-14T12:25:05Z</time>
      </trkpt>
      <trkpt lat="46.63652" lon="6.02913">
        <ele>836</ele>
        <time>2011-10-14T12:25:06Z</time>
      </trkpt>
      <trkpt lat="46.63661" lon="6.02958">
        <ele>832.64</ele>
        <time>2011-10-14T12:25:15Z</time>
      </trkpt>
      <trkpt lat="46.63663" lon="6.02966">
        <ele>831.68</ele>
        <time>2011-10-14T12:25:16Z</time>
      </trkpt>
      <trkpt lat="46.63664" lon="6.02975">
        <ele>831.68</ele>
        <time>2011-10-14T12:25:17Z</time>
      </trkpt>
      <trkpt lat="46.63664" lon="6.02984">
        <ele>831.2</ele>
        <time>2011-10-14T12:25:18Z</time>
      </trkpt>
      <trkpt lat="46.63673" lon="6.03027">
        <ele>829.76</ele>
        <time>2011-10-14T12:25:26Z</time>
      </trkpt>
      <trkpt lat="46.63674" lon="6.03034">
        <ele>829.76</ele>
        <time>2011-10-14T12:25:27Z</time>
      </trkpt>
      <trkpt lat="46.63674" lon="6.03042">
        <ele>829.76</ele>
        <time>2011-10-14T12:25:28Z</time>
      </trkpt>
      <trkpt lat="46.63674" lon="6.03049">
        <ele>828.79</ele>
        <time>2011-10-14T12:25:29Z</time>
      </trkpt>
      <trkpt lat="46.63674" lon="6.03057">
        <ele>827.83</ele>
        <time>2011-10-14T12:25:30Z</time>
      </trkpt>
      <trkpt lat="46.63675" lon="6.03063">
        <ele>829.27</ele>
        <time>2011-10-14T12:25:31Z</time>
      </trkpt>
      <trkpt lat="46.63695" lon="6.031">
        <ele>831.2</ele>
        <time>2011-10-14T12:25:40Z</time>
      </trkpt>
      <trkpt lat="46.63716" lon="6.03164">
        <ele>831.68</ele>
        <time>2011-10-14T12:25:51Z</time>
      </trkpt>
      <trkpt lat="46.63727" lon="6.03198">
        <ele>830.24</ele>
        <time>2011-10-14T12:25:55Z</time>
      </trkpt>
      <trkpt lat="46.63727" lon="6.03206">
        <ele>830.24</ele>
        <time>2011-10-14T12:25:56Z</time>
      </trkpt>
      <trkpt lat="46.63723" lon="6.03246">
        <ele>829.27</ele>
        <time>2011-10-14T12:26:01Z</time>
      </trkpt>
      <trkpt lat="46.6372" lon="6.03262">
        <ele>828.31</ele>
        <time>2011-10-14T12:26:03Z</time>
      </trkpt>
      <trkpt lat="46.63721" lon="6.03271">
        <ele>828.79</ele>
        <time>2011-10-14T12:26:04Z</time>
      </trkpt>
      <trkpt lat="46.63723" lon="6.0328">
        <ele>828.79</ele>
        <time>2011-10-14T12:26:05Z</time>
      </trkpt>
      <trkpt lat="46.63742" lon="6.03367">
        <ele>828.31</ele>
        <time>2011-10-14T12:26:16Z</time>
      </trkpt>
      <trkpt lat="46.63744" lon="6.03374">
        <ele>828.31</ele>
        <time>2011-10-14T12:26:17Z</time>
      </trkpt>
      <trkpt lat="46.63747" lon="6.0338">
        <ele>827.83</ele>
        <time>2011-10-14T12:26:18Z</time>
      </trkpt>
      <trkpt lat="46.63751" lon="6.03385">
        <ele>828.31</ele>
        <time>2011-10-14T12:26:19Z</time>
      </trkpt>
      <trkpt lat="46.63755" lon="6.0339">
        <ele>827.35</ele>
        <time>2011-10-14T12:26:20Z</time>
      </trkpt>
      <trkpt lat="46.63759" lon="6.03396">
        <ele>826.87</ele>
        <time>2011-10-14T12:26:21Z</time>
      </trkpt>
      <trkpt lat="46.63787" lon="6.03438">
        <ele>828.31</ele>
        <time>2011-10-14T12:26:29Z</time>
      </trkpt>
      <trkpt lat="46.63808" lon="6.03473">
        <ele>828.31</ele>
        <time>2011-10-14T12:26:36Z</time>
      </trkpt>
      <trkpt lat="46.63811" lon="6.03478">
        <ele>829.27</ele>
        <time>2011-10-14T12:26:37Z</time>
      </trkpt>
      <trkpt lat="46.6382" lon="6.03492">
        <ele>831.2</ele>
        <time>2011-10-14T12:26:40Z</time>
      </trkpt>
      <trkpt lat="46.63833" lon="6.03509">
        <ele>829.27</ele>
        <time>2011-10-14T12:26:44Z</time>
      </trkpt>
      <trkpt lat="46.63834" lon="6.03514">
        <ele>829.27</ele>
        <time>2011-10-14T12:26:45Z</time>
      </trkpt>
      <trkpt lat="46.63835" lon="6.03519">
        <ele>831.68</ele>
        <time>2011-10-14T12:26:46Z</time>
      </trkpt>
      <trkpt lat="46.63835" lon="6.03524">
        <ele>831.68</ele>
        <time>2011-10-14T12:26:47Z</time>
      </trkpt>
      <trkpt lat="46.63835" lon="6.0353">
        <ele>831.2</ele>
        <time>2011-10-14T12:26:48Z</time>
      </trkpt>
      <trkpt lat="46.63838" lon="6.03549">
        <ele>831.68</ele>
        <time>2011-10-14T12:26:52Z</time>
      </trkpt>
      <trkpt lat="46.63841" lon="6.03553">
        <ele>831.68</ele>
        <time>2011-10-14T12:26:53Z</time>
      </trkpt>
      <trkpt lat="46.63844" lon="6.03555">
        <ele>833.12</ele>
        <time>2011-10-14T12:26:54Z</time>
      </trkpt>
      <trkpt lat="46.63847" lon="6.03557">
        <ele>832.64</ele>
        <time>2011-10-14T12:26:55Z</time>
      </trkpt>
      <trkpt lat="46.6385" lon="6.03558">
        <ele>833.6</ele>
        <time>2011-10-14T12:26:56Z</time>
      </trkpt>
      <trkpt lat="46.63852" lon="6.03559">
        <ele>833.6</ele>
        <time>2011-10-14T12:26:57Z</time>
      </trkpt>
      <trkpt lat="46.63855" lon="6.03559">
        <ele>835.04</ele>
        <time>2011-10-14T12:26:58Z</time>
      </trkpt>
      <trkpt lat="46.63858" lon="6.0356">
        <ele>835.04</ele>
        <time>2011-10-14T12:26:59Z</time>
      </trkpt>
      <trkpt lat="46.63879" lon="6.03561">
        <ele>837.45</ele>
        <time>2011-10-14T12:27:07Z</time>
      </trkpt>
      <trkpt lat="46.6391" lon="6.03559">
        <ele>837.45</ele>
        <time>2011-10-14T12:27:19Z</time>
      </trkpt>
      <trkpt lat="46.63922" lon="6.0356">
        <ele>838.41</ele>
        <time>2011-10-14T12:27:23Z</time>
      </trkpt>
      <trkpt lat="46.63943" lon="6.03561">
        <ele>839.85</ele>
        <time>2011-10-14T12:27:34Z</time>
      </trkpt>
      <trkpt lat="46.63962" lon="6.03568">
        <ele>842.25</ele>
        <time>2011-10-14T12:27:45Z</time>
      </trkpt>
      <trkpt lat="46.63969" lon="6.03579">
        <ele>843.21</ele>
        <time>2011-10-14T12:27:51Z</time>
      </trkpt>
      <trkpt lat="46.63982" lon="6.03602">
        <ele>846.1</ele>
        <time>2011-10-14T12:28:01Z</time>
      </trkpt>
      <trkpt lat="46.6399" lon="6.03614">
        <ele>846.58</ele>
        <time>2011-10-14T12:28:12Z</time>
      </trkpt>
      <trkpt lat="46.64009" lon="6.03634">
        <ele>849.94</ele>
        <time>2011-10-14T12:28:27Z</time>
      </trkpt>
      <trkpt lat="46.64028" lon="6.03651">
        <ele>852.35</ele>
        <time>2011-10-14T12:28:40Z</time>
      </trkpt>
      <trkpt lat="46.64045" lon="6.03671">
        <ele>853.79</ele>
        <time>2011-10-14T12:28:53Z</time>
      </trkpt>
      <trkpt lat="46.64053" lon="6.03683">
        <ele>855.23</ele>
        <time>2011-10-14T12:29:03Z</time>
      </trkpt>
      <trkpt lat="46.64055" lon="6.0369">
        <ele>856.19</ele>
        <time>2011-10-14T12:29:08Z</time>
      </trkpt>
      <trkpt lat="46.64057" lon="6.03693">
        <ele>856.67</ele>
        <time>2011-10-14T12:29:09Z</time>
      </trkpt>
      <trkpt lat="46.64058" lon="6.03696">
        <ele>856.19</ele>
        <time>2011-10-14T12:29:10Z</time>
      </trkpt>
      <trkpt lat="46.6406" lon="6.03698">
        <ele>855.71</ele>
        <time>2011-10-14T12:29:11Z</time>
      </trkpt>
      <trkpt lat="46.64062" lon="6.037">
        <ele>857.15</ele>
        <time>2011-10-14T12:29:12Z</time>
      </trkpt>
      <trkpt lat="46.64064" lon="6.03704">
        <ele>857.63</ele>
        <time>2011-10-14T12:29:14Z</time>
      </trkpt>
      <trkpt lat="46.64065" lon="6.03706">
        <ele>856.67</ele>
        <time>2011-10-14T12:29:15Z</time>
      </trkpt>
      <trkpt lat="46.64067" lon="6.03712">
        <ele>857.15</ele>
        <time>2011-10-14T12:29:18Z</time>
      </trkpt>
      <trkpt lat="46.64071" lon="6.03719">
        <ele>859.08</ele>
        <time>2011-10-14T12:29:21Z</time>
      </trkpt>
      <trkpt lat="46.64072" lon="6.03721">
        <ele>857.63</ele>
        <time>2011-10-14T12:29:22Z</time>
      </trkpt>
      <trkpt lat="46.64073" lon="6.03724">
        <ele>858.11</ele>
        <time>2011-10-14T12:29:23Z</time>
      </trkpt>
      <trkpt lat="46.64076" lon="6.0374">
        <ele>858.11</ele>
        <time>2011-10-14T12:29:30Z</time>
      </trkpt>
      <trkpt lat="46.64076" lon="6.03743">
        <ele>858.59</ele>
        <time>2011-10-14T12:29:31Z</time>
      </trkpt>
      <trkpt lat="46.64077" lon="6.03745">
        <ele>858.59</ele>
        <time>2011-10-14T12:29:32Z</time>
      </trkpt>
      <trkpt lat="46.64077" lon="6.03747">
        <ele>859.08</ele>
        <time>2011-10-14T12:29:33Z</time>
      </trkpt>
      <trkpt lat="46.64077" lon="6.0375">
        <ele>858.59</ele>
        <time>2011-10-14T12:29:34Z</time>
      </trkpt>
      <trkpt lat="46.64077" lon="6.03752">
        <ele>859.56</ele>
        <time>2011-10-14T12:29:35Z</time>
      </trkpt>
      <trkpt lat="46.64076" lon="6.03754">
        <ele>858.59</ele>
        <time>2011-10-14T12:29:36Z</time>
      </trkpt>
      <trkpt lat="46.64077" lon="6.03756">
        <ele>858.59</ele>
        <time>2011-10-14T12:29:37Z</time>
      </trkpt>
      <trkpt lat="46.64077" lon="6.03758">
        <ele>859.08</ele>
        <time>2011-10-14T12:29:38Z</time>
      </trkpt>
      <trkpt lat="46.64078" lon="6.03761">
        <ele>858.59</ele>
        <time>2011-10-14T12:29:39Z</time>
      </trkpt>
      <trkpt lat="46.64079" lon="6.03763">
        <ele>859.56</ele>
        <time>2011-10-14T12:29:40Z</time>
      </trkpt>
      <trkpt lat="46.6408" lon="6.03766">
        <ele>859.08</ele>
        <time>2011-10-14T12:29:41Z</time>
      </trkpt>
      <trkpt lat="46.64082" lon="6.03777">
        <ele>861</ele>
        <time>2011-10-14T12:29:45Z</time>
      </trkpt>
      <trkpt lat="46.64088" lon="6.0379">
        <ele>860.52</ele>
        <time>2011-10-14T12:29:53Z</time>
      </trkpt>
      <trkpt lat="46.64095" lon="6.03801">
        <ele>861</ele>
        <time>2011-10-14T12:30:00Z</time>
      </trkpt>
      <trkpt lat="46.64096" lon="6.03803">
        <ele>861</ele>
        <time>2011-10-14T12:30:01Z</time>
      </trkpt>
      <trkpt lat="46.64098" lon="6.03804">
        <ele>861.48</ele>
        <time>2011-10-14T12:30:02Z</time>
      </trkpt>
      <trkpt lat="46.64099" lon="6.03806">
        <ele>861</ele>
        <time>2011-10-14T12:30:03Z</time>
      </trkpt>
      <trkpt lat="46.64102" lon="6.03808">
        <ele>861.48</ele>
        <time>2011-10-14T12:30:04Z</time>
      </trkpt>
      <trkpt lat="46.64104" lon="6.0381">
        <ele>861.96</ele>
        <time>2011-10-14T12:30:05Z</time>
      </trkpt>
      <trkpt lat="46.64106" lon="6.03811">
        <ele>861.96</ele>
        <time>2011-10-14T12:30:06Z</time>
      </trkpt>
      <trkpt lat="46.64108" lon="6.03813">
        <ele>862.44</ele>
        <time>2011-10-14T12:30:07Z</time>
      </trkpt>
      <trkpt lat="46.64109" lon="6.03814">
        <ele>861.96</ele>
        <time>2011-10-14T12:30:08Z</time>
      </trkpt>
      <trkpt lat="46.64111" lon="6.03815">
        <ele>861.96</ele>
        <time>2011-10-14T12:30:09Z</time>
      </trkpt>
      <trkpt lat="46.64117" lon="6.0382">
        <ele>863.4</ele>
        <time>2011-10-14T12:30:17Z</time>
      </trkpt>
      <trkpt lat="46.64119" lon="6.03822">
        <ele>863.88</ele>
        <time>2011-10-14T12:30:18Z</time>
      </trkpt>
      <trkpt lat="46.64132" lon="6.03835">
        <ele>864.36</ele>
        <time>2011-10-14T12:30:25Z</time>
      </trkpt>
      <trkpt lat="46.64155" lon="6.03846">
        <ele>865.32</ele>
        <time>2011-10-14T12:30:36Z</time>
      </trkpt>
      <trkpt lat="46.64159" lon="6.03848">
        <ele>864.36</ele>
        <time>2011-10-14T12:30:39Z</time>
      </trkpt>
      <trkpt lat="46.64161" lon="6.03848">
        <ele>864.84</ele>
        <time>2011-10-14T12:30:40Z</time>
      </trkpt>
      <trkpt lat="46.64163" lon="6.03847">
        <ele>864.84</ele>
        <time>2011-10-14T12:30:41Z</time>
      </trkpt>
      <trkpt lat="46.64179" lon="6.03842">
        <ele>864.84</ele>
        <time>2011-10-14T12:30:50Z</time>
      </trkpt>
      <trkpt lat="46.64181" lon="6.03841">
        <ele>865.32</ele>
        <time>2011-10-14T12:30:51Z</time>
      </trkpt>
      <trkpt lat="46.64185" lon="6.03838">
        <ele>865.8</ele>
        <time>2011-10-14T12:30:53Z</time>
      </trkpt>
      <trkpt lat="46.64187" lon="6.03836">
        <ele>864.84</ele>
        <time>2011-10-14T12:30:54Z</time>
      </trkpt>
      <trkpt lat="46.6419" lon="6.03835">
        <ele>865.32</ele>
        <time>2011-10-14T12:30:55Z</time>
      </trkpt>
      <trkpt lat="46.64195" lon="6.03833">
        <ele>865.8</ele>
        <time>2011-10-14T12:30:57Z</time>
      </trkpt>
      <trkpt lat="46.64197" lon="6.03833">
        <ele>865.8</ele>
        <time>2011-10-14T12:30:58Z</time>
      </trkpt>
      <trkpt lat="46.64199" lon="6.03832">
        <ele>865.8</ele>
        <time>2011-10-14T12:30:59Z</time>
      </trkpt>
      <trkpt lat="46.64201" lon="6.0383">
        <ele>865.8</ele>
        <time>2011-10-14T12:31:00Z</time>
      </trkpt>
      <trkpt lat="46.64203" lon="6.03829">
        <ele>864.84</ele>
        <time>2011-10-14T12:31:01Z</time>
      </trkpt>
      <trkpt lat="46.64205" lon="6.03828">
        <ele>866.29</ele>
        <time>2011-10-14T12:31:02Z</time>
      </trkpt>
      <trkpt lat="46.64208" lon="6.03826">
        <ele>864.84</ele>
        <time>2011-10-14T12:31:03Z</time>
      </trkpt>
      <trkpt lat="46.6421" lon="6.03824">
        <ele>865.32</ele>
        <time>2011-10-14T12:31:04Z</time>
      </trkpt>
      <trkpt lat="46.64212" lon="6.03823">
        <ele>865.8</ele>
        <time>2011-10-14T12:31:05Z</time>
      </trkpt>
      <trkpt lat="46.64214" lon="6.03822">
        <ele>865.32</ele>
        <time>2011-10-14T12:31:06Z</time>
      </trkpt>
      <trkpt lat="46.64216" lon="6.03821">
        <ele>865.8</ele>
        <time>2011-10-14T12:31:07Z</time>
      </trkpt>
      <trkpt lat="46.64218" lon="6.03821">
        <ele>865.8</ele>
        <time>2011-10-14T12:31:08Z</time>
      </trkpt>
      <trkpt lat="46.6422" lon="6.03821">
        <ele>865.8</ele>
        <time>2011-10-14T12:31:09Z</time>
      </trkpt>
      <trkpt lat="46.64221" lon="6.03821">
        <ele>865.8</ele>
        <time>2011-10-14T12:31:10Z</time>
      </trkpt>
      <trkpt lat="46.64223" lon="6.03821">
        <ele>864.84</ele>
        <time>2011-10-14T12:31:11Z</time>
      </trkpt>
      <trkpt lat="46.64225" lon="6.03822">
        <ele>865.8</ele>
        <time>2011-10-14T12:31:12Z</time>
      </trkpt>
      <trkpt lat="46.64226" lon="6.03822">
        <ele>866.29</ele>
        <time>2011-10-14T12:31:13Z</time>
      </trkpt>
      <trkpt lat="46.64228" lon="6.03823">
        <ele>866.29</ele>
        <time>2011-10-14T12:31:14Z</time>
      </trkpt>
      <trkpt lat="46.64229" lon="6.03823">
        <ele>866.29</ele>
        <time>2011-10-14T12:31:15Z</time>
      </trkpt>
      <trkpt lat="46.64231" lon="6.03824">
        <ele>865.32</ele>
        <time>2011-10-14T12:31:16Z</time>
      </trkpt>
      <trkpt lat="46.64232" lon="6.03825">
        <ele>866.77</ele>
        <time>2011-10-14T12:31:17Z</time>
      </trkpt>
      <trkpt lat="46.6425" lon="6.0384">
        <ele>868.21</ele>
        <time>2011-10-14T12:31:28Z</time>
      </trkpt>
      <trkpt lat="46.64264" lon="6.03863">
        <ele>867.73</ele>
        <time>2011-10-14T12:31:38Z</time>
      </trkpt>
      <trkpt lat="46.64266" lon="6.03865">
        <ele>868.21</ele>
        <time>2011-10-14T12:31:39Z</time>
      </trkpt>
      <trkpt lat="46.64267" lon="6.03868">
        <ele>868.69</ele>
        <time>2011-10-14T12:31:40Z</time>
      </trkpt>
      <trkpt lat="46.64268" lon="6.03871">
        <ele>868.21</ele>
        <time>2011-10-14T12:31:41Z</time>
      </trkpt>
      <trkpt lat="46.6427" lon="6.03875">
        <ele>869.17</ele>
        <time>2011-10-14T12:31:43Z</time>
      </trkpt>
      <trkpt lat="46.64274" lon="6.03889">
        <ele>869.65</ele>
        <time>2011-10-14T12:31:48Z</time>
      </trkpt>
      <trkpt lat="46.64267" lon="6.03925">
        <ele>869.17</ele>
        <time>2011-10-14T12:31:59Z</time>
      </trkpt>
      <trkpt lat="46.64264" lon="6.03944">
        <ele>871.09</ele>
        <time>2011-10-14T12:32:05Z</time>
      </trkpt>
      <trkpt lat="46.64272" lon="6.03976">
        <ele>872.05</ele>
        <time>2011-10-14T12:32:14Z</time>
      </trkpt>
      <trkpt lat="46.64323" lon="6.04">
        <ele>872.53</ele>
        <time>2011-10-14T12:32:18Z</time>
      </trkpt>
      <trkpt lat="46.64322" lon="6.04011">
        <ele>872.05</ele>
        <time>2011-10-14T12:32:22Z</time>
      </trkpt>
      <trkpt lat="46.64334" lon="6.04045">
        <ele>873.5</ele>
        <time>2011-10-14T12:32:32Z</time>
      </trkpt>
      <trkpt lat="46.64334" lon="6.04051">
        <ele>873.98</ele>
        <time>2011-10-14T12:32:34Z</time>
      </trkpt>
      <trkpt lat="46.64342" lon="6.04089">
        <ele>874.94</ele>
        <time>2011-10-14T12:32:46Z</time>
      </trkpt>
      <trkpt lat="46.64347" lon="6.04112">
        <ele>875.42</ele>
        <time>2011-10-14T12:32:53Z</time>
      </trkpt>
      <trkpt lat="46.6435" lon="6.0414">
        <ele>877.34</ele>
        <time>2011-10-14T12:33:02Z</time>
      </trkpt>
      <trkpt lat="46.6435" lon="6.0415">
        <ele>878.3</ele>
        <time>2011-10-14T12:33:05Z</time>
      </trkpt>
      <trkpt lat="46.64354" lon="6.04169">
        <ele>878.3</ele>
        <time>2011-10-14T12:33:11Z</time>
      </trkpt>
      <trkpt lat="46.6436" lon="6.0421">
        <ele>879.26</ele>
        <time>2011-10-14T12:33:23Z</time>
      </trkpt>
      <trkpt lat="46.64365" lon="6.04246">
        <ele>880.22</ele>
        <time>2011-10-14T12:33:34Z</time>
      </trkpt>
      <trkpt lat="46.64367" lon="6.04257">
        <ele>880.71</ele>
        <time>2011-10-14T12:33:37Z</time>
      </trkpt>
      <trkpt lat="46.64366" lon="6.04267">
        <ele>880.22</ele>
        <time>2011-10-14T12:33:41Z</time>
      </trkpt>
      <trkpt lat="46.64366" lon="6.04281">
        <ele>880.71</ele>
        <time>2011-10-14T12:33:46Z</time>
      </trkpt>
      <trkpt lat="46.64367" lon="6.043">
        <ele>881.19</ele>
        <time>2011-10-14T12:33:51Z</time>
      </trkpt>
      <trkpt lat="46.64371" lon="6.04345">
        <ele>879.74</ele>
        <time>2011-10-14T12:34:03Z</time>
      </trkpt>
      <trkpt lat="46.64371" lon="6.04356">
        <ele>881.19</ele>
        <time>2011-10-14T12:34:06Z</time>
      </trkpt>
      <trkpt lat="46.64381" lon="6.04407">
        <ele>880.71</ele>
        <time>2011-10-14T12:34:17Z</time>
      </trkpt>
      <trkpt lat="46.64373" lon="6.04453">
        <ele>883.59</ele>
        <time>2011-10-14T12:34:28Z</time>
      </trkpt>
      <trkpt lat="46.64353" lon="6.04489">
        <ele>885.03</ele>
        <time>2011-10-14T12:34:39Z</time>
      </trkpt>
      <trkpt lat="46.64358" lon="6.04517">
        <ele>885.03</ele>
        <time>2011-10-14T12:34:48Z</time>
      </trkpt>
      <trkpt lat="46.64361" lon="6.04545">
        <ele>883.11</ele>
        <time>2011-10-14T12:34:55Z</time>
      </trkpt>
      <trkpt lat="46.64362" lon="6.04552">
        <ele>882.63</ele>
        <time>2011-10-14T12:34:56Z</time>
      </trkpt>
      <trkpt lat="46.64366" lon="6.04597">
        <ele>879.26</ele>
        <time>2011-10-14T12:35:01Z</time>
      </trkpt>
      <trkpt lat="46.64366" lon="6.04607">
        <ele>878.3</ele>
        <time>2011-10-14T12:35:02Z</time>
      </trkpt>
      <trkpt lat="46.6437" lon="6.04637">
        <ele>876.38</ele>
        <time>2011-10-14T12:35:05Z</time>
      </trkpt>
      <trkpt lat="46.64388" lon="6.04735">
        <ele>875.9</ele>
        <time>2011-10-14T12:35:15Z</time>
      </trkpt>
      <trkpt lat="46.64393" lon="6.04785">
        <ele>875.9</ele>
        <time>2011-10-14T12:35:24Z</time>
      </trkpt>
      <trkpt lat="46.64392" lon="6.04791">
        <ele>875.9</ele>
        <time>2011-10-14T12:35:25Z</time>
      </trkpt>
      <trkpt lat="46.64392" lon="6.04797">
        <ele>876.38</ele>
        <time>2011-10-14T12:35:26Z</time>
      </trkpt>
      <trkpt lat="46.64391" lon="6.04803">
        <ele>875.9</ele>
        <time>2011-10-14T12:35:27Z</time>
      </trkpt>
      <trkpt lat="46.6439" lon="6.0481">
        <ele>875.9</ele>
        <time>2011-10-14T12:35:28Z</time>
      </trkpt>
      <trkpt lat="46.64384" lon="6.04868">
        <ele>875.42</ele>
        <time>2011-10-14T12:35:37Z</time>
      </trkpt>
      <trkpt lat="46.64384" lon="6.04875">
        <ele>875.42</ele>
        <time>2011-10-14T12:35:38Z</time>
      </trkpt>
      <trkpt lat="46.64386" lon="6.04921">
        <ele>874.46</ele>
        <time>2011-10-14T12:35:45Z</time>
      </trkpt>
      <trkpt lat="46.64387" lon="6.04927">
        <ele>874.46</ele>
        <time>2011-10-14T12:35:46Z</time>
      </trkpt>
      <trkpt lat="46.64389" lon="6.04933">
        <ele>874.46</ele>
        <time>2011-10-14T12:35:47Z</time>
      </trkpt>
      <trkpt lat="46.64395" lon="6.04943">
        <ele>873.5</ele>
        <time>2011-10-14T12:35:49Z</time>
      </trkpt>
      <trkpt lat="46.64398" lon="6.04948">
        <ele>875.42</ele>
        <time>2011-10-14T12:35:50Z</time>
      </trkpt>
      <trkpt lat="46.64402" lon="6.04952">
        <ele>874.94</ele>
        <time>2011-10-14T12:35:51Z</time>
      </trkpt>
      <trkpt lat="46.64418" lon="6.04965">
        <ele>874.94</ele>
        <time>2011-10-14T12:35:55Z</time>
      </trkpt>
      <trkpt lat="46.64464" lon="6.04963">
        <ele>875.9</ele>
        <time>2011-10-14T12:36:07Z</time>
      </trkpt>
      <trkpt lat="46.64468" lon="6.0496">
        <ele>875.42</ele>
        <time>2011-10-14T12:36:08Z</time>
      </trkpt>
      <trkpt lat="46.64472" lon="6.04955">
        <ele>875.42</ele>
        <time>2011-10-14T12:36:09Z</time>
      </trkpt>
      <trkpt lat="46.64477" lon="6.0495">
        <ele>874.94</ele>
        <time>2011-10-14T12:36:10Z</time>
      </trkpt>
      <trkpt lat="46.64481" lon="6.04945">
        <ele>874.94</ele>
        <time>2011-10-14T12:36:11Z</time>
      </trkpt>
      <trkpt lat="46.64485" lon="6.04941">
        <ele>873.98</ele>
        <time>2011-10-14T12:36:12Z</time>
      </trkpt>
      <trkpt lat="46.6449" lon="6.04937">
        <ele>873.5</ele>
        <time>2011-10-14T12:36:13Z</time>
      </trkpt>
      <trkpt lat="46.64496" lon="6.04937">
        <ele>873.01</ele>
        <time>2011-10-14T12:36:14Z</time>
      </trkpt>
      <trkpt lat="46.64502" lon="6.0494">
        <ele>872.53</ele>
        <time>2011-10-14T12:36:15Z</time>
      </trkpt>
      <trkpt lat="46.64508" lon="6.04948">
        <ele>871.57</ele>
        <time>2011-10-14T12:36:16Z</time>
      </trkpt>
      <trkpt lat="46.64513" lon="6.04957">
        <ele>870.61</ele>
        <time>2011-10-14T12:36:17Z</time>
      </trkpt>
      <trkpt lat="46.64518" lon="6.04966">
        <ele>870.13</ele>
        <time>2011-10-14T12:36:18Z</time>
      </trkpt>
      <trkpt lat="46.64523" lon="6.04976">
        <ele>869.65</ele>
        <time>2011-10-14T12:36:19Z</time>
      </trkpt>
      <trkpt lat="46.6457" lon="6.05056">
        <ele>868.21</ele>
        <time>2011-10-14T12:36:29Z</time>
      </trkpt>
      <trkpt lat="46.64578" lon="6.0507">
        <ele>869.17</ele>
        <time>2011-10-14T12:36:31Z</time>
      </trkpt>
      <trkpt lat="46.6458" lon="6.05076">
        <ele>868.69</ele>
        <time>2011-10-14T12:36:32Z</time>
      </trkpt>
      <trkpt lat="46.64587" lon="6.05088">
        <ele>868.69</ele>
        <time>2011-10-14T12:36:34Z</time>
      </trkpt>
      <trkpt lat="46.6459" lon="6.05094">
        <ele>868.69</ele>
        <time>2011-10-14T12:36:35Z</time>
      </trkpt>
      <trkpt lat="46.64593" lon="6.051">
        <ele>869.17</ele>
        <time>2011-10-14T12:36:36Z</time>
      </trkpt>
      <trkpt lat="46.64616" lon="6.05121">
        <ele>871.09</ele>
        <time>2011-10-14T12:36:45Z</time>
      </trkpt>
      <trkpt lat="46.64645" lon="6.05129">
        <ele>874.46</ele>
        <time>2011-10-14T12:36:56Z</time>
      </trkpt>
      <trkpt lat="46.64653" lon="6.05149">
        <ele>877.34</ele>
        <time>2011-10-14T12:37:03Z</time>
      </trkpt>
      <trkpt lat="46.64666" lon="6.05171">
        <ele>879.26</ele>
        <time>2011-10-14T12:37:15Z</time>
      </trkpt>
      <trkpt lat="46.64679" lon="6.05181">
        <ele>883.11</ele>
        <time>2011-10-14T12:37:24Z</time>
      </trkpt>
      <trkpt lat="46.64702" lon="6.05193">
        <ele>885.51</ele>
        <time>2011-10-14T12:37:38Z</time>
      </trkpt>
      <trkpt lat="46.64721" lon="6.05196">
        <ele>888.4</ele>
        <time>2011-10-14T12:37:52Z</time>
      </trkpt>
      <trkpt lat="46.64731" lon="6.05198">
        <ele>889.36</ele>
        <time>2011-10-14T12:37:59Z</time>
      </trkpt>
      <trkpt lat="46.64748" lon="6.05201">
        <ele>890.8</ele>
        <time>2011-10-14T12:38:11Z</time>
      </trkpt>
      <trkpt lat="46.64763" lon="6.05202">
        <ele>893.68</ele>
        <time>2011-10-14T12:38:25Z</time>
      </trkpt>
      <trkpt lat="46.64767" lon="6.05203">
        <ele>894.16</ele>
        <time>2011-10-14T12:38:38Z</time>
      </trkpt>
      <trkpt lat="46.64772" lon="6.0521">
        <ele>894.64</ele>
        <time>2011-10-14T12:38:48Z</time>
      </trkpt>
      <trkpt lat="46.64773" lon="6.05211">
        <ele>895.61</ele>
        <time>2011-10-14T12:38:49Z</time>
      </trkpt>
      <trkpt lat="46.6478" lon="6.0522">
        <ele>896.57</ele>
        <time>2011-10-14T12:38:55Z</time>
      </trkpt>
      <trkpt lat="46.64788" lon="6.05236">
        <ele>898.01</ele>
        <time>2011-10-14T12:39:06Z</time>
      </trkpt>
      <trkpt lat="46.64788" lon="6.05237">
        <ele>898.01</ele>
        <time>2011-10-14T12:39:07Z</time>
      </trkpt>
      <trkpt lat="46.64789" lon="6.0524">
        <ele>898.49</ele>
        <time>2011-10-14T12:39:08Z</time>
      </trkpt>
      <trkpt lat="46.6479" lon="6.05241">
        <ele>898.97</ele>
        <time>2011-10-14T12:39:09Z</time>
      </trkpt>
      <trkpt lat="46.64791" lon="6.05243">
        <ele>898.97</ele>
        <time>2011-10-14T12:39:10Z</time>
      </trkpt>
      <trkpt lat="46.64792" lon="6.05246">
        <ele>899.45</ele>
        <time>2011-10-14T12:39:11Z</time>
      </trkpt>
      <trkpt lat="46.64799" lon="6.05271">
        <ele>902.33</ele>
        <time>2011-10-14T12:39:25Z</time>
      </trkpt>
      <trkpt lat="46.64805" lon="6.05282">
        <ele>902.82</ele>
        <time>2011-10-14T12:39:30Z</time>
      </trkpt>
      <trkpt lat="46.64807" lon="6.05285">
        <ele>902.82</ele>
        <time>2011-10-14T12:39:31Z</time>
      </trkpt>
      <trkpt lat="46.64808" lon="6.05286">
        <ele>903.78</ele>
        <time>2011-10-14T12:39:32Z</time>
      </trkpt>
      <trkpt lat="46.64809" lon="6.05288">
        <ele>903.78</ele>
        <time>2011-10-14T12:39:33Z</time>
      </trkpt>
      <trkpt lat="46.6481" lon="6.05291">
        <ele>904.26</ele>
        <time>2011-10-14T12:39:34Z</time>
      </trkpt>
      <trkpt lat="46.64812" lon="6.05293">
        <ele>904.26</ele>
        <time>2011-10-14T12:39:35Z</time>
      </trkpt>
      <trkpt lat="46.64826" lon="6.05312">
        <ele>907.14</ele>
        <time>2011-10-14T12:39:47Z</time>
      </trkpt>
      <trkpt lat="46.64831" lon="6.05319">
        <ele>908.58</ele>
        <time>2011-10-14T12:39:51Z</time>
      </trkpt>
      <trkpt lat="46.64844" lon="6.05344">
        <ele>911.95</ele>
        <time>2011-10-14T12:40:05Z</time>
      </trkpt>
      <trkpt lat="46.64847" lon="6.05349">
        <ele>910.51</ele>
        <time>2011-10-14T12:40:10Z</time>
      </trkpt>
      <trkpt lat="46.64861" lon="6.05372">
        <ele>911.47</ele>
        <time>2011-10-14T12:40:24Z</time>
      </trkpt>
      <trkpt lat="46.64876" lon="6.05396">
        <ele>913.39</ele>
        <time>2011-10-14T12:40:38Z</time>
      </trkpt>
      <trkpt lat="46.64883" lon="6.05404">
        <ele>914.83</ele>
        <time>2011-10-14T12:40:44Z</time>
      </trkpt>
      <trkpt lat="46.64884" lon="6.05404">
        <ele>914.83</ele>
        <time>2011-10-14T12:40:45Z</time>
      </trkpt>
      <trkpt lat="46.64886" lon="6.05404">
        <ele>914.83</ele>
        <time>2011-10-14T12:40:46Z</time>
      </trkpt>
      <trkpt lat="46.64903" lon="6.05418">
        <ele>913.39</ele>
        <time>2011-10-14T12:40:59Z</time>
      </trkpt>
      <trkpt lat="46.64906" lon="6.05419">
        <ele>914.35</ele>
        <time>2011-10-14T12:41:01Z</time>
      </trkpt>
      <trkpt lat="46.64907" lon="6.05421">
        <ele>913.87</ele>
        <time>2011-10-14T12:41:02Z</time>
      </trkpt>
      <trkpt lat="46.6492" lon="6.05443">
        <ele>913.87</ele>
        <time>2011-10-14T12:41:12Z</time>
      </trkpt>
      <trkpt lat="46.64941" lon="6.05477">
        <ele>916.75</ele>
        <time>2011-10-14T12:41:27Z</time>
      </trkpt>
      <trkpt lat="46.64942" lon="6.05479">
        <ele>916.27</ele>
        <time>2011-10-14T12:41:28Z</time>
      </trkpt>
      <trkpt lat="46.64957" lon="6.05502">
        <ele>918.68</ele>
        <time>2011-10-14T12:41:42Z</time>
      </trkpt>
      <trkpt lat="46.64966" lon="6.05518">
        <ele>920.12</ele>
        <time>2011-10-14T12:41:51Z</time>
      </trkpt>
      <trkpt lat="46.64982" lon="6.05548">
        <ele>923.48</ele>
        <time>2011-10-14T12:42:07Z</time>
      </trkpt>
      <trkpt lat="46.64995" lon="6.05573">
        <ele>924.45</ele>
        <time>2011-10-14T12:42:19Z</time>
      </trkpt>
      <trkpt lat="46.65" lon="6.05589">
        <ele>926.85</ele>
        <time>2011-10-14T12:42:26Z</time>
      </trkpt>
      <trkpt lat="46.65005" lon="6.05601">
        <ele>926.85</ele>
        <time>2011-10-14T12:42:31Z</time>
      </trkpt>
      <trkpt lat="46.65006" lon="6.05604">
        <ele>927.81</ele>
        <time>2011-10-14T12:42:32Z</time>
      </trkpt>
      <trkpt lat="46.65019" lon="6.05642">
        <ele>926.85</ele>
        <time>2011-10-14T12:42:46Z</time>
      </trkpt>
      <trkpt lat="46.65033" lon="6.0569">
        <ele>924.45</ele>
        <time>2011-10-14T12:42:58Z</time>
      </trkpt>
      <trkpt lat="46.65045" lon="6.05721">
        <ele>922.52</ele>
        <time>2011-10-14T12:43:04Z</time>
      </trkpt>
      <trkpt lat="46.65047" lon="6.05727">
        <ele>922.04</ele>
        <time>2011-10-14T12:43:05Z</time>
      </trkpt>
      <trkpt lat="46.65049" lon="6.05735">
        <ele>920.6</ele>
        <time>2011-10-14T12:43:06Z</time>
      </trkpt>
      <trkpt lat="46.65051" lon="6.05743">
        <ele>920.6</ele>
        <time>2011-10-14T12:43:07Z</time>
      </trkpt>
      <trkpt lat="46.65053" lon="6.05751">
        <ele>920.12</ele>
        <time>2011-10-14T12:43:08Z</time>
      </trkpt>
      <trkpt lat="46.65055" lon="6.05759">
        <ele>919.16</ele>
        <time>2011-10-14T12:43:09Z</time>
      </trkpt>
      <trkpt lat="46.65057" lon="6.05767">
        <ele>919.64</ele>
        <time>2011-10-14T12:43:10Z</time>
      </trkpt>
      <trkpt lat="46.65079" lon="6.05828">
        <ele>918.2</ele>
        <time>2011-10-14T12:43:21Z</time>
      </trkpt>
      <trkpt lat="46.65103" lon="6.05884">
        <ele>918.2</ele>
        <time>2011-10-14T12:43:33Z</time>
      </trkpt>
      <trkpt lat="46.65127" lon="6.05927">
        <ele>917.24</ele>
        <time>2011-10-14T12:43:44Z</time>
      </trkpt>
      <trkpt lat="46.65142" lon="6.05942">
        <ele>917.24</ele>
        <time>2011-10-14T12:43:49Z</time>
      </trkpt>
      <trkpt lat="46.65164" lon="6.05964">
        <ele>913.87</ele>
        <time>2011-10-14T12:43:55Z</time>
      </trkpt>
      <trkpt lat="46.65168" lon="6.05967">
        <ele>913.39</ele>
        <time>2011-10-14T12:43:56Z</time>
      </trkpt>
      <trkpt lat="46.65173" lon="6.05968">
        <ele>912.43</ele>
        <time>2011-10-14T12:43:57Z</time>
      </trkpt>
      <trkpt lat="46.65176" lon="6.05968">
        <ele>911.95</ele>
        <time>2011-10-14T12:43:58Z</time>
      </trkpt>
      <trkpt lat="46.6518" lon="6.05967">
        <ele>910.99</ele>
        <time>2011-10-14T12:43:59Z</time>
      </trkpt>
      <trkpt lat="46.65182" lon="6.05966">
        <ele>911.47</ele>
        <time>2011-10-14T12:44:00Z</time>
      </trkpt>
      <trkpt lat="46.65204" lon="6.05957">
        <ele>912.91</ele>
        <time>2011-10-14T12:44:08Z</time>
      </trkpt>
      <trkpt lat="46.65232" lon="6.05928">
        <ele>910.51</ele>
        <time>2011-10-14T12:44:18Z</time>
      </trkpt>
      <trkpt lat="46.65239" lon="6.05919">
        <ele>909.06</ele>
        <time>2011-10-14T12:44:20Z</time>
      </trkpt>
      <trkpt lat="46.6525" lon="6.05903">
        <ele>907.14</ele>
        <time>2011-10-14T12:44:23Z</time>
      </trkpt>
      <trkpt lat="46.65263" lon="6.05884">
        <ele>903.78</ele>
        <time>2011-10-14T12:44:27Z</time>
      </trkpt>
      <trkpt lat="46.65271" lon="6.05876">
        <ele>902.82</ele>
        <time>2011-10-14T12:44:29Z</time>
      </trkpt>
      <trkpt lat="46.65275" lon="6.05874">
        <ele>901.37</ele>
        <time>2011-10-14T12:44:38Z</time>
      </trkpt>
      <trkpt lat="46.65278" lon="6.05871">
        <ele>900.89</ele>
        <time>2011-10-14T12:45:01Z</time>
      </trkpt>
      <trkpt lat="46.65283" lon="6.05865">
        <ele>899.93</ele>
        <time>2011-10-14T12:45:37Z</time>
      </trkpt>
      <trkpt lat="46.65289" lon="6.05859">
        <ele>898.49</ele>
        <time>2011-10-14T12:46:05Z</time>
      </trkpt>
      <trkpt lat="46.65299" lon="6.05845">
        <ele>897.53</ele>
        <time>2011-10-14T12:46:19Z</time>
      </trkpt>
      <trkpt lat="46.653" lon="6.05844">
        <ele>897.53</ele>
        <time>2011-10-14T12:46:20Z</time>
      </trkpt>
      <trkpt lat="46.65301" lon="6.05842">
        <ele>897.53</ele>
        <time>2011-10-14T12:46:21Z</time>
      </trkpt>
      <trkpt lat="46.65331" lon="6.05811">
        <ele>897.05</ele>
        <time>2011-10-14T12:46:31Z</time>
      </trkpt>
      <trkpt lat="46.65353" lon="6.05804">
        <ele>897.53</ele>
        <time>2011-10-14T12:46:36Z</time>
      </trkpt>
      <trkpt lat="46.65357" lon="6.05806">
        <ele>897.53</ele>
        <time>2011-10-14T12:46:37Z</time>
      </trkpt>
      <trkpt lat="46.6536" lon="6.0581">
        <ele>898.49</ele>
        <time>2011-10-14T12:46:38Z</time>
      </trkpt>
      <trkpt lat="46.65363" lon="6.05814">
        <ele>898.01</ele>
        <time>2011-10-14T12:46:39Z</time>
      </trkpt>
      <trkpt lat="46.65366" lon="6.05819">
        <ele>898.97</ele>
        <time>2011-10-14T12:46:40Z</time>
      </trkpt>
      <trkpt lat="46.65394" lon="6.05861">
        <ele>901.37</ele>
        <time>2011-10-14T12:46:50Z</time>
      </trkpt>
      <trkpt lat="46.6544" lon="6.05915">
        <ele>905.22</ele>
        <time>2011-10-14T12:47:05Z</time>
      </trkpt>
      <trkpt lat="46.65473" lon="6.0592">
        <ele>905.7</ele>
        <time>2011-10-14T12:47:18Z</time>
      </trkpt>
      <trkpt lat="46.6548" lon="6.0592">
        <ele>905.22</ele>
        <time>2011-10-14T12:47:20Z</time>
      </trkpt>
      <trkpt lat="46.65483" lon="6.05923">
        <ele>905.22</ele>
        <time>2011-10-14T12:47:21Z</time>
      </trkpt>
      <trkpt lat="46.65486" lon="6.05928">
        <ele>906.18</ele>
        <time>2011-10-14T12:47:22Z</time>
      </trkpt>
      <trkpt lat="46.65489" lon="6.05934">
        <ele>905.22</ele>
        <time>2011-10-14T12:47:23Z</time>
      </trkpt>
      <trkpt lat="46.65492" lon="6.05941">
        <ele>904.26</ele>
        <time>2011-10-14T12:47:24Z</time>
      </trkpt>
      <trkpt lat="46.65506" lon="6.05976">
        <ele>903.78</ele>
        <time>2011-10-14T12:47:29Z</time>
      </trkpt>
      <trkpt lat="46.65525" lon="6.06026">
        <ele>899.93</ele>
        <time>2011-10-14T12:47:35Z</time>
      </trkpt>
      <trkpt lat="46.65527" lon="6.06035">
        <ele>899.93</ele>
        <time>2011-10-14T12:47:36Z</time>
      </trkpt>
      <trkpt lat="46.65544" lon="6.06107">
        <ele>896.57</ele>
        <time>2011-10-14T12:47:43Z</time>
      </trkpt>
      <trkpt lat="46.65545" lon="6.06118">
        <ele>897.05</ele>
        <time>2011-10-14T12:47:44Z</time>
      </trkpt>
      <trkpt lat="46.65546" lon="6.06129">
        <ele>896.57</ele>
        <time>2011-10-14T12:47:45Z</time>
      </trkpt>
      <trkpt lat="46.65545" lon="6.06139">
        <ele>897.53</ele>
        <time>2011-10-14T12:47:46Z</time>
      </trkpt>
      <trkpt lat="46.65543" lon="6.06149">
        <ele>897.05</ele>
        <time>2011-10-14T12:47:47Z</time>
      </trkpt>
      <trkpt lat="46.65532" lon="6.06194">
        <ele>896.57</ele>
        <time>2011-10-14T12:47:52Z</time>
      </trkpt>
      <trkpt lat="46.65531" lon="6.06211">
        <ele>896.57</ele>
        <time>2011-10-14T12:47:54Z</time>
      </trkpt>
      <trkpt lat="46.65535" lon="6.06266">
        <ele>895.12</ele>
        <time>2011-10-14T12:48:00Z</time>
      </trkpt>
      <trkpt lat="46.65532" lon="6.06363">
        <ele>892.72</ele>
        <time>2011-10-14T12:48:11Z</time>
      </trkpt>
      <trkpt lat="46.65531" lon="6.06372">
        <ele>892.72</ele>
        <time>2011-10-14T12:48:12Z</time>
      </trkpt>
      <trkpt lat="46.6553" lon="6.06381">
        <ele>891.76</ele>
        <time>2011-10-14T12:48:13Z</time>
      </trkpt>
      <trkpt lat="46.65528" lon="6.06389">
        <ele>891.76</ele>
        <time>2011-10-14T12:48:14Z</time>
      </trkpt>
      <trkpt lat="46.65526" lon="6.06396">
        <ele>891.28</ele>
        <time>2011-10-14T12:48:15Z</time>
      </trkpt>
      <trkpt lat="46.65518" lon="6.06419">
        <ele>890.8</ele>
        <time>2011-10-14T12:48:20Z</time>
      </trkpt>
      <trkpt lat="46.65519" lon="6.06423">
        <ele>890.8</ele>
        <time>2011-10-14T12:48:21Z</time>
      </trkpt>
      <trkpt lat="46.65519" lon="6.06428">
        <ele>890.32</ele>
        <time>2011-10-14T12:48:22Z</time>
      </trkpt>
      <trkpt lat="46.65521" lon="6.06432">
        <ele>890.8</ele>
        <time>2011-10-14T12:48:23Z</time>
      </trkpt>
      <trkpt lat="46.65524" lon="6.06436">
        <ele>890.32</ele>
        <time>2011-10-14T12:48:24Z</time>
      </trkpt>
      <trkpt lat="46.65527" lon="6.0644">
        <ele>890.8</ele>
        <time>2011-10-14T12:48:25Z</time>
      </trkpt>
      <trkpt lat="46.6553" lon="6.06444">
        <ele>889.84</ele>
        <time>2011-10-14T12:48:26Z</time>
      </trkpt>
      <trkpt lat="46.65535" lon="6.06449">
        <ele>890.8</ele>
        <time>2011-10-14T12:48:27Z</time>
      </trkpt>
      <trkpt lat="46.6554" lon="6.06453">
        <ele>890.32</ele>
        <time>2011-10-14T12:48:28Z</time>
      </trkpt>
      <trkpt lat="46.65586" lon="6.06517">
        <ele>890.32</ele>
        <time>2011-10-14T12:48:40Z</time>
      </trkpt>
      <trkpt lat="46.65589" lon="6.06523">
        <ele>889.84</ele>
        <time>2011-10-14T12:48:41Z</time>
      </trkpt>
      <trkpt lat="46.65589" lon="6.0653">
        <ele>889.36</ele>
        <time>2011-10-14T12:48:42Z</time>
      </trkpt>
      <trkpt lat="46.65587" lon="6.06538">
        <ele>889.36</ele>
        <time>2011-10-14T12:48:43Z</time>
      </trkpt>
      <trkpt lat="46.65586" lon="6.06546">
        <ele>888.4</ele>
        <time>2011-10-14T12:48:44Z</time>
      </trkpt>
      <trkpt lat="46.65586" lon="6.06555">
        <ele>887.91</ele>
        <time>2011-10-14T12:48:45Z</time>
      </trkpt>
      <trkpt lat="46.65587" lon="6.06564">
        <ele>886.95</ele>
        <time>2011-10-14T12:48:46Z</time>
      </trkpt>
      <trkpt lat="46.6559" lon="6.06575">
        <ele>885.99</ele>
        <time>2011-10-14T12:48:47Z</time>
      </trkpt>
      <trkpt lat="46.65593" lon="6.06586">
        <ele>885.51</ele>
        <time>2011-10-14T12:48:48Z</time>
      </trkpt>
      <trkpt lat="46.65595" lon="6.06599">
        <ele>884.07</ele>
        <time>2011-10-14T12:48:49Z</time>
      </trkpt>
      <trkpt lat="46.65599" lon="6.06642">
        <ele>880.71</ele>
        <time>2011-10-14T12:48:52Z</time>
      </trkpt>
      <trkpt lat="46.65598" lon="6.06656">
        <ele>881.19</ele>
        <time>2011-10-14T12:48:53Z</time>
      </trkpt>
      <trkpt lat="46.65597" lon="6.06689">
        <ele>880.71</ele>
        <time>2011-10-14T12:48:56Z</time>
      </trkpt>
      <trkpt lat="46.65596" lon="6.06696">
        <ele>880.22</ele>
        <time>2011-10-14T12:48:57Z</time>
      </trkpt>
      <trkpt lat="46.65592" lon="6.06699">
        <ele>880.22</ele>
        <time>2011-10-14T12:48:58Z</time>
      </trkpt>
      <trkpt lat="46.65588" lon="6.067">
        <ele>880.22</ele>
        <time>2011-10-14T12:48:59Z</time>
      </trkpt>
      <trkpt lat="46.65583" lon="6.06699">
        <ele>879.74</ele>
        <time>2011-10-14T12:49:00Z</time>
      </trkpt>
      <trkpt lat="46.65578" lon="6.067">
        <ele>880.22</ele>
        <time>2011-10-14T12:49:01Z</time>
      </trkpt>
      <trkpt lat="46.65573" lon="6.06702">
        <ele>879.74</ele>
        <time>2011-10-14T12:49:02Z</time>
      </trkpt>
      <trkpt lat="46.65569" lon="6.06706">
        <ele>879.74</ele>
        <time>2011-10-14T12:49:03Z</time>
      </trkpt>
      <trkpt lat="46.65565" lon="6.0671">
        <ele>880.71</ele>
        <time>2011-10-14T12:49:04Z</time>
      </trkpt>
      <trkpt lat="46.65543" lon="6.06731">
        <ele>879.74</ele>
        <time>2011-10-14T12:49:09Z</time>
      </trkpt>
      <trkpt lat="46.65535" lon="6.06739">
        <ele>880.71</ele>
        <time>2011-10-14T12:49:11Z</time>
      </trkpt>
      <trkpt lat="46.65533" lon="6.06745">
        <ele>880.71</ele>
        <time>2011-10-14T12:49:12Z</time>
      </trkpt>
      <trkpt lat="46.65532" lon="6.06751">
        <ele>879.74</ele>
        <time>2011-10-14T12:49:13Z</time>
      </trkpt>
      <trkpt lat="46.65533" lon="6.06756">
        <ele>879.26</ele>
        <time>2011-10-14T12:49:14Z</time>
      </trkpt>
      <trkpt lat="46.65535" lon="6.06762">
        <ele>879.26</ele>
        <time>2011-10-14T12:49:15Z</time>
      </trkpt>
      <trkpt lat="46.65537" lon="6.06767">
        <ele>880.22</ele>
        <time>2011-10-14T12:49:16Z</time>
      </trkpt>
      <trkpt lat="46.65539" lon="6.06772">
        <ele>880.22</ele>
        <time>2011-10-14T12:49:17Z</time>
      </trkpt>
      <trkpt lat="46.65541" lon="6.06777">
        <ele>879.74</ele>
        <time>2011-10-14T12:49:18Z</time>
      </trkpt>
      <trkpt lat="46.65544" lon="6.06782">
        <ele>879.26</ele>
        <time>2011-10-14T12:49:19Z</time>
      </trkpt>
      <trkpt lat="46.65553" lon="6.06796">
        <ele>879.74</ele>
        <time>2011-10-14T12:49:22Z</time>
      </trkpt>
      <trkpt lat="46.65556" lon="6.06801">
        <ele>879.26</ele>
        <time>2011-10-14T12:49:23Z</time>
      </trkpt>
      <trkpt lat="46.65561" lon="6.0681">
        <ele>879.74</ele>
        <time>2011-10-14T12:49:25Z</time>
      </trkpt>
      <trkpt lat="46.65567" lon="6.06834">
        <ele>879.26</ele>
        <time>2011-10-14T12:49:30Z</time>
      </trkpt>
      <trkpt lat="46.65555" lon="6.06868">
        <ele>881.19</ele>
        <time>2011-10-14T12:49:37Z</time>
      </trkpt>
      <trkpt lat="46.65556" lon="6.06874">
        <ele>879.74</ele>
        <time>2011-10-14T12:49:38Z</time>
      </trkpt>
      <trkpt lat="46.65558" lon="6.0688">
        <ele>879.74</ele>
        <time>2011-10-14T12:49:39Z</time>
      </trkpt>
      <trkpt lat="46.65573" lon="6.06911">
        <ele>879.74</ele>
        <time>2011-10-14T12:49:45Z</time>
      </trkpt>
      <trkpt lat="46.65578" lon="6.06928">
        <ele>880.22</ele>
        <time>2011-10-14T12:49:48Z</time>
      </trkpt>
      <trkpt lat="46.6558" lon="6.06941">
        <ele>880.22</ele>
        <time>2011-10-14T12:49:50Z</time>
      </trkpt>
      <trkpt lat="46.6558" lon="6.06947">
        <ele>880.71</ele>
        <time>2011-10-14T12:49:51Z</time>
      </trkpt>
      <trkpt lat="46.65574" lon="6.06976">
        <ele>880.71</ele>
        <time>2011-10-14T12:49:56Z</time>
      </trkpt>
      <trkpt lat="46.65572" lon="6.06981">
        <ele>880.71</ele>
        <time>2011-10-14T12:49:57Z</time>
      </trkpt>
      <trkpt lat="46.65571" lon="6.06987">
        <ele>880.22</ele>
        <time>2011-10-14T12:49:58Z</time>
      </trkpt>
      <trkpt lat="46.65571" lon="6.06993">
        <ele>879.74</ele>
        <time>2011-10-14T12:49:59Z</time>
      </trkpt>
      <trkpt lat="46.65571" lon="6.06999">
        <ele>880.71</ele>
        <time>2011-10-14T12:50:00Z</time>
      </trkpt>
      <trkpt lat="46.65572" lon="6.07005">
        <ele>880.71</ele>
        <time>2011-10-14T12:50:01Z</time>
      </trkpt>
      <trkpt lat="46.65573" lon="6.0701">
        <ele>879.74</ele>
        <time>2011-10-14T12:50:02Z</time>
      </trkpt>
      <trkpt lat="46.65575" lon="6.07015">
        <ele>879.74</ele>
        <time>2011-10-14T12:50:03Z</time>
      </trkpt>
      <trkpt lat="46.65577" lon="6.0702">
        <ele>880.22</ele>
        <time>2011-10-14T12:50:04Z</time>
      </trkpt>
      <trkpt lat="46.65607" lon="6.07062">
        <ele>880.71</ele>
        <time>2011-10-14T12:50:15Z</time>
      </trkpt>
      <trkpt lat="46.65646" lon="6.07085">
        <ele>880.22</ele>
        <time>2011-10-14T12:50:26Z</time>
      </trkpt>
      <trkpt lat="46.65687" lon="6.07108">
        <ele>879.74</ele>
        <time>2011-10-14T12:50:38Z</time>
      </trkpt>
      <trkpt lat="46.65736" lon="6.07133">
        <ele>880.22</ele>
        <time>2011-10-14T12:50:51Z</time>
      </trkpt>
      <trkpt lat="46.65782" lon="6.07176">
        <ele>880.22</ele>
        <time>2011-10-14T12:51:06Z</time>
      </trkpt>
      <trkpt lat="46.65809" lon="6.07236">
        <ele>881.67</ele>
        <time>2011-10-14T12:51:19Z</time>
      </trkpt>
      <trkpt lat="46.65826" lon="6.07303">
        <ele>881.67</ele>
        <time>2011-10-14T12:51:33Z</time>
      </trkpt>
      <trkpt lat="46.65833" lon="6.07367">
        <ele>881.67</ele>
        <time>2011-10-14T12:51:46Z</time>
      </trkpt>
      <trkpt lat="46.65853" lon="6.07404">
        <ele>883.11</ele>
        <time>2011-10-14T12:51:57Z</time>
      </trkpt>
      <trkpt lat="46.65869" lon="6.07428">
        <ele>883.11</ele>
        <time>2011-10-14T12:52:03Z</time>
      </trkpt>
      <trkpt lat="46.65893" lon="6.07478">
        <ele>883.59</ele>
        <time>2011-10-14T12:52:14Z</time>
      </trkpt>
      <trkpt lat="46.65896" lon="6.07485">
        <ele>883.59</ele>
        <time>2011-10-14T12:52:16Z</time>
      </trkpt>
      <trkpt lat="46.65897" lon="6.07486">
        <ele>883.59</ele>
        <time>2011-10-14T12:52:17Z</time>
      </trkpt>
      <trkpt lat="46.65898" lon="6.07484">
        <ele>883.59</ele>
        <time>2011-10-14T12:52:18Z</time>
      </trkpt>
      <trkpt lat="46.65896" lon="6.07482">
        <ele>883.59</ele>
        <time>2011-10-14T12:52:19Z</time>
      </trkpt>
      <trkpt lat="46.6588" lon="6.07466">
        <ele>882.15</ele>
        <time>2011-10-14T12:52:25Z</time>
      </trkpt>
      <trkpt lat="46.65881" lon="6.07461">
        <ele>882.15</ele>
        <time>2011-10-14T12:52:26Z</time>
      </trkpt>
      <trkpt lat="46.65885" lon="6.07455">
        <ele>881.67</ele>
        <time>2011-10-14T12:52:27Z</time>
      </trkpt>
      <trkpt lat="46.65888" lon="6.0745">
        <ele>882.15</ele>
        <time>2011-10-14T12:52:29Z</time>
      </trkpt>
      <trkpt lat="46.65892" lon="6.07446">
        <ele>881.67</ele>
        <time>2011-10-14T12:52:31Z</time>
      </trkpt>
      <trkpt lat="46.65893" lon="6.07443">
        <ele>881.67</ele>
        <time>2011-10-14T12:52:32Z</time>
      </trkpt>
      <trkpt lat="46.65895" lon="6.0744">
        <ele>881.67</ele>
        <time>2011-10-14T12:52:33Z</time>
      </trkpt>
      <trkpt lat="46.65898" lon="6.07437">
        <ele>882.15</ele>
        <time>2011-10-14T12:52:34Z</time>
      </trkpt>
      <trkpt lat="46.659" lon="6.07435">
        <ele>882.15</ele>
        <time>2011-10-14T12:52:35Z</time>
      </trkpt>
      <trkpt lat="46.65903" lon="6.07433">
        <ele>882.63</ele>
        <time>2011-10-14T12:52:36Z</time>
      </trkpt>
      <trkpt lat="46.65907" lon="6.07434">
        <ele>882.15</ele>
        <time>2011-10-14T12:52:37Z</time>
      </trkpt>
      <trkpt lat="46.65911" lon="6.07437">
        <ele>882.63</ele>
        <time>2011-10-14T12:52:38Z</time>
      </trkpt>
      <trkpt lat="46.65915" lon="6.07441">
        <ele>882.63</ele>
        <time>2011-10-14T12:52:39Z</time>
      </trkpt>
      <trkpt lat="46.65918" lon="6.07444">
        <ele>883.59</ele>
        <time>2011-10-14T12:52:40Z</time>
      </trkpt>
      <trkpt lat="46.6592" lon="6.07446">
        <ele>883.59</ele>
        <time>2011-10-14T12:52:41Z</time>
      </trkpt>
      <trkpt lat="46.65932" lon="6.07449">
        <ele>883.59</ele>
        <time>2011-10-14T12:52:43Z</time>
      </trkpt>
      <trkpt lat="46.65938" lon="6.0745">
        <ele>884.07</ele>
        <time>2011-10-14T12:52:44Z</time>
      </trkpt>
      <trkpt lat="46.65942" lon="6.07452">
        <ele>883.11</ele>
        <time>2011-10-14T12:52:45Z</time>
      </trkpt>
      <trkpt lat="46.65947" lon="6.07455">
        <ele>884.07</ele>
        <time>2011-10-14T12:52:46Z</time>
      </trkpt>
      <trkpt lat="46.65951" lon="6.0746">
        <ele>883.59</ele>
        <time>2011-10-14T12:52:47Z</time>
      </trkpt>
      <trkpt lat="46.65954" lon="6.07466">
        <ele>884.07</ele>
        <time>2011-10-14T12:52:48Z</time>
      </trkpt>
      <trkpt lat="46.65958" lon="6.07472">
        <ele>884.07</ele>
        <time>2011-10-14T12:52:49Z</time>
      </trkpt>
      <trkpt lat="46.65963" lon="6.0749">
        <ele>884.07</ele>
        <time>2011-10-14T12:52:52Z</time>
      </trkpt>
      <trkpt lat="46.6597" lon="6.07501">
        <ele>883.59</ele>
        <time>2011-10-14T12:52:54Z</time>
      </trkpt>
      <trkpt lat="46.65988" lon="6.0754">
        <ele>884.07</ele>
        <time>2011-10-14T12:53:01Z</time>
      </trkpt>
      <trkpt lat="46.6599" lon="6.07545">
        <ele>884.07</ele>
        <time>2011-10-14T12:53:02Z</time>
      </trkpt>
      <trkpt lat="46.65993" lon="6.0755">
        <ele>884.07</ele>
        <time>2011-10-14T12:53:03Z</time>
      </trkpt>
      <trkpt lat="46.65996" lon="6.07554">
        <ele>884.07</ele>
        <time>2011-10-14T12:53:04Z</time>
      </trkpt>
      <trkpt lat="46.65999" lon="6.07557">
        <ele>884.07</ele>
        <time>2011-10-14T12:53:05Z</time>
      </trkpt>
      <trkpt lat="46.66001" lon="6.0756">
        <ele>883.59</ele>
        <time>2011-10-14T12:53:06Z</time>
      </trkpt>
      <trkpt lat="46.66034" lon="6.0759">
        <ele>885.99</ele>
        <time>2011-10-14T12:53:16Z</time>
      </trkpt>
      <trkpt lat="46.66038" lon="6.07593">
        <ele>885.99</ele>
        <time>2011-10-14T12:53:17Z</time>
      </trkpt>
      <trkpt lat="46.66042" lon="6.07595">
        <ele>885.99</ele>
        <time>2011-10-14T12:53:18Z</time>
      </trkpt>
      <trkpt lat="46.66046" lon="6.07598">
        <ele>885.03</ele>
        <time>2011-10-14T12:53:19Z</time>
      </trkpt>
      <trkpt lat="46.66083" lon="6.07634">
        <ele>887.43</ele>
        <time>2011-10-14T12:53:31Z</time>
      </trkpt>
      <trkpt lat="46.66117" lon="6.07666">
        <ele>889.84</ele>
        <time>2011-10-14T12:53:42Z</time>
      </trkpt>
      <trkpt lat="46.66143" lon="6.07704">
        <ele>892.72</ele>
        <time>2011-10-14T12:53:52Z</time>
      </trkpt>
      <trkpt lat="46.66171" lon="6.07757">
        <ele>896.57</ele>
        <time>2011-10-14T12:54:04Z</time>
      </trkpt>
      <trkpt lat="46.66192" lon="6.07825">
        <ele>898.49</ele>
        <time>2011-10-14T12:54:17Z</time>
      </trkpt>
      <trkpt lat="46.66194" lon="6.0783">
        <ele>898.49</ele>
        <time>2011-10-14T12:54:18Z</time>
      </trkpt>
      <trkpt lat="46.66211" lon="6.07885">
        <ele>898.97</ele>
        <time>2011-10-14T12:54:31Z</time>
      </trkpt>
      <trkpt lat="46.6622" lon="6.07928">
        <ele>898.97</ele>
        <time>2011-10-14T12:54:41Z</time>
      </trkpt>
      <trkpt lat="46.66236" lon="6.07996">
        <ele>900.41</ele>
        <time>2011-10-14T12:54:53Z</time>
      </trkpt>
      <trkpt lat="46.66248" lon="6.0806">
        <ele>900.89</ele>
        <time>2011-10-14T12:55:05Z</time>
      </trkpt>
      <trkpt lat="46.66267" lon="6.08139">
        <ele>901.37</ele>
        <time>2011-10-14T12:55:21Z</time>
      </trkpt>
      <trkpt lat="46.66283" lon="6.08166">
        <ele>903.3</ele>
        <time>2011-10-14T12:55:30Z</time>
      </trkpt>
      <trkpt lat="46.66295" lon="6.08179">
        <ele>905.7</ele>
        <time>2011-10-14T12:55:39Z</time>
      </trkpt>
      <trkpt lat="46.66308" lon="6.08191">
        <ele>908.58</ele>
        <time>2011-10-14T12:55:48Z</time>
      </trkpt>
      <trkpt lat="46.66317" lon="6.08203">
        <ele>909.54</ele>
        <time>2011-10-14T12:55:57Z</time>
      </trkpt>
      <trkpt lat="46.66318" lon="6.08205">
        <ele>910.03</ele>
        <time>2011-10-14T12:55:58Z</time>
      </trkpt>
      <trkpt lat="46.66323" lon="6.08247">
        <ele>910.99</ele>
        <time>2011-10-14T12:56:13Z</time>
      </trkpt>
      <trkpt lat="46.66324" lon="6.08284">
        <ele>911.47</ele>
        <time>2011-10-14T12:56:26Z</time>
      </trkpt>
      <trkpt lat="46.6633" lon="6.08323">
        <ele>913.39</ele>
        <time>2011-10-14T12:56:40Z</time>
      </trkpt>
      <trkpt lat="46.66351" lon="6.0837">
        <ele>913.87</ele>
        <time>2011-10-14T12:56:58Z</time>
      </trkpt>
      <trkpt lat="46.66375" lon="6.08392">
        <ele>915.79</ele>
        <time>2011-10-14T12:57:11Z</time>
      </trkpt>
      <trkpt lat="46.66393" lon="6.08401">
        <ele>916.27</ele>
        <time>2011-10-14T12:57:22Z</time>
      </trkpt>
      <trkpt lat="46.66401" lon="6.08405">
        <ele>915.79</ele>
        <time>2011-10-14T12:57:27Z</time>
      </trkpt>
      <trkpt lat="46.66432" lon="6.08418">
        <ele>916.75</ele>
        <time>2011-10-14T12:57:39Z</time>
      </trkpt>
      <trkpt lat="46.66456" lon="6.08433">
        <ele>917.72</ele>
        <time>2011-10-14T12:57:51Z</time>
      </trkpt>
      <trkpt lat="46.66475" lon="6.0846">
        <ele>918.68</ele>
        <time>2011-10-14T12:58:02Z</time>
      </trkpt>
      <trkpt lat="46.66493" lon="6.08493">
        <ele>921.08</ele>
        <time>2011-10-14T12:58:14Z</time>
      </trkpt>
      <trkpt lat="46.66515" lon="6.08521">
        <ele>921.08</ele>
        <time>2011-10-14T12:58:25Z</time>
      </trkpt>
      <trkpt lat="46.66539" lon="6.0854">
        <ele>922.52</ele>
        <time>2011-10-14T12:58:36Z</time>
      </trkpt>
      <trkpt lat="46.6656" lon="6.08562">
        <ele>922.52</ele>
        <time>2011-10-14T12:58:48Z</time>
      </trkpt>
      <trkpt lat="46.66588" lon="6.08597">
        <ele>923.48</ele>
        <time>2011-10-14T12:59:00Z</time>
      </trkpt>
      <trkpt lat="46.666" lon="6.08637">
        <ele>925.41</ele>
        <time>2011-10-14T12:59:11Z</time>
      </trkpt>
      <trkpt lat="46.66611" lon="6.08683">
        <ele>926.37</ele>
        <time>2011-10-14T12:59:24Z</time>
      </trkpt>
      <trkpt lat="46.66625" lon="6.08734">
        <ele>927.33</ele>
        <time>2011-10-14T12:59:40Z</time>
      </trkpt>
      <trkpt lat="46.66646" lon="6.08766">
        <ele>928.77</ele>
        <time>2011-10-14T12:59:53Z</time>
      </trkpt>
      <trkpt lat="46.66671" lon="6.08788">
        <ele>928.77</ele>
        <time>2011-10-14T13:00:05Z</time>
      </trkpt>
      <trkpt lat="46.66686" lon="6.08798">
        <ele>929.73</ele>
        <time>2011-10-14T13:00:13Z</time>
      </trkpt>
      <trkpt lat="46.66704" lon="6.08817">
        <ele>931.17</ele>
        <time>2011-10-14T13:00:24Z</time>
      </trkpt>
      <trkpt lat="46.66726" lon="6.08851">
        <ele>931.65</ele>
        <time>2011-10-14T13:00:37Z</time>
      </trkpt>
      <trkpt lat="46.66738" lon="6.08892">
        <ele>934.54</ele>
        <time>2011-10-14T13:00:50Z</time>
      </trkpt>
      <trkpt lat="46.66749" lon="6.08946">
        <ele>935.5</ele>
        <time>2011-10-14T13:01:07Z</time>
      </trkpt>
      <trkpt lat="46.66756" lon="6.08967">
        <ele>935.98</ele>
        <time>2011-10-14T13:01:14Z</time>
      </trkpt>
      <trkpt lat="46.66756" lon="6.0897">
        <ele>935.98</ele>
        <time>2011-10-14T13:01:15Z</time>
      </trkpt>
      <trkpt lat="46.66764" lon="6.08993">
        <ele>936.94</ele>
        <time>2011-10-14T13:01:24Z</time>
      </trkpt>
      <trkpt lat="46.66765" lon="6.08995">
        <ele>936.94</ele>
        <time>2011-10-14T13:01:39Z</time>
      </trkpt>
      <trkpt lat="46.66771" lon="6.0901">
        <ele>935.98</ele>
        <time>2011-10-14T13:02:21Z</time>
      </trkpt>
      <trkpt lat="46.66771" lon="6.09013">
        <ele>937.42</ele>
        <time>2011-10-14T13:02:22Z</time>
      </trkpt>
      <trkpt lat="46.66785" lon="6.09056">
        <ele>938.38</ele>
        <time>2011-10-14T13:02:36Z</time>
      </trkpt>
      <trkpt lat="46.66796" lon="6.09092">
        <ele>939.83</ele>
        <time>2011-10-14T13:02:47Z</time>
      </trkpt>
      <trkpt lat="46.66806" lon="6.09122">
        <ele>940.79</ele>
        <time>2011-10-14T13:02:56Z</time>
      </trkpt>
      <trkpt lat="46.6682" lon="6.09165">
        <ele>942.71</ele>
        <time>2011-10-14T13:03:09Z</time>
      </trkpt>
      <trkpt lat="46.66836" lon="6.09207">
        <ele>943.19</ele>
        <time>2011-10-14T13:03:23Z</time>
      </trkpt>
      <trkpt lat="46.66851" lon="6.09248">
        <ele>945.11</ele>
        <time>2011-10-14T13:03:36Z</time>
      </trkpt>
      <trkpt lat="46.66869" lon="6.09296">
        <ele>946.56</ele>
        <time>2011-10-14T13:03:51Z</time>
      </trkpt>
      <trkpt lat="46.66886" lon="6.09329">
        <ele>946.56</ele>
        <time>2011-10-14T13:04:03Z</time>
      </trkpt>
      <trkpt lat="46.66908" lon="6.09353">
        <ele>947.52</ele>
        <time>2011-10-14T13:04:15Z</time>
      </trkpt>
      <trkpt lat="46.66935" lon="6.09366">
        <ele>948.96</ele>
        <time>2011-10-14T13:04:27Z</time>
      </trkpt>
      <trkpt lat="46.66954" lon="6.09356">
        <ele>950.4</ele>
        <time>2011-10-14T13:04:37Z</time>
      </trkpt>
      <trkpt lat="46.66955" lon="6.09338">
        <ele>949.44</ele>
        <time>2011-10-14T13:04:43Z</time>
      </trkpt>
      <trkpt lat="46.66955" lon="6.09335">
        <ele>950.88</ele>
        <time>2011-10-14T13:04:44Z</time>
      </trkpt>
      <trkpt lat="46.66953" lon="6.09324">
        <ele>948.96</ele>
        <time>2011-10-14T13:04:52Z</time>
      </trkpt>
      <trkpt lat="46.66957" lon="6.09327">
        <ele>949.92</ele>
        <time>2011-10-14T13:04:54Z</time>
      </trkpt>
      <trkpt lat="46.66966" lon="6.09341">
        <ele>949.92</ele>
        <time>2011-10-14T13:04:58Z</time>
      </trkpt>
      <trkpt lat="46.66986" lon="6.09372">
        <ele>950.4</ele>
        <time>2011-10-14T13:05:08Z</time>
      </trkpt>
      <trkpt lat="46.67006" lon="6.09395">
        <ele>952.8</ele>
        <time>2011-10-14T13:05:19Z</time>
      </trkpt>
      <trkpt lat="46.67026" lon="6.09424">
        <ele>953.28</ele>
        <time>2011-10-14T13:05:30Z</time>
      </trkpt>
      <trkpt lat="46.67048" lon="6.09466">
        <ele>954.73</ele>
        <time>2011-10-14T13:05:43Z</time>
      </trkpt>
      <trkpt lat="46.67061" lon="6.09494">
        <ele>955.69</ele>
        <time>2011-10-14T13:05:52Z</time>
      </trkpt>
      <trkpt lat="46.67069" lon="6.09537">
        <ele>956.65</ele>
        <time>2011-10-14T13:06:05Z</time>
      </trkpt>
      <trkpt lat="46.67075" lon="6.09578">
        <ele>958.09</ele>
        <time>2011-10-14T13:06:17Z</time>
      </trkpt>
      <trkpt lat="46.67079" lon="6.09601">
        <ele>958.57</ele>
        <time>2011-10-14T13:06:24Z</time>
      </trkpt>
      <trkpt lat="46.67088" lon="6.09644">
        <ele>959.53</ele>
        <time>2011-10-14T13:06:37Z</time>
      </trkpt>
      <trkpt lat="46.67092" lon="6.09664">
        <ele>960.49</ele>
        <time>2011-10-14T13:06:43Z</time>
      </trkpt>
      <trkpt lat="46.67101" lon="6.09699">
        <ele>961.46</ele>
        <time>2011-10-14T13:06:54Z</time>
      </trkpt>
      <trkpt lat="46.67102" lon="6.09703">
        <ele>961.46</ele>
        <time>2011-10-14T13:06:55Z</time>
      </trkpt>
      <trkpt lat="46.67108" lon="6.09714">
        <ele>961.46</ele>
        <time>2011-10-14T13:06:59Z</time>
      </trkpt>
      <trkpt lat="46.67128" lon="6.09742">
        <ele>962.9</ele>
        <time>2011-10-14T13:07:11Z</time>
      </trkpt>
      <trkpt lat="46.6713" lon="6.09742">
        <ele>963.38</ele>
        <time>2011-10-14T13:07:12Z</time>
      </trkpt>
      <trkpt lat="46.67139" lon="6.09752">
        <ele>962.9</ele>
        <time>2011-10-14T13:07:17Z</time>
      </trkpt>
      <trkpt lat="46.67164" lon="6.09774">
        <ele>964.34</ele>
        <time>2011-10-14T13:07:29Z</time>
      </trkpt>
      <trkpt lat="46.67191" lon="6.09793">
        <ele>965.78</ele>
        <time>2011-10-14T13:07:41Z</time>
      </trkpt>
      <trkpt lat="46.67212" lon="6.09809">
        <ele>966.74</ele>
        <time>2011-10-14T13:07:51Z</time>
      </trkpt>
      <trkpt lat="46.67228" lon="6.09828">
        <ele>966.74</ele>
        <time>2011-10-14T13:08:01Z</time>
      </trkpt>
      <trkpt lat="46.67247" lon="6.09851">
        <ele>968.67</ele>
        <time>2011-10-14T13:08:13Z</time>
      </trkpt>
      <trkpt lat="46.67274" lon="6.09884">
        <ele>970.11</ele>
        <time>2011-10-14T13:08:28Z</time>
      </trkpt>
      <trkpt lat="46.67281" lon="6.09903">
        <ele>970.59</ele>
        <time>2011-10-14T13:08:35Z</time>
      </trkpt>
      <trkpt lat="46.67296" lon="6.09939">
        <ele>971.07</ele>
        <time>2011-10-14T13:08:48Z</time>
      </trkpt>
      <trkpt lat="46.67312" lon="6.09988">
        <ele>972.51</ele>
        <time>2011-10-14T13:09:05Z</time>
      </trkpt>
      <trkpt lat="46.67324" lon="6.10032">
        <ele>973.47</ele>
        <time>2011-10-14T13:09:20Z</time>
      </trkpt>
      <trkpt lat="46.67338" lon="6.10077">
        <ele>975.39</ele>
        <time>2011-10-14T13:09:36Z</time>
      </trkpt>
      <trkpt lat="46.67346" lon="6.10108">
        <ele>976.84</ele>
        <time>2011-10-14T13:09:47Z</time>
      </trkpt>
      <trkpt lat="46.67353" lon="6.10135">
        <ele>977.8</ele>
        <time>2011-10-14T13:09:57Z</time>
      </trkpt>
      <trkpt lat="46.67358" lon="6.10153">
        <ele>977.8</ele>
        <time>2011-10-14T13:10:05Z</time>
      </trkpt>
      <trkpt lat="46.67363" lon="6.10175">
        <ele>978.76</ele>
        <time>2011-10-14T13:10:13Z</time>
      </trkpt>
      <trkpt lat="46.67376" lon="6.10217">
        <ele>980.2</ele>
        <time>2011-10-14T13:10:28Z</time>
      </trkpt>
      <trkpt lat="46.67391" lon="6.10255">
        <ele>981.16</ele>
        <time>2011-10-14T13:10:42Z</time>
      </trkpt>
      <trkpt lat="46.67398" lon="6.10272">
        <ele>981.64</ele>
        <time>2011-10-14T13:10:53Z</time>
      </trkpt>
      <trkpt lat="46.67406" lon="6.10295">
        <ele>982.12</ele>
        <time>2011-10-14T13:11:14Z</time>
      </trkpt>
      <trkpt lat="46.67418" lon="6.10334">
        <ele>984.05</ele>
        <time>2011-10-14T13:11:27Z</time>
      </trkpt>
      <trkpt lat="46.67434" lon="6.10378">
        <ele>984.05</ele>
        <time>2011-10-14T13:11:43Z</time>
      </trkpt>
      <trkpt lat="46.67449" lon="6.10417">
        <ele>985.97</ele>
        <time>2011-10-14T13:11:57Z</time>
      </trkpt>
      <trkpt lat="46.67462" lon="6.10452">
        <ele>986.93</ele>
        <time>2011-10-14T13:12:11Z</time>
      </trkpt>
      <trkpt lat="46.67473" lon="6.10488">
        <ele>989.33</ele>
        <time>2011-10-14T13:12:25Z</time>
      </trkpt>
      <trkpt lat="46.67487" lon="6.1053">
        <ele>989.81</ele>
        <time>2011-10-14T13:12:38Z</time>
      </trkpt>
      <trkpt lat="46.67495" lon="6.10576">
        <ele>991.26</ele>
        <time>2011-10-14T13:12:52Z</time>
      </trkpt>
      <trkpt lat="46.67496" lon="6.10584">
        <ele>992.22</ele>
        <time>2011-10-14T13:12:55Z</time>
      </trkpt>
      <trkpt lat="46.67496" lon="6.10594">
        <ele>991.74</ele>
        <time>2011-10-14T13:12:58Z</time>
      </trkpt>
      <trkpt lat="46.67495" lon="6.10598">
        <ele>992.22</ele>
        <time>2011-10-14T13:13:00Z</time>
      </trkpt>
      <trkpt lat="46.67496" lon="6.10616">
        <ele>992.7</ele>
        <time>2011-10-14T13:13:05Z</time>
      </trkpt>
      <trkpt lat="46.67492" lon="6.1065">
        <ele>993.18</ele>
        <time>2011-10-14T13:13:16Z</time>
      </trkpt>
      <trkpt lat="46.67488" lon="6.10658">
        <ele>993.18</ele>
        <time>2011-10-14T13:13:20Z</time>
      </trkpt>
      <trkpt lat="46.67478" lon="6.10672">
        <ele>994.14</ele>
        <time>2011-10-14T13:13:28Z</time>
      </trkpt>
      <trkpt lat="46.67465" lon="6.10684">
        <ele>994.14</ele>
        <time>2011-10-14T13:13:35Z</time>
      </trkpt>
      <trkpt lat="46.67451" lon="6.10695">
        <ele>995.1</ele>
        <time>2011-10-14T13:13:41Z</time>
      </trkpt>
      <trkpt lat="46.6742" lon="6.1071">
        <ele>996.54</ele>
        <time>2011-10-14T13:13:52Z</time>
      </trkpt>
      <trkpt lat="46.67407" lon="6.10711">
        <ele>997.51</ele>
        <time>2011-10-14T13:13:57Z</time>
      </trkpt>
      <trkpt lat="46.67397" lon="6.10713">
        <ele>997.99</ele>
        <time>2011-10-14T13:14:01Z</time>
      </trkpt>
      <trkpt lat="46.67389" lon="6.10726">
        <ele>997.99</ele>
        <time>2011-10-14T13:14:06Z</time>
      </trkpt>
      <trkpt lat="46.67377" lon="6.10764">
        <ele>1001.35</ele>
        <time>2011-10-14T13:14:17Z</time>
      </trkpt>
      <trkpt lat="46.67367" lon="6.10784">
        <ele>1004.23</ele>
        <time>2011-10-14T13:14:24Z</time>
      </trkpt>
      <trkpt lat="46.67365" lon="6.10787">
        <ele>1004.23</ele>
        <time>2011-10-14T13:14:25Z</time>
      </trkpt>
      <trkpt lat="46.67357" lon="6.10831">
        <ele>1007.6</ele>
        <time>2011-10-14T13:14:38Z</time>
      </trkpt>
      <trkpt lat="46.67365" lon="6.10881">
        <ele>1010.96</ele>
        <time>2011-10-14T13:14:52Z</time>
      </trkpt>
      <trkpt lat="46.67377" lon="6.10922">
        <ele>1011.93</ele>
        <time>2011-10-14T13:15:06Z</time>
      </trkpt>
      <trkpt lat="46.67378" lon="6.10928">
        <ele>1011.93</ele>
        <time>2011-10-14T13:15:08Z</time>
      </trkpt>
      <trkpt lat="46.67357" lon="6.10959">
        <ele>1012.41</ele>
        <time>2011-10-14T13:15:20Z</time>
      </trkpt>
      <trkpt lat="46.67313" lon="6.10994">
        <ele>1012.89</ele>
        <time>2011-10-14T13:15:34Z</time>
      </trkpt>
      <trkpt lat="46.67275" lon="6.11022">
        <ele>1013.37</ele>
        <time>2011-10-14T13:15:46Z</time>
      </trkpt>
      <trkpt lat="46.67233" lon="6.11036">
        <ele>1015.29</ele>
        <time>2011-10-14T13:15:58Z</time>
      </trkpt>
      <trkpt lat="46.67219" lon="6.11075">
        <ele>1017.69</ele>
        <time>2011-10-14T13:16:08Z</time>
      </trkpt>
      <trkpt lat="46.6722" lon="6.11124">
        <ele>1021.06</ele>
        <time>2011-10-14T13:16:20Z</time>
      </trkpt>
      <trkpt lat="46.67231" lon="6.11181">
        <ele>1020.1</ele>
        <time>2011-10-14T13:16:34Z</time>
      </trkpt>
      <trkpt lat="46.67232" lon="6.11188">
        <ele>1020.1</ele>
        <time>2011-10-14T13:16:35Z</time>
      </trkpt>
      <trkpt lat="46.67235" lon="6.11219">
        <ele>1019.13</ele>
        <time>2011-10-14T13:16:39Z</time>
      </trkpt>
      <trkpt lat="46.67243" lon="6.11272">
        <ele>1018.65</ele>
        <time>2011-10-14T13:16:48Z</time>
      </trkpt>
      <trkpt lat="46.67243" lon="6.11278">
        <ele>1018.17</ele>
        <time>2011-10-14T13:16:49Z</time>
      </trkpt>
      <trkpt lat="46.6724" lon="6.11284">
        <ele>1017.69</ele>
        <time>2011-10-14T13:16:50Z</time>
      </trkpt>
      <trkpt lat="46.67236" lon="6.11288">
        <ele>1017.69</ele>
        <time>2011-10-14T13:16:51Z</time>
      </trkpt>
      <trkpt lat="46.67232" lon="6.11291">
        <ele>1017.21</ele>
        <time>2011-10-14T13:16:52Z</time>
      </trkpt>
      <trkpt lat="46.67228" lon="6.11294">
        <ele>1017.69</ele>
        <time>2011-10-14T13:16:53Z</time>
      </trkpt>
      <trkpt lat="46.67224" lon="6.11297">
        <ele>1016.73</ele>
        <time>2011-10-14T13:16:54Z</time>
      </trkpt>
      <trkpt lat="46.67212" lon="6.11313">
        <ele>1017.69</ele>
        <time>2011-10-14T13:16:59Z</time>
      </trkpt>
      <trkpt lat="46.6721" lon="6.11316">
        <ele>1016.73</ele>
        <time>2011-10-14T13:17:00Z</time>
      </trkpt>
      <trkpt lat="46.67208" lon="6.11319">
        <ele>1017.69</ele>
        <time>2011-10-14T13:17:01Z</time>
      </trkpt>
      <trkpt lat="46.67206" lon="6.11321">
        <ele>1017.21</ele>
        <time>2011-10-14T13:17:02Z</time>
      </trkpt>
      <trkpt lat="46.67204" lon="6.11324">
        <ele>1018.17</ele>
        <time>2011-10-14T13:17:03Z</time>
      </trkpt>
      <trkpt lat="46.67203" lon="6.11328">
        <ele>1017.21</ele>
        <time>2011-10-14T13:17:04Z</time>
      </trkpt>
      <trkpt lat="46.67203" lon="6.11332">
        <ele>1017.69</ele>
        <time>2011-10-14T13:17:05Z</time>
      </trkpt>
      <trkpt lat="46.67203" lon="6.11335">
        <ele>1017.69</ele>
        <time>2011-10-14T13:17:06Z</time>
      </trkpt>
      <trkpt lat="46.67204" lon="6.11338">
        <ele>1017.69</ele>
        <time>2011-10-14T13:17:07Z</time>
      </trkpt>
      <trkpt lat="46.67205" lon="6.11341">
        <ele>1018.17</ele>
        <time>2011-10-14T13:17:08Z</time>
      </trkpt>
      <trkpt lat="46.67206" lon="6.11345">
        <ele>1018.17</ele>
        <time>2011-10-14T13:17:13Z</time>
      </trkpt>
      <trkpt lat="46.67206" lon="6.11343">
        <ele>1018.17</ele>
        <time>2011-10-14T13:17:14Z</time>
      </trkpt>
      <trkpt lat="46.67206" lon="6.11341">
        <ele>1017.69</ele>
        <time>2011-10-14T13:17:15Z</time>
      </trkpt>
      <trkpt lat="46.67205" lon="6.11337">
        <ele>1017.21</ele>
        <time>2011-10-14T13:17:16Z</time>
      </trkpt>
      <trkpt lat="46.67203" lon="6.11333">
        <ele>1018.17</ele>
        <time>2011-10-14T13:17:17Z</time>
      </trkpt>
      <trkpt lat="46.67202" lon="6.11329">
        <ele>1017.21</ele>
        <time>2011-10-14T13:17:18Z</time>
      </trkpt>
      <trkpt lat="46.67198" lon="6.11312">
        <ele>1016.73</ele>
        <time>2011-10-14T13:17:21Z</time>
      </trkpt>
      <trkpt lat="46.67188" lon="6.11271">
        <ele>1013.37</ele>
        <time>2011-10-14T13:17:27Z</time>
      </trkpt>
      <trkpt lat="46.67186" lon="6.11264">
        <ele>1013.37</ele>
        <time>2011-10-14T13:17:28Z</time>
      </trkpt>
      <trkpt lat="46.67174" lon="6.1121">
        <ele>1010.48</ele>
        <time>2011-10-14T13:17:34Z</time>
      </trkpt>
      <trkpt lat="46.67163" lon="6.11174">
        <ele>1007.12</ele>
        <time>2011-10-14T13:17:37Z</time>
      </trkpt>
      <trkpt lat="46.67141" lon="6.11107">
        <ele>1003.27</ele>
        <time>2011-10-14T13:17:42Z</time>
      </trkpt>
      <trkpt lat="46.67128" lon="6.11071">
        <ele>1000.39</ele>
        <time>2011-10-14T13:17:45Z</time>
      </trkpt>
      <trkpt lat="46.67124" lon="6.1106">
        <ele>998.47</ele>
        <time>2011-10-14T13:17:46Z</time>
      </trkpt>
      <trkpt lat="46.67119" lon="6.11049">
        <ele>997.51</ele>
        <time>2011-10-14T13:17:47Z</time>
      </trkpt>
      <trkpt lat="46.67113" lon="6.1104">
        <ele>997.02</ele>
        <time>2011-10-14T13:17:48Z</time>
      </trkpt>
      <trkpt lat="46.67106" lon="6.11031">
        <ele>996.06</ele>
        <time>2011-10-14T13:17:49Z</time>
      </trkpt>
      <trkpt lat="46.67098" lon="6.11023">
        <ele>995.1</ele>
        <time>2011-10-14T13:17:50Z</time>
      </trkpt>
      <trkpt lat="46.67089" lon="6.11016">
        <ele>994.62</ele>
        <time>2011-10-14T13:17:51Z</time>
      </trkpt>
      <trkpt lat="46.67081" lon="6.1101">
        <ele>994.14</ele>
        <time>2011-10-14T13:17:52Z</time>
      </trkpt>
      <trkpt lat="46.67035" lon="6.10981">
        <ele>989.81</ele>
        <time>2011-10-14T13:17:57Z</time>
      </trkpt>
      <trkpt lat="46.67027" lon="6.10973">
        <ele>989.81</ele>
        <time>2011-10-14T13:17:58Z</time>
      </trkpt>
      <trkpt lat="46.67019" lon="6.10963">
        <ele>987.89</ele>
        <time>2011-10-14T13:17:59Z</time>
      </trkpt>
      <trkpt lat="46.67011" lon="6.10951">
        <ele>987.89</ele>
        <time>2011-10-14T13:18:00Z</time>
      </trkpt>
      <trkpt lat="46.66986" lon="6.10918">
        <ele>983.57</ele>
        <time>2011-10-14T13:18:03Z</time>
      </trkpt>
      <trkpt lat="46.66977" lon="6.10907">
        <ele>981.64</ele>
        <time>2011-10-14T13:18:04Z</time>
      </trkpt>
      <trkpt lat="46.66966" lon="6.10898">
        <ele>982.12</ele>
        <time>2011-10-14T13:18:05Z</time>
      </trkpt>
      <trkpt lat="46.66888" lon="6.10835">
        <ele>983.09</ele>
        <time>2011-10-14T13:18:14Z</time>
      </trkpt>
      <trkpt lat="46.66883" lon="6.1083">
        <ele>984.05</ele>
        <time>2011-10-14T13:18:15Z</time>
      </trkpt>
      <trkpt lat="46.66879" lon="6.10826">
        <ele>983.57</ele>
        <time>2011-10-14T13:18:16Z</time>
      </trkpt>
      <trkpt lat="46.66875" lon="6.10823">
        <ele>984.05</ele>
        <time>2011-10-14T13:18:17Z</time>
      </trkpt>
      <trkpt lat="46.66872" lon="6.1082">
        <ele>984.53</ele>
        <time>2011-10-14T13:18:18Z</time>
      </trkpt>
      <trkpt lat="46.66869" lon="6.10817">
        <ele>985.01</ele>
        <time>2011-10-14T13:18:19Z</time>
      </trkpt>
      <trkpt lat="46.66866" lon="6.10815">
        <ele>985.01</ele>
        <time>2011-10-14T13:18:20Z</time>
      </trkpt>
      <trkpt lat="46.6685" lon="6.10798">
        <ele>985.49</ele>
        <time>2011-10-14T13:18:26Z</time>
      </trkpt>
      <trkpt lat="46.66847" lon="6.10794">
        <ele>985.01</ele>
        <time>2011-10-14T13:18:27Z</time>
      </trkpt>
      <trkpt lat="46.66845" lon="6.10792">
        <ele>985.49</ele>
        <time>2011-10-14T13:18:28Z</time>
      </trkpt>
      <trkpt lat="46.66825" lon="6.10765">
        <ele>987.41</ele>
        <time>2011-10-14T13:18:37Z</time>
      </trkpt>
      <trkpt lat="46.66817" lon="6.10755">
        <ele>989.81</ele>
        <time>2011-10-14T13:18:42Z</time>
      </trkpt>
      <trkpt lat="46.66801" lon="6.10739">
        <ele>992.22</ele>
        <time>2011-10-14T13:18:53Z</time>
      </trkpt>
      <trkpt lat="46.66793" lon="6.10735">
        <ele>993.18</ele>
        <time>2011-10-14T13:18:57Z</time>
      </trkpt>
      <trkpt lat="46.66792" lon="6.10734">
        <ele>993.18</ele>
        <time>2011-10-14T13:18:58Z</time>
      </trkpt>
      <trkpt lat="46.6679" lon="6.10732">
        <ele>992.7</ele>
        <time>2011-10-14T13:18:59Z</time>
      </trkpt>
      <trkpt lat="46.6679" lon="6.10732">
        <ele>993.66</ele>
        <time>2011-10-14T13:19:00Z</time>
      </trkpt>
      <trkpt lat="46.66789" lon="6.10731">
        <ele>993.66</ele>
        <time>2011-10-14T13:19:01Z</time>
      </trkpt>
      <trkpt lat="46.66787" lon="6.10731">
        <ele>994.14</ele>
        <time>2011-10-14T13:19:02Z</time>
      </trkpt>
      <trkpt lat="46.66785" lon="6.10731">
        <ele>995.1</ele>
        <time>2011-10-14T13:19:03Z</time>
      </trkpt>
      <trkpt lat="46.66784" lon="6.1073">
        <ele>994.14</ele>
        <time>2011-10-14T13:19:04Z</time>
      </trkpt>
      <trkpt lat="46.66782" lon="6.10729">
        <ele>994.62</ele>
        <time>2011-10-14T13:19:05Z</time>
      </trkpt>
      <trkpt lat="46.66781" lon="6.10728">
        <ele>994.62</ele>
        <time>2011-10-14T13:19:06Z</time>
      </trkpt>
      <trkpt lat="46.66779" lon="6.10725">
        <ele>995.1</ele>
        <time>2011-10-14T13:19:09Z</time>
      </trkpt>
      <trkpt lat="46.66761" lon="6.1071">
        <ele>997.99</ele>
        <time>2011-10-14T13:19:20Z</time>
      </trkpt>
      <trkpt lat="46.66759" lon="6.10709">
        <ele>997.51</ele>
        <time>2011-10-14T13:19:21Z</time>
      </trkpt>
      <trkpt lat="46.66731" lon="6.107">
        <ele>1000.39</ele>
        <time>2011-10-14T13:19:36Z</time>
      </trkpt>
      <trkpt lat="46.66714" lon="6.10697">
        <ele>1001.83</ele>
        <time>2011-10-14T13:19:44Z</time>
      </trkpt>
      <trkpt lat="46.66712" lon="6.10697">
        <ele>1003.27</ele>
        <time>2011-10-14T13:19:45Z</time>
      </trkpt>
      <trkpt lat="46.66711" lon="6.10698">
        <ele>1003.27</ele>
        <time>2011-10-14T13:19:46Z</time>
      </trkpt>
      <trkpt lat="46.66709" lon="6.10698">
        <ele>1003.27</ele>
        <time>2011-10-14T13:19:47Z</time>
      </trkpt>
      <trkpt lat="46.66706" lon="6.10698">
        <ele>1002.79</ele>
        <time>2011-10-14T13:19:48Z</time>
      </trkpt>
      <trkpt lat="46.66705" lon="6.10698">
        <ele>1003.27</ele>
        <time>2011-10-14T13:19:49Z</time>
      </trkpt>
      <trkpt lat="46.66703" lon="6.10698">
        <ele>1004.23</ele>
        <time>2011-10-14T13:19:50Z</time>
      </trkpt>
      <trkpt lat="46.66702" lon="6.10698">
        <ele>1003.75</ele>
        <time>2011-10-14T13:19:51Z</time>
      </trkpt>
      <trkpt lat="46.667" lon="6.107">
        <ele>1003.27</ele>
        <time>2011-10-14T13:19:52Z</time>
      </trkpt>
      <trkpt lat="46.66686" lon="6.10722">
        <ele>1004.23</ele>
        <time>2011-10-14T13:20:01Z</time>
      </trkpt>
      <trkpt lat="46.66686" lon="6.10725">
        <ele>1005.2</ele>
        <time>2011-10-14T13:20:02Z</time>
      </trkpt>
      <trkpt lat="46.66686" lon="6.10728">
        <ele>1005.2</ele>
        <time>2011-10-14T13:20:03Z</time>
      </trkpt>
      <trkpt lat="46.66686" lon="6.1073">
        <ele>1005.2</ele>
        <time>2011-10-14T13:20:04Z</time>
      </trkpt>
      <trkpt lat="46.66686" lon="6.10733">
        <ele>1005.2</ele>
        <time>2011-10-14T13:20:05Z</time>
      </trkpt>
      <trkpt lat="46.66687" lon="6.10736">
        <ele>1005.2</ele>
        <time>2011-10-14T13:20:06Z</time>
      </trkpt>
      <trkpt lat="46.66687" lon="6.10739">
        <ele>1005.2</ele>
        <time>2011-10-14T13:20:07Z</time>
      </trkpt>
      <trkpt lat="46.66688" lon="6.10743">
        <ele>1005.2</ele>
        <time>2011-10-14T13:20:08Z</time>
      </trkpt>
      <trkpt lat="46.66688" lon="6.10747">
        <ele>1005.2</ele>
        <time>2011-10-14T13:20:09Z</time>
      </trkpt>
      <trkpt lat="46.66689" lon="6.10751">
        <ele>1004.72</ele>
        <time>2011-10-14T13:20:10Z</time>
      </trkpt>
      <trkpt lat="46.66691" lon="6.10755">
        <ele>1005.68</ele>
        <time>2011-10-14T13:20:11Z</time>
      </trkpt>
      <trkpt lat="46.66703" lon="6.10815">
        <ele>1006.16</ele>
        <time>2011-10-14T13:20:24Z</time>
      </trkpt>
      <trkpt lat="46.66709" lon="6.10854">
        <ele>1008.56</ele>
        <time>2011-10-14T13:20:34Z</time>
      </trkpt>
      <trkpt lat="46.6671" lon="6.10857">
        <ele>1008.56</ele>
        <time>2011-10-14T13:20:35Z</time>
      </trkpt>
      <trkpt lat="46.66721" lon="6.10882">
        <ele>1008.08</ele>
        <time>2011-10-14T13:20:40Z</time>
      </trkpt>
      <trkpt lat="46.66723" lon="6.10888">
        <ele>1008.08</ele>
        <time>2011-10-14T13:20:41Z</time>
      </trkpt>
      <trkpt lat="46.66732" lon="6.10909">
        <ele>1007.6</ele>
        <time>2011-10-14T13:20:44Z</time>
      </trkpt>
      <trkpt lat="46.66734" lon="6.10916">
        <ele>1007.6</ele>
        <time>2011-10-14T13:20:45Z</time>
      </trkpt>
      <trkpt lat="46.66735" lon="6.10924">
        <ele>1007.12</ele>
        <time>2011-10-14T13:20:46Z</time>
      </trkpt>
      <trkpt lat="46.66735" lon="6.10932">
        <ele>1007.6</ele>
        <time>2011-10-14T13:20:47Z</time>
      </trkpt>
      <trkpt lat="46.66735" lon="6.10939">
        <ele>1008.08</ele>
        <time>2011-10-14T13:20:48Z</time>
      </trkpt>
      <trkpt lat="46.66733" lon="6.10946">
        <ele>1008.08</ele>
        <time>2011-10-14T13:20:49Z</time>
      </trkpt>
      <trkpt lat="46.66731" lon="6.10953">
        <ele>1007.6</ele>
        <time>2011-10-14T13:20:50Z</time>
      </trkpt>
      <trkpt lat="46.66727" lon="6.10959">
        <ele>1008.08</ele>
        <time>2011-10-14T13:20:51Z</time>
      </trkpt>
      <trkpt lat="46.66723" lon="6.10965">
        <ele>1008.08</ele>
        <time>2011-10-14T13:20:52Z</time>
      </trkpt>
      <trkpt lat="46.66719" lon="6.10969">
        <ele>1007.6</ele>
        <time>2011-10-14T13:20:53Z</time>
      </trkpt>
      <trkpt lat="46.66713" lon="6.10973">
        <ele>1007.6</ele>
        <time>2011-10-14T13:20:54Z</time>
      </trkpt>
      <trkpt lat="46.66708" lon="6.10975">
        <ele>1007.12</ele>
        <time>2011-10-14T13:20:55Z</time>
      </trkpt>
      <trkpt lat="46.66703" lon="6.10977">
        <ele>1007.6</ele>
        <time>2011-10-14T13:20:56Z</time>
      </trkpt>
      <trkpt lat="46.66697" lon="6.10976">
        <ele>1006.16</ele>
        <time>2011-10-14T13:20:57Z</time>
      </trkpt>
      <trkpt lat="46.66691" lon="6.10976">
        <ele>1006.16</ele>
        <time>2011-10-14T13:20:58Z</time>
      </trkpt>
      <trkpt lat="46.66685" lon="6.10973">
        <ele>1006.64</ele>
        <time>2011-10-14T13:20:59Z</time>
      </trkpt>
      <trkpt lat="46.66679" lon="6.1097">
        <ele>1006.16</ele>
        <time>2011-10-14T13:21:00Z</time>
      </trkpt>
      <trkpt lat="46.66674" lon="6.10966">
        <ele>1005.68</ele>
        <time>2011-10-14T13:21:01Z</time>
      </trkpt>
      <trkpt lat="46.66668" lon="6.10961">
        <ele>1005.2</ele>
        <time>2011-10-14T13:21:02Z</time>
      </trkpt>
      <trkpt lat="46.66626" lon="6.10908">
        <ele>1005.2</ele>
        <time>2011-10-14T13:21:11Z</time>
      </trkpt>
      <trkpt lat="46.66617" lon="6.10898">
        <ele>1004.23</ele>
        <time>2011-10-14T13:21:13Z</time>
      </trkpt>
      <trkpt lat="46.66607" lon="6.10889">
        <ele>1005.2</ele>
        <time>2011-10-14T13:21:15Z</time>
      </trkpt>
      <trkpt lat="46.66598" lon="6.10883">
        <ele>1004.23</ele>
        <time>2011-10-14T13:21:17Z</time>
      </trkpt>
      <trkpt lat="46.66593" lon="6.10882">
        <ele>1004.72</ele>
        <time>2011-10-14T13:21:18Z</time>
      </trkpt>
      <trkpt lat="46.66582" lon="6.10881">
        <ele>1003.27</ele>
        <time>2011-10-14T13:21:20Z</time>
      </trkpt>
      <trkpt lat="46.66576" lon="6.10881">
        <ele>1003.27</ele>
        <time>2011-10-14T13:21:21Z</time>
      </trkpt>
      <trkpt lat="46.6657" lon="6.10882">
        <ele>1002.79</ele>
        <time>2011-10-14T13:21:22Z</time>
      </trkpt>
      <trkpt lat="46.66548" lon="6.10881">
        <ele>1002.31</ele>
        <time>2011-10-14T13:21:25Z</time>
      </trkpt>
      <trkpt lat="46.66501" lon="6.10893">
        <ele>1001.35</ele>
        <time>2011-10-14T13:21:32Z</time>
      </trkpt>
      <trkpt lat="46.66489" lon="6.109">
        <ele>1001.35</ele>
        <time>2011-10-14T13:21:34Z</time>
      </trkpt>
      <trkpt lat="46.66484" lon="6.10904">
        <ele>1000.87</ele>
        <time>2011-10-14T13:21:35Z</time>
      </trkpt>
      <trkpt lat="46.66468" lon="6.10926">
        <ele>999.43</ele>
        <time>2011-10-14T13:21:42Z</time>
      </trkpt>
      <trkpt lat="46.66462" lon="6.10937">
        <ele>999.43</ele>
        <time>2011-10-14T13:21:45Z</time>
      </trkpt>
      <trkpt lat="46.66458" lon="6.10942">
        <ele>998.95</ele>
        <time>2011-10-14T13:21:46Z</time>
      </trkpt>
      <trkpt lat="46.66455" lon="6.10948">
        <ele>998.47</ele>
        <time>2011-10-14T13:21:47Z</time>
      </trkpt>
      <trkpt lat="46.66452" lon="6.10954">
        <ele>998.47</ele>
        <time>2011-10-14T13:21:48Z</time>
      </trkpt>
      <trkpt lat="46.66451" lon="6.10961">
        <ele>997.51</ele>
        <time>2011-10-14T13:21:49Z</time>
      </trkpt>
      <trkpt lat="46.66449" lon="6.10969">
        <ele>997.99</ele>
        <time>2011-10-14T13:21:50Z</time>
      </trkpt>
      <trkpt lat="46.66448" lon="6.10977">
        <ele>997.51</ele>
        <time>2011-10-14T13:21:51Z</time>
      </trkpt>
      <trkpt lat="46.66448" lon="6.10986">
        <ele>996.54</ele>
        <time>2011-10-14T13:21:52Z</time>
      </trkpt>
      <trkpt lat="46.66449" lon="6.10995">
        <ele>996.54</ele>
        <time>2011-10-14T13:21:53Z</time>
      </trkpt>
      <trkpt lat="46.66449" lon="6.11005">
        <ele>996.06</ele>
        <time>2011-10-14T13:21:54Z</time>
      </trkpt>
      <trkpt lat="46.66448" lon="6.11013">
        <ele>995.58</ele>
        <time>2011-10-14T13:21:55Z</time>
      </trkpt>
      <trkpt lat="46.66444" lon="6.11021">
        <ele>995.1</ele>
        <time>2011-10-14T13:21:56Z</time>
      </trkpt>
      <trkpt lat="46.6644" lon="6.11025">
        <ele>994.14</ele>
        <time>2011-10-14T13:21:57Z</time>
      </trkpt>
      <trkpt lat="46.66435" lon="6.11025">
        <ele>993.66</ele>
        <time>2011-10-14T13:21:58Z</time>
      </trkpt>
      <trkpt lat="46.66431" lon="6.11023">
        <ele>993.66</ele>
        <time>2011-10-14T13:21:59Z</time>
      </trkpt>
      <trkpt lat="46.66426" lon="6.11018">
        <ele>993.18</ele>
        <time>2011-10-14T13:22:00Z</time>
      </trkpt>
      <trkpt lat="46.66423" lon="6.11012">
        <ele>993.66</ele>
        <time>2011-10-14T13:22:01Z</time>
      </trkpt>
      <trkpt lat="46.6642" lon="6.11005">
        <ele>994.14</ele>
        <time>2011-10-14T13:22:02Z</time>
      </trkpt>
      <trkpt lat="46.66417" lon="6.10997">
        <ele>993.18</ele>
        <time>2011-10-14T13:22:03Z</time>
      </trkpt>
      <trkpt lat="46.66414" lon="6.10989">
        <ele>992.7</ele>
        <time>2011-10-14T13:22:04Z</time>
      </trkpt>
      <trkpt lat="46.66413" lon="6.1098">
        <ele>992.22</ele>
        <time>2011-10-14T13:22:05Z</time>
      </trkpt>
      <trkpt lat="46.66409" lon="6.10963">
        <ele>992.7</ele>
        <time>2011-10-14T13:22:07Z</time>
      </trkpt>
      <trkpt lat="46.66408" lon="6.10955">
        <ele>992.7</ele>
        <time>2011-10-14T13:22:08Z</time>
      </trkpt>
      <trkpt lat="46.66408" lon="6.10946">
        <ele>992.7</ele>
        <time>2011-10-14T13:22:09Z</time>
      </trkpt>
      <trkpt lat="46.66408" lon="6.10939">
        <ele>992.22</ele>
        <time>2011-10-14T13:22:10Z</time>
      </trkpt>
      <trkpt lat="46.66408" lon="6.10931">
        <ele>992.22</ele>
        <time>2011-10-14T13:22:11Z</time>
      </trkpt>
      <trkpt lat="46.66408" lon="6.10925">
        <ele>993.18</ele>
        <time>2011-10-14T13:22:12Z</time>
      </trkpt>
      <trkpt lat="46.66407" lon="6.10918">
        <ele>993.18</ele>
        <time>2011-10-14T13:22:13Z</time>
      </trkpt>
      <trkpt lat="46.66404" lon="6.10908">
        <ele>993.66</ele>
        <time>2011-10-14T13:22:15Z</time>
      </trkpt>
      <trkpt lat="46.66402" lon="6.10904">
        <ele>994.62</ele>
        <time>2011-10-14T13:22:16Z</time>
      </trkpt>
      <trkpt lat="46.664" lon="6.109">
        <ele>994.62</ele>
        <time>2011-10-14T13:22:17Z</time>
      </trkpt>
      <trkpt lat="46.66379" lon="6.1086">
        <ele>997.02</ele>
        <time>2011-10-14T13:22:28Z</time>
      </trkpt>
      <trkpt lat="46.66374" lon="6.10849">
        <ele>998.47</ele>
        <time>2011-10-14T13:22:31Z</time>
      </trkpt>
      <trkpt lat="46.66357" lon="6.10804">
        <ele>1001.83</ele>
        <time>2011-10-14T13:22:43Z</time>
      </trkpt>
      <trkpt lat="46.66345" lon="6.10773">
        <ele>1005.2</ele>
        <time>2011-10-14T13:22:53Z</time>
      </trkpt>
      <trkpt lat="46.66327" lon="6.10744">
        <ele>1008.08</ele>
        <time>2011-10-14T13:23:06Z</time>
      </trkpt>
      <trkpt lat="46.66312" lon="6.10717">
        <ele>1010.96</ele>
        <time>2011-10-14T13:23:20Z</time>
      </trkpt>
      <trkpt lat="46.66307" lon="6.10707">
        <ele>1011.93</ele>
        <time>2011-10-14T13:23:25Z</time>
      </trkpt>
      <trkpt lat="46.66307" lon="6.10705">
        <ele>1011.93</ele>
        <time>2011-10-14T13:23:26Z</time>
      </trkpt>
      <trkpt lat="46.66297" lon="6.10681">
        <ele>1013.85</ele>
        <time>2011-10-14T13:23:38Z</time>
      </trkpt>
      <trkpt lat="46.66291" lon="6.10668">
        <ele>1014.81</ele>
        <time>2011-10-14T13:23:45Z</time>
      </trkpt>
      <trkpt lat="46.6629" lon="6.10665">
        <ele>1015.29</ele>
        <time>2011-10-14T13:23:46Z</time>
      </trkpt>
      <trkpt lat="46.66289" lon="6.10664">
        <ele>1015.29</ele>
        <time>2011-10-14T13:23:47Z</time>
      </trkpt>
      <trkpt lat="46.66288" lon="6.10662">
        <ele>1015.29</ele>
        <time>2011-10-14T13:23:48Z</time>
      </trkpt>
      <trkpt lat="46.66288" lon="6.1066">
        <ele>1014.81</ele>
        <time>2011-10-14T13:23:49Z</time>
      </trkpt>
      <trkpt lat="46.66287" lon="6.10659">
        <ele>1015.29</ele>
        <time>2011-10-14T13:23:50Z</time>
      </trkpt>
      <trkpt lat="46.66286" lon="6.10657">
        <ele>1016.73</ele>
        <time>2011-10-14T13:23:51Z</time>
      </trkpt>
      <trkpt lat="46.66272" lon="6.10631">
        <ele>1019.13</ele>
        <time>2011-10-14T13:24:04Z</time>
      </trkpt>
      <trkpt lat="46.66262" lon="6.10598">
        <ele>1021.06</ele>
        <time>2011-10-14T13:24:17Z</time>
      </trkpt>
      <trkpt lat="46.66256" lon="6.10578">
        <ele>1022.98</ele>
        <time>2011-10-14T13:24:26Z</time>
      </trkpt>
      <trkpt lat="46.66255" lon="6.10575">
        <ele>1022.5</ele>
        <time>2011-10-14T13:24:27Z</time>
      </trkpt>
      <trkpt lat="46.66249" lon="6.10551">
        <ele>1025.38</ele>
        <time>2011-10-14T13:24:38Z</time>
      </trkpt>
      <trkpt lat="46.66248" lon="6.10549">
        <ele>1024.9</ele>
        <time>2011-10-14T13:24:39Z</time>
      </trkpt>
      <trkpt lat="46.66238" lon="6.10517">
        <ele>1026.83</ele>
        <time>2011-10-14T13:24:52Z</time>
      </trkpt>
      <trkpt lat="46.66229" lon="6.10484">
        <ele>1029.71</ele>
        <time>2011-10-14T13:25:05Z</time>
      </trkpt>
      <trkpt lat="46.66223" lon="6.10448">
        <ele>1031.15</ele>
        <time>2011-10-14T13:25:18Z</time>
      </trkpt>
      <trkpt lat="46.66215" lon="6.10411">
        <ele>1033.07</ele>
        <time>2011-10-14T13:25:31Z</time>
      </trkpt>
      <trkpt lat="46.66205" lon="6.1036">
        <ele>1032.11</ele>
        <time>2011-10-14T13:25:46Z</time>
      </trkpt>
      <trkpt lat="46.66192" lon="6.10312">
        <ele>1032.11</ele>
        <time>2011-10-14T13:25:56Z</time>
      </trkpt>
      <trkpt lat="46.66176" lon="6.10279">
        <ele>1033.55</ele>
        <time>2011-10-14T13:26:06Z</time>
      </trkpt>
      <trkpt lat="46.66157" lon="6.10238">
        <ele>1033.07</ele>
        <time>2011-10-14T13:26:16Z</time>
      </trkpt>
      <trkpt lat="46.66129" lon="6.10181">
        <ele>1032.59</ele>
        <time>2011-10-14T13:26:28Z</time>
      </trkpt>
      <trkpt lat="46.66104" lon="6.10136">
        <ele>1035</ele>
        <time>2011-10-14T13:26:39Z</time>
      </trkpt>
      <trkpt lat="46.66092" lon="6.10105">
        <ele>1035.96</ele>
        <time>2011-10-14T13:26:46Z</time>
      </trkpt>
      <trkpt lat="46.6609" lon="6.101">
        <ele>1036.44</ele>
        <time>2011-10-14T13:26:47Z</time>
      </trkpt>
      <trkpt lat="46.66089" lon="6.10096">
        <ele>1036.44</ele>
        <time>2011-10-14T13:26:48Z</time>
      </trkpt>
      <trkpt lat="46.66087" lon="6.10092">
        <ele>1037.4</ele>
        <time>2011-10-14T13:26:49Z</time>
      </trkpt>
      <trkpt lat="46.66086" lon="6.10086">
        <ele>1037.4</ele>
        <time>2011-10-14T13:26:50Z</time>
      </trkpt>
      <trkpt lat="46.66084" lon="6.10081">
        <ele>1037.4</ele>
        <time>2011-10-14T13:26:51Z</time>
      </trkpt>
      <trkpt lat="46.66082" lon="6.10076">
        <ele>1037.4</ele>
        <time>2011-10-14T13:26:52Z</time>
      </trkpt>
      <trkpt lat="46.66081" lon="6.10071">
        <ele>1037.4</ele>
        <time>2011-10-14T13:26:53Z</time>
      </trkpt>
      <trkpt lat="46.66078" lon="6.10067">
        <ele>1037.88</ele>
        <time>2011-10-14T13:26:54Z</time>
      </trkpt>
      <trkpt lat="46.66076" lon="6.10063">
        <ele>1037.88</ele>
        <time>2011-10-14T13:26:55Z</time>
      </trkpt>
      <trkpt lat="46.66075" lon="6.1006">
        <ele>1038.84</ele>
        <time>2011-10-14T13:26:56Z</time>
      </trkpt>
      <trkpt lat="46.66074" lon="6.10057">
        <ele>1038.84</ele>
        <time>2011-10-14T13:26:57Z</time>
      </trkpt>
      <trkpt lat="46.66074" lon="6.10053">
        <ele>1038.84</ele>
        <time>2011-10-14T13:26:58Z</time>
      </trkpt>
      <trkpt lat="46.66073" lon="6.1005">
        <ele>1039.32</ele>
        <time>2011-10-14T13:26:59Z</time>
      </trkpt>
      <trkpt lat="46.66072" lon="6.10047">
        <ele>1039.32</ele>
        <time>2011-10-14T13:27:00Z</time>
      </trkpt>
      <trkpt lat="46.66071" lon="6.10043">
        <ele>1039.8</ele>
        <time>2011-10-14T13:27:01Z</time>
      </trkpt>
      <trkpt lat="46.6607" lon="6.1004">
        <ele>1040.28</ele>
        <time>2011-10-14T13:27:02Z</time>
      </trkpt>
      <trkpt lat="46.66069" lon="6.10036">
        <ele>1040.28</ele>
        <time>2011-10-14T13:27:03Z</time>
      </trkpt>
      <trkpt lat="46.66067" lon="6.10033">
        <ele>1041.25</ele>
        <time>2011-10-14T13:27:04Z</time>
      </trkpt>
      <trkpt lat="46.66066" lon="6.1003">
        <ele>1041.25</ele>
        <time>2011-10-14T13:27:05Z</time>
      </trkpt>
      <trkpt lat="46.66065" lon="6.10027">
        <ele>1041.73</ele>
        <time>2011-10-14T13:27:06Z</time>
      </trkpt>
      <trkpt lat="46.66064" lon="6.10025">
        <ele>1041.73</ele>
        <time>2011-10-14T13:27:07Z</time>
      </trkpt>
      <trkpt lat="46.66057" lon="6.09997">
        <ele>1042.69</ele>
        <time>2011-10-14T13:27:17Z</time>
      </trkpt>
      <trkpt lat="46.66044" lon="6.09957">
        <ele>1044.61</ele>
        <time>2011-10-14T13:27:27Z</time>
      </trkpt>
      <trkpt lat="46.66031" lon="6.09921">
        <ele>1045.09</ele>
        <time>2011-10-14T13:27:38Z</time>
      </trkpt>
      <trkpt lat="46.6603" lon="6.09918">
        <ele>1045.57</ele>
        <time>2011-10-14T13:27:39Z</time>
      </trkpt>
      <trkpt lat="46.66029" lon="6.09916">
        <ele>1045.09</ele>
        <time>2011-10-14T13:27:40Z</time>
      </trkpt>
      <trkpt lat="46.66028" lon="6.09913">
        <ele>1046.05</ele>
        <time>2011-10-14T13:27:41Z</time>
      </trkpt>
      <trkpt lat="46.66026" lon="6.0991">
        <ele>1046.05</ele>
        <time>2011-10-14T13:27:42Z</time>
      </trkpt>
      <trkpt lat="46.66024" lon="6.09906">
        <ele>1046.05</ele>
        <time>2011-10-14T13:27:43Z</time>
      </trkpt>
      <trkpt lat="46.66023" lon="6.09902">
        <ele>1045.57</ele>
        <time>2011-10-14T13:27:44Z</time>
      </trkpt>
      <trkpt lat="46.66021" lon="6.09898">
        <ele>1045.57</ele>
        <time>2011-10-14T13:27:45Z</time>
      </trkpt>
      <trkpt lat="46.6602" lon="6.09895">
        <ele>1046.05</ele>
        <time>2011-10-14T13:27:46Z</time>
      </trkpt>
      <trkpt lat="46.66018" lon="6.09891">
        <ele>1046.05</ele>
        <time>2011-10-14T13:27:47Z</time>
      </trkpt>
      <trkpt lat="46.66017" lon="6.09887">
        <ele>1046.05</ele>
        <time>2011-10-14T13:27:48Z</time>
      </trkpt>
      <trkpt lat="46.66015" lon="6.09884">
        <ele>1045.57</ele>
        <time>2011-10-14T13:27:49Z</time>
      </trkpt>
      <trkpt lat="46.66015" lon="6.09881">
        <ele>1046.05</ele>
        <time>2011-10-14T13:27:50Z</time>
      </trkpt>
      <trkpt lat="46.66015" lon="6.09878">
        <ele>1045.57</ele>
        <time>2011-10-14T13:27:51Z</time>
      </trkpt>
      <trkpt lat="46.66014" lon="6.09875">
        <ele>1046.53</ele>
        <time>2011-10-14T13:27:52Z</time>
      </trkpt>
      <trkpt lat="46.66012" lon="6.09872">
        <ele>1045.57</ele>
        <time>2011-10-14T13:27:53Z</time>
      </trkpt>
      <trkpt lat="46.66011" lon="6.09869">
        <ele>1046.05</ele>
        <time>2011-10-14T13:27:54Z</time>
      </trkpt>
      <trkpt lat="46.65991" lon="6.09837">
        <ele>1046.53</ele>
        <time>2011-10-14T13:28:04Z</time>
      </trkpt>
      <trkpt lat="46.65985" lon="6.09823">
        <ele>1047.01</ele>
        <time>2011-10-14T13:28:08Z</time>
      </trkpt>
      <trkpt lat="46.65983" lon="6.09819">
        <ele>1047.97</ele>
        <time>2011-10-14T13:28:09Z</time>
      </trkpt>
      <trkpt lat="46.65982" lon="6.09814">
        <ele>1047.01</ele>
        <time>2011-10-14T13:28:10Z</time>
      </trkpt>
      <trkpt lat="46.65966" lon="6.09773">
        <ele>1048.45</ele>
        <time>2011-10-14T13:28:21Z</time>
      </trkpt>
      <trkpt lat="46.65955" lon="6.09758">
        <ele>1048.94</ele>
        <time>2011-10-14T13:28:27Z</time>
      </trkpt>
      <trkpt lat="46.65953" lon="6.09756">
        <ele>1049.42</ele>
        <time>2011-10-14T13:28:28Z</time>
      </trkpt>
      <trkpt lat="46.65951" lon="6.09754">
        <ele>1049.42</ele>
        <time>2011-10-14T13:28:29Z</time>
      </trkpt>
      <trkpt lat="46.65949" lon="6.0975">
        <ele>1049.42</ele>
        <time>2011-10-14T13:28:30Z</time>
      </trkpt>
      <trkpt lat="46.65947" lon="6.09746">
        <ele>1049.42</ele>
        <time>2011-10-14T13:28:31Z</time>
      </trkpt>
      <trkpt lat="46.6593" lon="6.09711">
        <ele>1050.86</ele>
        <time>2011-10-14T13:28:40Z</time>
      </trkpt>
      <trkpt lat="46.65916" lon="6.09677">
        <ele>1052.78</ele>
        <time>2011-10-14T13:28:49Z</time>
      </trkpt>
      <trkpt lat="46.65892" lon="6.09627">
        <ele>1051.82</ele>
        <time>2011-10-14T13:29:02Z</time>
      </trkpt>
      <trkpt lat="46.65864" lon="6.0959">
        <ele>1050.86</ele>
        <time>2011-10-14T13:29:13Z</time>
      </trkpt>
      <trkpt lat="46.65862" lon="6.09584">
        <ele>1051.34</ele>
        <time>2011-10-14T13:29:14Z</time>
      </trkpt>
      <trkpt lat="46.65857" lon="6.09571">
        <ele>1050.38</ele>
        <time>2011-10-14T13:29:16Z</time>
      </trkpt>
      <trkpt lat="46.65855" lon="6.09565">
        <ele>1049.9</ele>
        <time>2011-10-14T13:29:17Z</time>
      </trkpt>
      <trkpt lat="46.65838" lon="6.09523">
        <ele>1047.97</ele>
        <time>2011-10-14T13:29:23Z</time>
      </trkpt>
      <trkpt lat="46.65834" lon="6.09515">
        <ele>1047.49</ele>
        <time>2011-10-14T13:29:24Z</time>
      </trkpt>
      <trkpt lat="46.6583" lon="6.09507">
        <ele>1047.49</ele>
        <time>2011-10-14T13:29:25Z</time>
      </trkpt>
      <trkpt lat="46.65789" lon="6.09438">
        <ele>1044.13</ele>
        <time>2011-10-14T13:29:34Z</time>
      </trkpt>
      <trkpt lat="46.6575" lon="6.09368">
        <ele>1043.17</ele>
        <time>2011-10-14T13:29:43Z</time>
      </trkpt>
      <trkpt lat="46.65713" lon="6.0931">
        <ele>1043.17</ele>
        <time>2011-10-14T13:29:55Z</time>
      </trkpt>
      <trkpt lat="46.65692" lon="6.09268">
        <ele>1042.69</ele>
        <time>2011-10-14T13:30:03Z</time>
      </trkpt>
      <trkpt lat="46.65688" lon="6.09264">
        <ele>1042.69</ele>
        <time>2011-10-14T13:30:04Z</time>
      </trkpt>
      <trkpt lat="46.65685" lon="6.09259">
        <ele>1042.21</ele>
        <time>2011-10-14T13:30:05Z</time>
      </trkpt>
      <trkpt lat="46.65682" lon="6.09254">
        <ele>1042.69</ele>
        <time>2011-10-14T13:30:06Z</time>
      </trkpt>
      <trkpt lat="46.65678" lon="6.09249">
        <ele>1042.69</ele>
        <time>2011-10-14T13:30:07Z</time>
      </trkpt>
      <trkpt lat="46.6567" lon="6.0924">
        <ele>1042.21</ele>
        <time>2011-10-14T13:30:09Z</time>
      </trkpt>
      <trkpt lat="46.65666" lon="6.09235">
        <ele>1042.21</ele>
        <time>2011-10-14T13:30:10Z</time>
      </trkpt>
      <trkpt lat="46.65662" lon="6.0923">
        <ele>1042.21</ele>
        <time>2011-10-14T13:30:11Z</time>
      </trkpt>
      <trkpt lat="46.65643" lon="6.0921">
        <ele>1041.25</ele>
        <time>2011-10-14T13:30:15Z</time>
      </trkpt>
      <trkpt lat="46.65639" lon="6.09204">
        <ele>1041.25</ele>
        <time>2011-10-14T13:30:16Z</time>
      </trkpt>
      <trkpt lat="46.65632" lon="6.09191">
        <ele>1040.76</ele>
        <time>2011-10-14T13:30:18Z</time>
      </trkpt>
      <trkpt lat="46.65599" lon="6.09109">
        <ele>1041.73</ele>
        <time>2011-10-14T13:30:31Z</time>
      </trkpt>
      <trkpt lat="46.65596" lon="6.09103">
        <ele>1041.73</ele>
        <time>2011-10-14T13:30:32Z</time>
      </trkpt>
      <trkpt lat="46.65593" lon="6.09097">
        <ele>1041.73</ele>
        <time>2011-10-14T13:30:33Z</time>
      </trkpt>
      <trkpt lat="46.65574" lon="6.09058">
        <ele>1041.25</ele>
        <time>2011-10-14T13:30:40Z</time>
      </trkpt>
      <trkpt lat="46.65532" lon="6.0898">
        <ele>1040.76</ele>
        <time>2011-10-14T13:30:54Z</time>
      </trkpt>
      <trkpt lat="46.65522" lon="6.08963">
        <ele>1040.28</ele>
        <time>2011-10-14T13:30:57Z</time>
      </trkpt>
      <trkpt lat="46.65519" lon="6.08957">
        <ele>1040.28</ele>
        <time>2011-10-14T13:30:58Z</time>
      </trkpt>
      <trkpt lat="46.65506" lon="6.08933">
        <ele>1039.32</ele>
        <time>2011-10-14T13:31:02Z</time>
      </trkpt>
      <trkpt lat="46.65503" lon="6.08928">
        <ele>1039.32</ele>
        <time>2011-10-14T13:31:03Z</time>
      </trkpt>
      <trkpt lat="46.65487" lon="6.08897">
        <ele>1038.84</ele>
        <time>2011-10-14T13:31:09Z</time>
      </trkpt>
      <trkpt lat="46.65484" lon="6.08893">
        <ele>1038.84</ele>
        <time>2011-10-14T13:31:10Z</time>
      </trkpt>
      <trkpt lat="46.65481" lon="6.08888">
        <ele>1038.36</ele>
        <time>2011-10-14T13:31:11Z</time>
      </trkpt>
      <trkpt lat="46.6547" lon="6.08869">
        <ele>1038.36</ele>
        <time>2011-10-14T13:31:15Z</time>
      </trkpt>
      <trkpt lat="46.65455" lon="6.08847">
        <ele>1036.44</ele>
        <time>2011-10-14T13:31:19Z</time>
      </trkpt>
      <trkpt lat="46.65449" lon="6.0884">
        <ele>1035.48</ele>
        <time>2011-10-14T13:31:20Z</time>
      </trkpt>
      <trkpt lat="46.65433" lon="6.08815">
        <ele>1034.04</ele>
        <time>2011-10-14T13:31:23Z</time>
      </trkpt>
      <trkpt lat="46.65429" lon="6.08805">
        <ele>1033.07</ele>
        <time>2011-10-14T13:31:24Z</time>
      </trkpt>
      <trkpt lat="46.65418" lon="6.08772">
        <ele>1033.07</ele>
        <time>2011-10-14T13:31:27Z</time>
      </trkpt>
      <trkpt lat="46.65413" lon="6.08764">
        <ele>1033.07</ele>
        <time>2011-10-14T13:31:28Z</time>
      </trkpt>
      <trkpt lat="46.65404" lon="6.08746">
        <ele>1032.11</ele>
        <time>2011-10-14T13:31:30Z</time>
      </trkpt>
      <trkpt lat="46.654" lon="6.08737">
        <ele>1031.63</ele>
        <time>2011-10-14T13:31:31Z</time>
      </trkpt>
      <trkpt lat="46.65396" lon="6.08727">
        <ele>1030.67</ele>
        <time>2011-10-14T13:31:32Z</time>
      </trkpt>
      <trkpt lat="46.65378" lon="6.08674">
        <ele>1027.31</ele>
        <time>2011-10-14T13:31:37Z</time>
      </trkpt>
      <trkpt lat="46.65371" lon="6.08654">
        <ele>1025.86</ele>
        <time>2011-10-14T13:31:39Z</time>
      </trkpt>
      <trkpt lat="46.65366" lon="6.08645">
        <ele>1025.38</ele>
        <time>2011-10-14T13:31:40Z</time>
      </trkpt>
      <trkpt lat="46.65361" lon="6.08636">
        <ele>1023.94</ele>
        <time>2011-10-14T13:31:41Z</time>
      </trkpt>
      <trkpt lat="46.65355" lon="6.08629">
        <ele>1023.94</ele>
        <time>2011-10-14T13:31:42Z</time>
      </trkpt>
      <trkpt lat="46.65348" lon="6.08624">
        <ele>1022.5</ele>
        <time>2011-10-14T13:31:43Z</time>
      </trkpt>
      <trkpt lat="46.65341" lon="6.0862">
        <ele>1022.02</ele>
        <time>2011-10-14T13:31:44Z</time>
      </trkpt>
      <trkpt lat="46.65333" lon="6.08619">
        <ele>1021.54</ele>
        <time>2011-10-14T13:31:45Z</time>
      </trkpt>
      <trkpt lat="46.65326" lon="6.0862">
        <ele>1021.06</ele>
        <time>2011-10-14T13:31:46Z</time>
      </trkpt>
      <trkpt lat="46.65309" lon="6.08621">
        <ele>1017.69</ele>
        <time>2011-10-14T13:31:48Z</time>
      </trkpt>
      <trkpt lat="46.65301" lon="6.08618">
        <ele>1017.21</ele>
        <time>2011-10-14T13:31:49Z</time>
      </trkpt>
      <trkpt lat="46.65293" lon="6.08614">
        <ele>1017.21</ele>
        <time>2011-10-14T13:31:50Z</time>
      </trkpt>
      <trkpt lat="46.65285" lon="6.08608">
        <ele>1016.25</ele>
        <time>2011-10-14T13:31:51Z</time>
      </trkpt>
      <trkpt lat="46.65278" lon="6.08602">
        <ele>1016.25</ele>
        <time>2011-10-14T13:31:52Z</time>
      </trkpt>
      <trkpt lat="46.65272" lon="6.08595">
        <ele>1016.73</ele>
        <time>2011-10-14T13:31:53Z</time>
      </trkpt>
      <trkpt lat="46.65266" lon="6.08587">
        <ele>1016.73</ele>
        <time>2011-10-14T13:31:54Z</time>
      </trkpt>
      <trkpt lat="46.65262" lon="6.08579">
        <ele>1016.25</ele>
        <time>2011-10-14T13:31:55Z</time>
      </trkpt>
      <trkpt lat="46.65259" lon="6.08571">
        <ele>1016.73</ele>
        <time>2011-10-14T13:31:56Z</time>
      </trkpt>
      <trkpt lat="46.65257" lon="6.08562">
        <ele>1017.21</ele>
        <time>2011-10-14T13:31:57Z</time>
      </trkpt>
      <trkpt lat="46.65255" lon="6.08554">
        <ele>1017.21</ele>
        <time>2011-10-14T13:31:58Z</time>
      </trkpt>
      <trkpt lat="46.65239" lon="6.08486">
        <ele>1020.1</ele>
        <time>2011-10-14T13:32:08Z</time>
      </trkpt>
      <trkpt lat="46.65236" lon="6.08473">
        <ele>1021.54</ele>
        <time>2011-10-14T13:32:10Z</time>
      </trkpt>
      <trkpt lat="46.6523" lon="6.08456">
        <ele>1022.02</ele>
        <time>2011-10-14T13:32:13Z</time>
      </trkpt>
      <trkpt lat="46.65228" lon="6.08451">
        <ele>1022.02</ele>
        <time>2011-10-14T13:32:14Z</time>
      </trkpt>
      <trkpt lat="46.65225" lon="6.08448">
        <ele>1022.98</ele>
        <time>2011-10-14T13:32:15Z</time>
      </trkpt>
      <trkpt lat="46.65221" lon="6.08446">
        <ele>1022.98</ele>
        <time>2011-10-14T13:32:16Z</time>
      </trkpt>
      <trkpt lat="46.65217" lon="6.08446">
        <ele>1023.46</ele>
        <time>2011-10-14T13:32:17Z</time>
      </trkpt>
      <trkpt lat="46.65213" lon="6.08447">
        <ele>1023.94</ele>
        <time>2011-10-14T13:32:18Z</time>
      </trkpt>
      <trkpt lat="46.65209" lon="6.0845">
        <ele>1023.94</ele>
        <time>2011-10-14T13:32:19Z</time>
      </trkpt>
      <trkpt lat="46.65207" lon="6.08453">
        <ele>1023.94</ele>
        <time>2011-10-14T13:32:20Z</time>
      </trkpt>
      <trkpt lat="46.65204" lon="6.08457">
        <ele>1024.42</ele>
        <time>2011-10-14T13:32:21Z</time>
      </trkpt>
      <trkpt lat="46.65202" lon="6.0846">
        <ele>1024.9</ele>
        <time>2011-10-14T13:32:22Z</time>
      </trkpt>
      <trkpt lat="46.65199" lon="6.08463">
        <ele>1025.38</ele>
        <time>2011-10-14T13:32:23Z</time>
      </trkpt>
      <trkpt lat="46.65191" lon="6.08478">
        <ele>1026.83</ele>
        <time>2011-10-14T13:32:27Z</time>
      </trkpt>
      <trkpt lat="46.65168" lon="6.08513">
        <ele>1028.75</ele>
        <time>2011-10-14T13:32:40Z</time>
      </trkpt>
      <trkpt lat="46.65153" lon="6.08537">
        <ele>1027.31</ele>
        <time>2011-10-14T13:32:52Z</time>
      </trkpt>
      <trkpt lat="46.65153" lon="6.08534">
        <ele>1027.79</ele>
        <time>2011-10-14T13:32:58Z</time>
      </trkpt>
      <trkpt lat="46.65157" lon="6.0853">
        <ele>1027.79</ele>
        <time>2011-10-14T13:33:01Z</time>
      </trkpt>
      <trkpt lat="46.65157" lon="6.08524">
        <ele>1028.75</ele>
        <time>2011-10-14T13:33:03Z</time>
      </trkpt>
      <trkpt lat="46.65157" lon="6.08521">
        <ele>1027.31</ele>
        <time>2011-10-14T13:33:04Z</time>
      </trkpt>
      <trkpt lat="46.65156" lon="6.08518">
        <ele>1028.27</ele>
        <time>2011-10-14T13:33:05Z</time>
      </trkpt>
      <trkpt lat="46.65148" lon="6.08507">
        <ele>1027.31</ele>
        <time>2011-10-14T13:33:08Z</time>
      </trkpt>
      <trkpt lat="46.65125" lon="6.08435">
        <ele>1023.46</ele>
        <time>2011-10-14T13:33:17Z</time>
      </trkpt>
      <trkpt lat="46.65116" lon="6.08349">
        <ele>1020.58</ele>
        <time>2011-10-14T13:33:25Z</time>
      </trkpt>
      <trkpt lat="46.65108" lon="6.08281">
        <ele>1017.21</ele>
        <time>2011-10-14T13:33:30Z</time>
      </trkpt>
      <trkpt lat="46.651" lon="6.0822">
        <ele>1013.85</ele>
        <time>2011-10-14T13:33:34Z</time>
      </trkpt>
      <trkpt lat="46.65093" lon="6.08174">
        <ele>1010.96</ele>
        <time>2011-10-14T13:33:37Z</time>
      </trkpt>
      <trkpt lat="46.65079" lon="6.08119">
        <ele>1006.64</ele>
        <time>2011-10-14T13:33:41Z</time>
      </trkpt>
      <trkpt lat="46.65075" lon="6.08107">
        <ele>1006.64</ele>
        <time>2011-10-14T13:33:42Z</time>
      </trkpt>
      <trkpt lat="46.65064" lon="6.0807">
        <ele>1002.79</ele>
        <time>2011-10-14T13:33:45Z</time>
      </trkpt>
      <trkpt lat="46.6506" lon="6.08059">
        <ele>1003.27</ele>
        <time>2011-10-14T13:33:46Z</time>
      </trkpt>
      <trkpt lat="46.65049" lon="6.08019">
        <ele>1000.87</ele>
        <time>2011-10-14T13:33:50Z</time>
      </trkpt>
      <trkpt lat="46.65045" lon="6.08005">
        <ele>999.91</ele>
        <time>2011-10-14T13:33:52Z</time>
      </trkpt>
      <trkpt lat="46.65045" lon="6.07999">
        <ele>998.95</ele>
        <time>2011-10-14T13:33:53Z</time>
      </trkpt>
      <trkpt lat="46.65048" lon="6.07994">
        <ele>997.99</ele>
        <time>2011-10-14T13:33:54Z</time>
      </trkpt>
      <trkpt lat="46.65051" lon="6.0799">
        <ele>997.99</ele>
        <time>2011-10-14T13:33:55Z</time>
      </trkpt>
      <trkpt lat="46.65083" lon="6.07956">
        <ele>997.51</ele>
        <time>2011-10-14T13:34:06Z</time>
      </trkpt>
      <trkpt lat="46.65097" lon="6.0794">
        <ele>994.62</ele>
        <time>2011-10-14T13:34:12Z</time>
      </trkpt>
      <trkpt lat="46.65115" lon="6.07914">
        <ele>991.26</ele>
        <time>2011-10-14T13:34:18Z</time>
      </trkpt>
      <trkpt lat="46.65119" lon="6.07909">
        <ele>991.26</ele>
        <time>2011-10-14T13:34:19Z</time>
      </trkpt>
      <trkpt lat="46.65122" lon="6.07904">
        <ele>990.3</ele>
        <time>2011-10-14T13:34:20Z</time>
      </trkpt>
      <trkpt lat="46.65132" lon="6.07891">
        <ele>988.37</ele>
        <time>2011-10-14T13:34:23Z</time>
      </trkpt>
      <trkpt lat="46.65146" lon="6.07873">
        <ele>985.01</ele>
        <time>2011-10-14T13:34:30Z</time>
      </trkpt>
      <trkpt lat="46.6515" lon="6.07869">
        <ele>984.53</ele>
        <time>2011-10-14T13:34:32Z</time>
      </trkpt>
      <trkpt lat="46.65152" lon="6.07863">
        <ele>983.57</ele>
        <time>2011-10-14T13:34:33Z</time>
      </trkpt>
      <trkpt lat="46.65155" lon="6.07856">
        <ele>984.05</ele>
        <time>2011-10-14T13:34:34Z</time>
      </trkpt>
      <trkpt lat="46.65157" lon="6.07849">
        <ele>983.57</ele>
        <time>2011-10-14T13:34:35Z</time>
      </trkpt>
      <trkpt lat="46.65157" lon="6.07843">
        <ele>982.6</ele>
        <time>2011-10-14T13:34:36Z</time>
      </trkpt>
      <trkpt lat="46.65157" lon="6.07837">
        <ele>983.09</ele>
        <time>2011-10-14T13:34:37Z</time>
      </trkpt>
      <trkpt lat="46.65157" lon="6.07832">
        <ele>981.64</ele>
        <time>2011-10-14T13:34:38Z</time>
      </trkpt>
      <trkpt lat="46.65156" lon="6.07806">
        <ele>978.28</ele>
        <time>2011-10-14T13:34:42Z</time>
      </trkpt>
      <trkpt lat="46.65157" lon="6.07801">
        <ele>977.8</ele>
        <time>2011-10-14T13:34:43Z</time>
      </trkpt>
      <trkpt lat="46.65159" lon="6.07795">
        <ele>977.32</ele>
        <time>2011-10-14T13:34:44Z</time>
      </trkpt>
      <trkpt lat="46.65161" lon="6.07789">
        <ele>975.88</ele>
        <time>2011-10-14T13:34:45Z</time>
      </trkpt>
      <trkpt lat="46.65164" lon="6.07784">
        <ele>975.88</ele>
        <time>2011-10-14T13:34:46Z</time>
      </trkpt>
      <trkpt lat="46.65168" lon="6.07779">
        <ele>974.91</ele>
        <time>2011-10-14T13:34:47Z</time>
      </trkpt>
      <trkpt lat="46.65171" lon="6.07776">
        <ele>974.43</ele>
        <time>2011-10-14T13:34:48Z</time>
      </trkpt>
      <trkpt lat="46.65174" lon="6.07773">
        <ele>972.99</ele>
        <time>2011-10-14T13:34:49Z</time>
      </trkpt>
      <trkpt lat="46.65177" lon="6.0777">
        <ele>972.51</ele>
        <time>2011-10-14T13:34:50Z</time>
      </trkpt>
      <trkpt lat="46.6518" lon="6.07767">
        <ele>972.51</ele>
        <time>2011-10-14T13:34:51Z</time>
      </trkpt>
      <trkpt lat="46.65183" lon="6.07765">
        <ele>972.03</ele>
        <time>2011-10-14T13:34:52Z</time>
      </trkpt>
      <trkpt lat="46.65187" lon="6.07762">
        <ele>971.07</ele>
        <time>2011-10-14T13:34:53Z</time>
      </trkpt>
      <trkpt lat="46.65191" lon="6.07759">
        <ele>970.11</ele>
        <time>2011-10-14T13:34:54Z</time>
      </trkpt>
      <trkpt lat="46.65208" lon="6.07746">
        <ele>966.26</ele>
        <time>2011-10-14T13:34:57Z</time>
      </trkpt>
      <trkpt lat="46.65219" lon="6.07735">
        <ele>965.3</ele>
        <time>2011-10-14T13:34:59Z</time>
      </trkpt>
      <trkpt lat="46.65233" lon="6.07721">
        <ele>962.42</ele>
        <time>2011-10-14T13:35:02Z</time>
      </trkpt>
      <trkpt lat="46.65239" lon="6.07718">
        <ele>960.98</ele>
        <time>2011-10-14T13:35:03Z</time>
      </trkpt>
      <trkpt lat="46.65244" lon="6.07715">
        <ele>959.53</ele>
        <time>2011-10-14T13:35:04Z</time>
      </trkpt>
      <trkpt lat="46.65249" lon="6.07712">
        <ele>959.05</ele>
        <time>2011-10-14T13:35:05Z</time>
      </trkpt>
      <trkpt lat="46.65253" lon="6.07708">
        <ele>957.61</ele>
        <time>2011-10-14T13:35:06Z</time>
      </trkpt>
      <trkpt lat="46.65256" lon="6.07703">
        <ele>957.13</ele>
        <time>2011-10-14T13:35:07Z</time>
      </trkpt>
      <trkpt lat="46.65259" lon="6.07699">
        <ele>956.65</ele>
        <time>2011-10-14T13:35:08Z</time>
      </trkpt>
      <trkpt lat="46.6526" lon="6.07693">
        <ele>955.21</ele>
        <time>2011-10-14T13:35:09Z</time>
      </trkpt>
      <trkpt lat="46.65261" lon="6.07686">
        <ele>954.73</ele>
        <time>2011-10-14T13:35:10Z</time>
      </trkpt>
      <trkpt lat="46.65261" lon="6.07678">
        <ele>953.77</ele>
        <time>2011-10-14T13:35:11Z</time>
      </trkpt>
      <trkpt lat="46.65266" lon="6.07652">
        <ele>949.92</ele>
        <time>2011-10-14T13:35:16Z</time>
      </trkpt>
      <trkpt lat="46.65277" lon="6.07637">
        <ele>949.92</ele>
        <time>2011-10-14T13:35:22Z</time>
      </trkpt>
      <trkpt lat="46.65294" lon="6.07611">
        <ele>947.04</ele>
        <time>2011-10-14T13:35:32Z</time>
      </trkpt>
      <trkpt lat="46.65322" lon="6.07579">
        <ele>947.04</ele>
        <time>2011-10-14T13:35:42Z</time>
      </trkpt>
      <trkpt lat="46.65363" lon="6.07537">
        <ele>945.59</ele>
        <time>2011-10-14T13:35:53Z</time>
      </trkpt>
      <trkpt lat="46.65367" lon="6.07532">
        <ele>946.07</ele>
        <time>2011-10-14T13:35:54Z</time>
      </trkpt>
      <trkpt lat="46.65371" lon="6.07528">
        <ele>946.56</ele>
        <time>2011-10-14T13:35:55Z</time>
      </trkpt>
      <trkpt lat="46.65375" lon="6.07524">
        <ele>947.04</ele>
        <time>2011-10-14T13:35:56Z</time>
      </trkpt>
      <trkpt lat="46.65379" lon="6.0752">
        <ele>948</ele>
        <time>2011-10-14T13:35:57Z</time>
      </trkpt>
      <trkpt lat="46.65397" lon="6.07507">
        <ele>950.88</ele>
        <time>2011-10-14T13:36:03Z</time>
      </trkpt>
      <trkpt lat="46.65423" lon="6.07492">
        <ele>952.8</ele>
        <time>2011-10-14T13:36:14Z</time>
      </trkpt>
      <trkpt lat="46.65425" lon="6.07486">
        <ele>952.32</ele>
        <time>2011-10-14T13:36:16Z</time>
      </trkpt>
      <trkpt lat="46.65424" lon="6.07482">
        <ele>951.84</ele>
        <time>2011-10-14T13:36:17Z</time>
      </trkpt>
      <trkpt lat="46.65423" lon="6.07478">
        <ele>951.84</ele>
        <time>2011-10-14T13:36:18Z</time>
      </trkpt>
      <trkpt lat="46.65422" lon="6.07475">
        <ele>951.84</ele>
        <time>2011-10-14T13:36:19Z</time>
      </trkpt>
      <trkpt lat="46.65421" lon="6.0747">
        <ele>951.36</ele>
        <time>2011-10-14T13:36:20Z</time>
      </trkpt>
      <trkpt lat="46.65419" lon="6.07464">
        <ele>950.88</ele>
        <time>2011-10-14T13:36:21Z</time>
      </trkpt>
      <trkpt lat="46.65413" lon="6.07446">
        <ele>950.88</ele>
        <time>2011-10-14T13:36:24Z</time>
      </trkpt>
      <trkpt lat="46.65403" lon="6.07425">
        <ele>950.4</ele>
        <time>2011-10-14T13:36:28Z</time>
      </trkpt>
      <trkpt lat="46.654" lon="6.0742">
        <ele>949.92</ele>
        <time>2011-10-14T13:36:29Z</time>
      </trkpt>
      <trkpt lat="46.65398" lon="6.07415">
        <ele>949.92</ele>
        <time>2011-10-14T13:36:30Z</time>
      </trkpt>
      <trkpt lat="46.65378" lon="6.07384">
        <ele>947.04</ele>
        <time>2011-10-14T13:36:38Z</time>
      </trkpt>
      <trkpt lat="46.65374" lon="6.07381">
        <ele>946.07</ele>
        <time>2011-10-14T13:36:39Z</time>
      </trkpt>
      <trkpt lat="46.6536" lon="6.07371">
        <ele>944.15</ele>
        <time>2011-10-14T13:36:42Z</time>
      </trkpt>
      <trkpt lat="46.65348" lon="6.0736">
        <ele>943.19</ele>
        <time>2011-10-14T13:36:50Z</time>
      </trkpt>
      <trkpt lat="46.65336" lon="6.07342">
        <ele>943.19</ele>
        <time>2011-10-14T13:37:01Z</time>
      </trkpt>
      <trkpt lat="46.65328" lon="6.07319">
        <ele>939.35</ele>
        <time>2011-10-14T13:37:06Z</time>
      </trkpt>
      <trkpt lat="46.6531" lon="6.07285">
        <ele>941.75</ele>
        <time>2011-10-14T13:37:15Z</time>
      </trkpt>
      <trkpt lat="46.65308" lon="6.07282">
        <ele>941.27</ele>
        <time>2011-10-14T13:37:16Z</time>
      </trkpt>
      <trkpt lat="46.65307" lon="6.07277">
        <ele>941.75</ele>
        <time>2011-10-14T13:37:17Z</time>
      </trkpt>
      <trkpt lat="46.65305" lon="6.07272">
        <ele>940.79</ele>
        <time>2011-10-14T13:37:18Z</time>
      </trkpt>
      <trkpt lat="46.65304" lon="6.07267">
        <ele>940.31</ele>
        <time>2011-10-14T13:37:19Z</time>
      </trkpt>
      <trkpt lat="46.65302" lon="6.0726">
        <ele>940.31</ele>
        <time>2011-10-14T13:37:20Z</time>
      </trkpt>
      <trkpt lat="46.653" lon="6.07254">
        <ele>939.35</ele>
        <time>2011-10-14T13:37:21Z</time>
      </trkpt>
      <trkpt lat="46.65298" lon="6.07248">
        <ele>938.86</ele>
        <time>2011-10-14T13:37:22Z</time>
      </trkpt>
      <trkpt lat="46.6529" lon="6.07225">
        <ele>939.35</ele>
        <time>2011-10-14T13:37:28Z</time>
      </trkpt>
      <trkpt lat="46.65289" lon="6.0722">
        <ele>938.38</ele>
        <time>2011-10-14T13:37:29Z</time>
      </trkpt>
      <trkpt lat="46.65286" lon="6.07191">
        <ele>935.02</ele>
        <time>2011-10-14T13:37:34Z</time>
      </trkpt>
      <trkpt lat="46.65286" lon="6.07184">
        <ele>933.58</ele>
        <time>2011-10-14T13:37:35Z</time>
      </trkpt>
      <trkpt lat="46.65285" lon="6.07178">
        <ele>933.58</ele>
        <time>2011-10-14T13:37:36Z</time>
      </trkpt>
      <trkpt lat="46.65284" lon="6.07173">
        <ele>933.1</ele>
        <time>2011-10-14T13:37:37Z</time>
      </trkpt>
      <trkpt lat="46.65283" lon="6.07168">
        <ele>932.62</ele>
        <time>2011-10-14T13:37:38Z</time>
      </trkpt>
      <trkpt lat="46.65282" lon="6.07163">
        <ele>931.17</ele>
        <time>2011-10-14T13:37:39Z</time>
      </trkpt>
      <trkpt lat="46.65281" lon="6.07158">
        <ele>931.17</ele>
        <time>2011-10-14T13:37:40Z</time>
      </trkpt>
      <trkpt lat="46.65281" lon="6.07138">
        <ele>928.77</ele>
        <time>2011-10-14T13:37:44Z</time>
      </trkpt>
      <trkpt lat="46.65285" lon="6.07106">
        <ele>924.93</ele>
        <time>2011-10-14T13:37:48Z</time>
      </trkpt>
      <trkpt lat="46.6529" lon="6.07083">
        <ele>921.08</ele>
        <time>2011-10-14T13:37:51Z</time>
      </trkpt>
      <trkpt lat="46.65292" lon="6.07076">
        <ele>920.6</ele>
        <time>2011-10-14T13:37:52Z</time>
      </trkpt>
      <trkpt lat="46.65294" lon="6.0707">
        <ele>919.64</ele>
        <time>2011-10-14T13:37:53Z</time>
      </trkpt>
      <trkpt lat="46.65296" lon="6.07064">
        <ele>919.64</ele>
        <time>2011-10-14T13:37:54Z</time>
      </trkpt>
      <trkpt lat="46.65306" lon="6.07038">
        <ele>915.79</ele>
        <time>2011-10-14T13:37:58Z</time>
      </trkpt>
      <trkpt lat="46.65308" lon="6.07032">
        <ele>915.79</ele>
        <time>2011-10-14T13:37:59Z</time>
      </trkpt>
      <trkpt lat="46.65316" lon="6.07016">
        <ele>912.43</ele>
        <time>2011-10-14T13:38:02Z</time>
      </trkpt>
      <trkpt lat="46.65319" lon="6.07011">
        <ele>912.43</ele>
        <time>2011-10-14T13:38:03Z</time>
      </trkpt>
      <trkpt lat="46.65321" lon="6.07005">
        <ele>911.95</ele>
        <time>2011-10-14T13:38:04Z</time>
      </trkpt>
      <trkpt lat="46.65324" lon="6.07">
        <ele>910.99</ele>
        <time>2011-10-14T13:38:05Z</time>
      </trkpt>
      <trkpt lat="46.65327" lon="6.06996">
        <ele>910.03</ele>
        <time>2011-10-14T13:38:06Z</time>
      </trkpt>
      <trkpt lat="46.65329" lon="6.06992">
        <ele>910.51</ele>
        <time>2011-10-14T13:38:07Z</time>
      </trkpt>
      <trkpt lat="46.65332" lon="6.06988">
        <ele>909.54</ele>
        <time>2011-10-14T13:38:08Z</time>
      </trkpt>
      <trkpt lat="46.65339" lon="6.0698">
        <ele>907.14</ele>
        <time>2011-10-14T13:38:11Z</time>
      </trkpt>
      <trkpt lat="46.65341" lon="6.06975">
        <ele>907.14</ele>
        <time>2011-10-14T13:38:12Z</time>
      </trkpt>
      <trkpt lat="46.65341" lon="6.0697">
        <ele>906.66</ele>
        <time>2011-10-14T13:38:13Z</time>
      </trkpt>
      <trkpt lat="46.6534" lon="6.06966">
        <ele>904.74</ele>
        <time>2011-10-14T13:38:14Z</time>
      </trkpt>
      <trkpt lat="46.65339" lon="6.06962">
        <ele>904.26</ele>
        <time>2011-10-14T13:38:15Z</time>
      </trkpt>
      <trkpt lat="46.65338" lon="6.06959">
        <ele>904.26</ele>
        <time>2011-10-14T13:38:16Z</time>
      </trkpt>
      <trkpt lat="46.65335" lon="6.06955">
        <ele>903.3</ele>
        <time>2011-10-14T13:38:17Z</time>
      </trkpt>
      <trkpt lat="46.65332" lon="6.06951">
        <ele>900.89</ele>
        <time>2011-10-14T13:38:18Z</time>
      </trkpt>
      <trkpt lat="46.65328" lon="6.06947">
        <ele>899.93</ele>
        <time>2011-10-14T13:38:19Z</time>
      </trkpt>
      <trkpt lat="46.65325" lon="6.06942">
        <ele>898.97</ele>
        <time>2011-10-14T13:38:20Z</time>
      </trkpt>
      <trkpt lat="46.65322" lon="6.06938">
        <ele>897.53</ele>
        <time>2011-10-14T13:38:21Z</time>
      </trkpt>
      <trkpt lat="46.65316" lon="6.06927">
        <ele>896.57</ele>
        <time>2011-10-14T13:38:23Z</time>
      </trkpt>
      <trkpt lat="46.65312" lon="6.06909">
        <ele>893.2</ele>
        <time>2011-10-14T13:38:26Z</time>
      </trkpt>
      <trkpt lat="46.65312" lon="6.06902">
        <ele>892.72</ele>
        <time>2011-10-14T13:38:27Z</time>
      </trkpt>
      <trkpt lat="46.65312" lon="6.06877">
        <ele>891.28</ele>
        <time>2011-10-14T13:38:30Z</time>
      </trkpt>
      <trkpt lat="46.6531" lon="6.0686">
        <ele>889.36</ele>
        <time>2011-10-14T13:38:32Z</time>
      </trkpt>
      <trkpt lat="46.6531" lon="6.06853">
        <ele>888.88</ele>
        <time>2011-10-14T13:38:33Z</time>
      </trkpt>
      <trkpt lat="46.6531" lon="6.06847">
        <ele>888.4</ele>
        <time>2011-10-14T13:38:34Z</time>
      </trkpt>
      <trkpt lat="46.65308" lon="6.06831">
        <ele>887.43</ele>
        <time>2011-10-14T13:38:36Z</time>
      </trkpt>
      <trkpt lat="46.65304" lon="6.06802">
        <ele>885.99</ele>
        <time>2011-10-14T13:38:39Z</time>
      </trkpt>
      <trkpt lat="46.65303" lon="6.06793">
        <ele>885.99</ele>
        <time>2011-10-14T13:38:40Z</time>
      </trkpt>
      <trkpt lat="46.65304" lon="6.06783">
        <ele>884.07</ele>
        <time>2011-10-14T13:38:41Z</time>
      </trkpt>
      <trkpt lat="46.65306" lon="6.06773">
        <ele>884.07</ele>
        <time>2011-10-14T13:38:42Z</time>
      </trkpt>
      <trkpt lat="46.65307" lon="6.06763">
        <ele>883.11</ele>
        <time>2011-10-14T13:38:43Z</time>
      </trkpt>
      <trkpt lat="46.65308" lon="6.06754">
        <ele>882.63</ele>
        <time>2011-10-14T13:38:44Z</time>
      </trkpt>
      <trkpt lat="46.65309" lon="6.06743">
        <ele>882.15</ele>
        <time>2011-10-14T13:38:45Z</time>
      </trkpt>
      <trkpt lat="46.6531" lon="6.06724">
        <ele>881.67</ele>
        <time>2011-10-14T13:38:47Z</time>
      </trkpt>
      <trkpt lat="46.65311" lon="6.06716">
        <ele>880.71</ele>
        <time>2011-10-14T13:38:48Z</time>
      </trkpt>
      <trkpt lat="46.65313" lon="6.06708">
        <ele>881.67</ele>
        <time>2011-10-14T13:38:49Z</time>
      </trkpt>
      <trkpt lat="46.65314" lon="6.067">
        <ele>879.74</ele>
        <time>2011-10-14T13:38:50Z</time>
      </trkpt>
      <trkpt lat="46.65315" lon="6.06692">
        <ele>880.22</ele>
        <time>2011-10-14T13:38:51Z</time>
      </trkpt>
      <trkpt lat="46.65316" lon="6.06684">
        <ele>879.26</ele>
        <time>2011-10-14T13:38:52Z</time>
      </trkpt>
      <trkpt lat="46.65317" lon="6.06676">
        <ele>877.82</ele>
        <time>2011-10-14T13:38:53Z</time>
      </trkpt>
      <trkpt lat="46.65319" lon="6.06669">
        <ele>876.86</ele>
        <time>2011-10-14T13:38:54Z</time>
      </trkpt>
      <trkpt lat="46.65323" lon="6.06662">
        <ele>877.34</ele>
        <time>2011-10-14T13:38:55Z</time>
      </trkpt>
      <trkpt lat="46.65336" lon="6.0663">
        <ele>873.5</ele>
        <time>2011-10-14T13:39:01Z</time>
      </trkpt>
      <trkpt lat="46.65346" lon="6.06597">
        <ele>872.05</ele>
        <time>2011-10-14T13:39:10Z</time>
      </trkpt>
      <trkpt lat="46.65356" lon="6.06576">
        <ele>870.61</ele>
        <time>2011-10-14T13:39:21Z</time>
      </trkpt>
      <trkpt lat="46.65358" lon="6.06573">
        <ele>870.13</ele>
        <time>2011-10-14T13:39:28Z</time>
      </trkpt>
      <trkpt lat="46.65359" lon="6.0657">
        <ele>869.65</ele>
        <time>2011-10-14T13:39:29Z</time>
      </trkpt>
      <trkpt lat="46.65361" lon="6.06566">
        <ele>869.65</ele>
        <time>2011-10-14T13:39:30Z</time>
      </trkpt>
      <trkpt lat="46.65362" lon="6.06561">
        <ele>869.17</ele>
        <time>2011-10-14T13:39:31Z</time>
      </trkpt>
      <trkpt lat="46.65363" lon="6.06556">
        <ele>868.69</ele>
        <time>2011-10-14T13:39:32Z</time>
      </trkpt>
      <trkpt lat="46.65363" lon="6.06552">
        <ele>868.69</ele>
        <time>2011-10-14T13:39:33Z</time>
      </trkpt>
      <trkpt lat="46.65365" lon="6.06548">
        <ele>869.17</ele>
        <time>2011-10-14T13:39:34Z</time>
      </trkpt>
      <trkpt lat="46.65366" lon="6.06544">
        <ele>869.17</ele>
        <time>2011-10-14T13:39:35Z</time>
      </trkpt>
      <trkpt lat="46.65368" lon="6.0654">
        <ele>868.21</ele>
        <time>2011-10-14T13:39:36Z</time>
      </trkpt>
      <trkpt lat="46.6537" lon="6.06539">
        <ele>868.69</ele>
        <time>2011-10-14T13:39:37Z</time>
      </trkpt>
      <trkpt lat="46.65372" lon="6.0654">
        <ele>868.21</ele>
        <time>2011-10-14T13:39:38Z</time>
      </trkpt>
      <trkpt lat="46.65374" lon="6.06542">
        <ele>868.21</ele>
        <time>2011-10-14T13:39:39Z</time>
      </trkpt>
      <trkpt lat="46.65375" lon="6.06546">
        <ele>868.21</ele>
        <time>2011-10-14T13:39:40Z</time>
      </trkpt>
      <trkpt lat="46.65377" lon="6.06551">
        <ele>868.21</ele>
        <time>2011-10-14T13:39:41Z</time>
      </trkpt>
      <trkpt lat="46.65388" lon="6.06584">
        <ele>868.69</ele>
        <time>2011-10-14T13:39:52Z</time>
      </trkpt>
      <trkpt lat="46.65389" lon="6.06585">
        <ele>868.21</ele>
        <time>2011-10-14T13:40:21Z</time>
      </trkpt>
      <trkpt lat="46.65391" lon="6.06589">
        <ele>868.21</ele>
        <time>2011-10-14T13:40:23Z</time>
      </trkpt>
      <trkpt lat="46.65392" lon="6.06592">
        <ele>867.25</ele>
        <time>2011-10-14T13:40:24Z</time>
      </trkpt>
      <trkpt lat="46.65392" lon="6.06597">
        <ele>867.73</ele>
        <time>2011-10-14T13:40:25Z</time>
      </trkpt>
      <trkpt lat="46.65394" lon="6.06602">
        <ele>867.73</ele>
        <time>2011-10-14T13:40:26Z</time>
      </trkpt>
      <trkpt lat="46.65397" lon="6.06608">
        <ele>868.21</ele>
        <time>2011-10-14T13:40:27Z</time>
      </trkpt>
      <trkpt lat="46.654" lon="6.06613">
        <ele>868.21</ele>
        <time>2011-10-14T13:40:28Z</time>
      </trkpt>
      <trkpt lat="46.65402" lon="6.06619">
        <ele>867.73</ele>
        <time>2011-10-14T13:40:29Z</time>
      </trkpt>
      <trkpt lat="46.65405" lon="6.06625">
        <ele>867.73</ele>
        <time>2011-10-14T13:40:30Z</time>
      </trkpt>
      <trkpt lat="46.65421" lon="6.06663">
        <ele>867.25</ele>
        <time>2011-10-14T13:40:36Z</time>
      </trkpt>
      <trkpt lat="46.65425" lon="6.06674">
        <ele>867.25</ele>
        <time>2011-10-14T13:40:38Z</time>
      </trkpt>
      <trkpt lat="46.65429" lon="6.06677">
        <ele>867.25</ele>
        <time>2011-10-14T13:40:39Z</time>
      </trkpt>
      <trkpt lat="46.65446" lon="6.06687">
        <ele>867.73</ele>
        <time>2011-10-14T13:40:43Z</time>
      </trkpt>
      <trkpt lat="46.65449" lon="6.06691">
        <ele>867.25</ele>
        <time>2011-10-14T13:40:44Z</time>
      </trkpt>
      <trkpt lat="46.65453" lon="6.06695">
        <ele>867.73</ele>
        <time>2011-10-14T13:40:45Z</time>
      </trkpt>
      <trkpt lat="46.65457" lon="6.06699">
        <ele>866.77</ele>
        <time>2011-10-14T13:40:46Z</time>
      </trkpt>
      <trkpt lat="46.6546" lon="6.06703">
        <ele>867.73</ele>
        <time>2011-10-14T13:40:47Z</time>
      </trkpt>
      <trkpt lat="46.65472" lon="6.06715">
        <ele>866.29</ele>
        <time>2011-10-14T13:40:50Z</time>
      </trkpt>
      <trkpt lat="46.65479" lon="6.06721">
        <ele>867.25</ele>
        <time>2011-10-14T13:40:52Z</time>
      </trkpt>
      <trkpt lat="46.65483" lon="6.06726">
        <ele>866.77</ele>
        <time>2011-10-14T13:40:53Z</time>
      </trkpt>
      <trkpt lat="46.65489" lon="6.06738">
        <ele>866.29</ele>
        <time>2011-10-14T13:40:55Z</time>
      </trkpt>
      <trkpt lat="46.65491" lon="6.06744">
        <ele>867.73</ele>
        <time>2011-10-14T13:40:56Z</time>
      </trkpt>
      <trkpt lat="46.65492" lon="6.06751">
        <ele>868.21</ele>
        <time>2011-10-14T13:40:57Z</time>
      </trkpt>
      <trkpt lat="46.65495" lon="6.06765">
        <ele>868.21</ele>
        <time>2011-10-14T13:40:59Z</time>
      </trkpt>
      <trkpt lat="46.65497" lon="6.06772">
        <ele>868.21</ele>
        <time>2011-10-14T13:41:00Z</time>
      </trkpt>
      <trkpt lat="46.65514" lon="6.06832">
        <ele>868.69</ele>
        <time>2011-10-14T13:41:10Z</time>
      </trkpt>
      <trkpt lat="46.65516" lon="6.06837">
        <ele>868.69</ele>
        <time>2011-10-14T13:41:11Z</time>
      </trkpt>
      <trkpt lat="46.65534" lon="6.06859">
        <ele>868.69</ele>
        <time>2011-10-14T13:41:17Z</time>
      </trkpt>
      <trkpt lat="46.65542" lon="6.06865">
        <ele>868.69</ele>
        <time>2011-10-14T13:41:19Z</time>
      </trkpt>
      <trkpt lat="46.65565" lon="6.06901">
        <ele>867.25</ele>
        <time>2011-10-14T13:41:27Z</time>
      </trkpt>
      <trkpt lat="46.65573" lon="6.06926">
        <ele>868.69</ele>
        <time>2011-10-14T13:41:32Z</time>
      </trkpt>
      <trkpt lat="46.65575" lon="6.06938">
        <ele>868.69</ele>
        <time>2011-10-14T13:41:34Z</time>
      </trkpt>
      <trkpt lat="46.6557" lon="6.06971">
        <ele>869.65</ele>
        <time>2011-10-14T13:41:40Z</time>
      </trkpt>
      <trkpt lat="46.65569" lon="6.06976">
        <ele>869.65</ele>
        <time>2011-10-14T13:41:41Z</time>
      </trkpt>
      <trkpt lat="46.65578" lon="6.07025">
        <ele>868.69</ele>
        <time>2011-10-14T13:41:51Z</time>
      </trkpt>
      <trkpt lat="46.65606" lon="6.07058">
        <ele>869.17</ele>
        <time>2011-10-14T13:42:00Z</time>
      </trkpt>
      <trkpt lat="46.65625" lon="6.07073">
        <ele>869.17</ele>
        <time>2011-10-14T13:42:05Z</time>
      </trkpt>
      <trkpt lat="46.65629" lon="6.07075">
        <ele>869.65</ele>
        <time>2011-10-14T13:42:06Z</time>
      </trkpt>
      <trkpt lat="46.65632" lon="6.07077">
        <ele>869.65</ele>
        <time>2011-10-14T13:42:07Z</time>
      </trkpt>
      <trkpt lat="46.65644" lon="6.07083">
        <ele>868.69</ele>
        <time>2011-10-14T13:42:10Z</time>
      </trkpt>
      <trkpt lat="46.65648" lon="6.07085">
        <ele>869.65</ele>
        <time>2011-10-14T13:42:11Z</time>
      </trkpt>
      <trkpt lat="46.65699" lon="6.07114">
        <ele>869.17</ele>
        <time>2011-10-14T13:42:24Z</time>
      </trkpt>
      <trkpt lat="46.65759" lon="6.07149">
        <ele>868.21</ele>
        <time>2011-10-14T13:42:40Z</time>
      </trkpt>
      <trkpt lat="46.65772" lon="6.07162">
        <ele>870.13</ele>
        <time>2011-10-14T13:42:44Z</time>
      </trkpt>
      <trkpt lat="46.65782" lon="6.07173">
        <ele>870.61</ele>
        <time>2011-10-14T13:42:47Z</time>
      </trkpt>
      <trkpt lat="46.65806" lon="6.07228">
        <ele>870.13</ele>
        <time>2011-10-14T13:42:58Z</time>
      </trkpt>
      <trkpt lat="46.65824" lon="6.07278">
        <ele>871.09</ele>
        <time>2011-10-14T13:43:08Z</time>
      </trkpt>
      <trkpt lat="46.65826" lon="6.07331">
        <ele>871.09</ele>
        <time>2011-10-14T13:43:17Z</time>
      </trkpt>
      <trkpt lat="46.65825" lon="6.07337">
        <ele>871.57</ele>
        <time>2011-10-14T13:43:18Z</time>
      </trkpt>
      <trkpt lat="46.65842" lon="6.07388">
        <ele>872.05</ele>
        <time>2011-10-14T13:43:28Z</time>
      </trkpt>
      <trkpt lat="46.65863" lon="6.07423">
        <ele>873.5</ele>
        <time>2011-10-14T13:43:37Z</time>
      </trkpt>
      <trkpt lat="46.65889" lon="6.07478">
        <ele>873.98</ele>
        <time>2011-10-14T13:43:51Z</time>
      </trkpt>
      <trkpt lat="46.65892" lon="6.07484">
        <ele>873.5</ele>
        <time>2011-10-14T13:43:53Z</time>
      </trkpt>
      <trkpt lat="46.65894" lon="6.07484">
        <ele>873.5</ele>
        <time>2011-10-14T13:43:54Z</time>
      </trkpt>
      <trkpt lat="46.65896" lon="6.07482">
        <ele>873.5</ele>
        <time>2011-10-14T13:43:55Z</time>
      </trkpt>
      <trkpt lat="46.65903" lon="6.07467">
        <ele>873.01</ele>
        <time>2011-10-14T13:44:01Z</time>
      </trkpt>
      <trkpt lat="46.65909" lon="6.07458">
        <ele>872.05</ele>
        <time>2011-10-14T13:44:03Z</time>
      </trkpt>
      <trkpt lat="46.65921" lon="6.07448">
        <ele>871.57</ele>
        <time>2011-10-14T13:44:06Z</time>
      </trkpt>
      <trkpt lat="46.65936" lon="6.07438">
        <ele>873.98</ele>
        <time>2011-10-14T13:44:10Z</time>
      </trkpt>
      <trkpt lat="46.65962" lon="6.07418">
        <ele>873.5</ele>
        <time>2011-10-14T13:44:21Z</time>
      </trkpt>
      <trkpt lat="46.6596" lon="6.07413">
        <ele>874.46</ele>
        <time>2011-10-14T13:44:33Z</time>
      </trkpt>
      <trkpt lat="46.6596" lon="6.07413">
        <ele>874.46</ele>
        <time>2011-10-14T13:44:47Z</time>
      </trkpt>
      <trkpt lat="46.6596" lon="6.07414">
        <ele>873.98</ele>
        <time>2011-10-14T13:47:47Z</time>
      </trkpt>
      <trkpt lat="46.65963" lon="6.07412">
        <ele>873.5</ele>
        <time>2011-10-14T13:47:54Z</time>
      </trkpt>
      <trkpt lat="46.65961" lon="6.07395">
        <ele>873.5</ele>
        <time>2011-10-14T13:48:00Z</time>
      </trkpt>
      <trkpt lat="46.65924" lon="6.07318">
        <ele>874.46</ele>
        <time>2011-10-14T13:48:17Z</time>
      </trkpt>
      <trkpt lat="46.65882" lon="6.07235">
        <ele>874.46</ele>
        <time>2011-10-14T13:48:31Z</time>
      </trkpt>
      <trkpt lat="46.65868" lon="6.07209">
        <ele>873.98</ele>
        <time>2011-10-14T13:48:35Z</time>
      </trkpt>
      <trkpt lat="46.65861" lon="6.07196">
        <ele>873.5</ele>
        <time>2011-10-14T13:48:37Z</time>
      </trkpt>
      <trkpt lat="46.65834" lon="6.07145">
        <ele>874.94</ele>
        <time>2011-10-14T13:48:45Z</time>
      </trkpt>
      <trkpt lat="46.65782" lon="6.07045">
        <ele>876.86</ele>
        <time>2011-10-14T13:49:00Z</time>
      </trkpt>
      <trkpt lat="46.65746" lon="6.06957">
        <ele>878.3</ele>
        <time>2011-10-14T13:49:13Z</time>
      </trkpt>
      <trkpt lat="46.65734" lon="6.06908">
        <ele>879.26</ele>
        <time>2011-10-14T13:49:20Z</time>
      </trkpt>
      <trkpt lat="46.65703" lon="6.06806">
        <ele>878.78</ele>
        <time>2011-10-14T13:49:33Z</time>
      </trkpt>
      <trkpt lat="46.657" lon="6.06798">
        <ele>878.78</ele>
        <time>2011-10-14T13:49:34Z</time>
      </trkpt>
      <trkpt lat="46.65691" lon="6.06774">
        <ele>877.34</ele>
        <time>2011-10-14T13:49:37Z</time>
      </trkpt>
      <trkpt lat="46.65652" lon="6.06661">
        <ele>876.38</ele>
        <time>2011-10-14T13:49:50Z</time>
      </trkpt>
      <trkpt lat="46.65604" lon="6.06544">
        <ele>875.9</ele>
        <time>2011-10-14T13:50:04Z</time>
      </trkpt>
      <trkpt lat="46.65545" lon="6.06446">
        <ele>877.34</ele>
        <time>2011-10-14T13:50:16Z</time>
      </trkpt>
      <trkpt lat="46.65454" lon="6.0635">
        <ele>876.38</ele>
        <time>2011-10-14T13:50:29Z</time>
      </trkpt>
      <trkpt lat="46.65387" lon="6.06281">
        <ele>873.5</ele>
        <time>2011-10-14T13:50:38Z</time>
      </trkpt>
      <trkpt lat="46.6532" lon="6.06217">
        <ele>871.57</ele>
        <time>2011-10-14T13:50:46Z</time>
      </trkpt>
      <trkpt lat="46.6531" lon="6.06211">
        <ele>870.13</ele>
        <time>2011-10-14T13:50:47Z</time>
      </trkpt>
      <trkpt lat="46.65249" lon="6.06179">
        <ele>867.73</ele>
        <time>2011-10-14T13:50:53Z</time>
      </trkpt>
      <trkpt lat="46.65203" lon="6.06133">
        <ele>865.8</ele>
        <time>2011-10-14T13:50:58Z</time>
      </trkpt>
      <trkpt lat="46.65188" lon="6.0611">
        <ele>865.32</ele>
        <time>2011-10-14T13:51:00Z</time>
      </trkpt>
      <trkpt lat="46.65131" lon="6.06031">
        <ele>862.92</ele>
        <time>2011-10-14T13:51:07Z</time>
      </trkpt>
      <trkpt lat="46.65122" lon="6.06023">
        <ele>862.44</ele>
        <time>2011-10-14T13:51:08Z</time>
      </trkpt>
      <trkpt lat="46.65113" lon="6.06017">
        <ele>862.44</ele>
        <time>2011-10-14T13:51:09Z</time>
      </trkpt>
      <trkpt lat="46.65103" lon="6.06012">
        <ele>861.96</ele>
        <time>2011-10-14T13:51:10Z</time>
      </trkpt>
      <trkpt lat="46.65093" lon="6.06009">
        <ele>861.96</ele>
        <time>2011-10-14T13:51:11Z</time>
      </trkpt>
      <trkpt lat="46.65065" lon="6.05995">
        <ele>861.48</ele>
        <time>2011-10-14T13:51:14Z</time>
      </trkpt>
      <trkpt lat="46.65057" lon="6.05989">
        <ele>860.04</ele>
        <time>2011-10-14T13:51:15Z</time>
      </trkpt>
      <trkpt lat="46.65049" lon="6.0598">
        <ele>861</ele>
        <time>2011-10-14T13:51:16Z</time>
      </trkpt>
      <trkpt lat="46.65042" lon="6.05971">
        <ele>861.48</ele>
        <time>2011-10-14T13:51:17Z</time>
      </trkpt>
      <trkpt lat="46.65036" lon="6.05961">
        <ele>861.48</ele>
        <time>2011-10-14T13:51:18Z</time>
      </trkpt>
      <trkpt lat="46.65031" lon="6.0595">
        <ele>861</ele>
        <time>2011-10-14T13:51:19Z</time>
      </trkpt>
      <trkpt lat="46.65026" lon="6.05939">
        <ele>861</ele>
        <time>2011-10-14T13:51:20Z</time>
      </trkpt>
      <trkpt lat="46.6497" lon="6.05782">
        <ele>859.56</ele>
        <time>2011-10-14T13:51:34Z</time>
      </trkpt>
      <trkpt lat="46.64903" lon="6.05637">
        <ele>858.11</ele>
        <time>2011-10-14T13:51:48Z</time>
      </trkpt>
      <trkpt lat="46.64816" lon="6.05489">
        <ele>855.23</ele>
        <time>2011-10-14T13:52:04Z</time>
      </trkpt>
      <trkpt lat="46.64779" lon="6.05405">
        <ele>853.31</ele>
        <time>2011-10-14T13:52:12Z</time>
      </trkpt>
      <trkpt lat="46.64774" lon="6.05396">
        <ele>853.31</ele>
        <time>2011-10-14T13:52:13Z</time>
      </trkpt>
      <trkpt lat="46.64767" lon="6.05387">
        <ele>852.83</ele>
        <time>2011-10-14T13:52:14Z</time>
      </trkpt>
      <trkpt lat="46.64731" lon="6.05349">
        <ele>851.38</ele>
        <time>2011-10-14T13:52:19Z</time>
      </trkpt>
      <trkpt lat="46.64701" lon="6.053">
        <ele>851.38</ele>
        <time>2011-10-14T13:52:24Z</time>
      </trkpt>
      <trkpt lat="46.64672" lon="6.05203">
        <ele>851.87</ele>
        <time>2011-10-14T13:52:32Z</time>
      </trkpt>
      <trkpt lat="46.64667" lon="6.05193">
        <ele>851.38</ele>
        <time>2011-10-14T13:52:33Z</time>
      </trkpt>
      <trkpt lat="46.64651" lon="6.05166">
        <ele>852.35</ele>
        <time>2011-10-14T13:52:36Z</time>
      </trkpt>
      <trkpt lat="46.64629" lon="6.05133">
        <ele>853.79</ele>
        <time>2011-10-14T13:52:42Z</time>
      </trkpt>
      <trkpt lat="46.64607" lon="6.05116">
        <ele>851.87</ele>
        <time>2011-10-14T13:52:49Z</time>
      </trkpt>
      <trkpt lat="46.64604" lon="6.05111">
        <ele>851.38</ele>
        <time>2011-10-14T13:52:50Z</time>
      </trkpt>
      <trkpt lat="46.64585" lon="6.05074">
        <ele>848.98</ele>
        <time>2011-10-14T13:52:55Z</time>
      </trkpt>
      <trkpt lat="46.64565" lon="6.05042">
        <ele>848.5</ele>
        <time>2011-10-14T13:53:01Z</time>
      </trkpt>
      <trkpt lat="46.64563" lon="6.05043">
        <ele>848.98</ele>
        <time>2011-10-14T13:53:02Z</time>
      </trkpt>
      <trkpt lat="46.64563" lon="6.05045">
        <ele>849.46</ele>
        <time>2011-10-14T13:53:03Z</time>
      </trkpt>
      <trkpt lat="46.64565" lon="6.05046">
        <ele>849.46</ele>
        <time>2011-10-14T13:53:04Z</time>
      </trkpt>
      <trkpt lat="46.64568" lon="6.05047">
        <ele>849.94</ele>
        <time>2011-10-14T13:53:05Z</time>
      </trkpt>
      <trkpt lat="46.64571" lon="6.0505">
        <ele>848.5</ele>
        <time>2011-10-14T13:53:06Z</time>
      </trkpt>
      <trkpt lat="46.64574" lon="6.05055">
        <ele>848.98</ele>
        <time>2011-10-14T13:53:07Z</time>
      </trkpt>
      <trkpt lat="46.6458" lon="6.05066">
        <ele>848.98</ele>
        <time>2011-10-14T13:53:09Z</time>
      </trkpt>
      <trkpt lat="46.64584" lon="6.05071">
        <ele>850.42</ele>
        <time>2011-10-14T13:53:10Z</time>
      </trkpt>
      <trkpt lat="46.64597" lon="6.05094">
        <ele>848.98</ele>
        <time>2011-10-14T13:53:14Z</time>
      </trkpt>
      <trkpt lat="46.64611" lon="6.05121">
        <ele>851.38</ele>
        <time>2011-10-14T13:53:20Z</time>
      </trkpt>
      <trkpt lat="46.64614" lon="6.05121">
        <ele>851.87</ele>
        <time>2011-10-14T13:53:21Z</time>
      </trkpt>
      <trkpt lat="46.64617" lon="6.05119">
        <ele>851.87</ele>
        <time>2011-10-14T13:53:22Z</time>
      </trkpt>
      <trkpt lat="46.6462" lon="6.05115">
        <ele>851.87</ele>
        <time>2011-10-14T13:53:23Z</time>
      </trkpt>
      <trkpt lat="46.64621" lon="6.05109">
        <ele>851.87</ele>
        <time>2011-10-14T13:53:24Z</time>
      </trkpt>
      <trkpt lat="46.6462" lon="6.05103">
        <ele>851.87</ele>
        <time>2011-10-14T13:53:25Z</time>
      </trkpt>
      <trkpt lat="46.64619" lon="6.05096">
        <ele>851.87</ele>
        <time>2011-10-14T13:53:26Z</time>
      </trkpt>
      <trkpt lat="46.64617" lon="6.05089">
        <ele>851.87</ele>
        <time>2011-10-14T13:53:27Z</time>
      </trkpt>
      <trkpt lat="46.64603" lon="6.05033">
        <ele>851.38</ele>
        <time>2011-10-14T13:53:34Z</time>
      </trkpt>
      <trkpt lat="46.64573" lon="6.04951">
        <ele>852.83</ele>
        <time>2011-10-14T13:53:45Z</time>
      </trkpt>
      <trkpt lat="46.64551" lon="6.04851">
        <ele>852.35</ele>
        <time>2011-10-14T13:53:56Z</time>
      </trkpt>
      <trkpt lat="46.64549" lon="6.04841">
        <ele>853.31</ele>
        <time>2011-10-14T13:53:57Z</time>
      </trkpt>
      <trkpt lat="46.64547" lon="6.04832">
        <ele>853.31</ele>
        <time>2011-10-14T13:53:58Z</time>
      </trkpt>
      <trkpt lat="46.64546" lon="6.04822">
        <ele>853.79</ele>
        <time>2011-10-14T13:53:59Z</time>
      </trkpt>
      <trkpt lat="46.64544" lon="6.04813">
        <ele>853.31</ele>
        <time>2011-10-14T13:54:00Z</time>
      </trkpt>
      <trkpt lat="46.64543" lon="6.04803">
        <ele>853.31</ele>
        <time>2011-10-14T13:54:01Z</time>
      </trkpt>
      <trkpt lat="46.64543" lon="6.04793">
        <ele>852.83</ele>
        <time>2011-10-14T13:54:02Z</time>
      </trkpt>
      <trkpt lat="46.64543" lon="6.04783">
        <ele>851.87</ele>
        <time>2011-10-14T13:54:03Z</time>
      </trkpt>
      <trkpt lat="46.64543" lon="6.04773">
        <ele>852.35</ele>
        <time>2011-10-14T13:54:04Z</time>
      </trkpt>
      <trkpt lat="46.64543" lon="6.04763">
        <ele>852.35</ele>
        <time>2011-10-14T13:54:05Z</time>
      </trkpt>
      <trkpt lat="46.64547" lon="6.04617">
        <ele>852.83</ele>
        <time>2011-10-14T13:54:19Z</time>
      </trkpt>
      <trkpt lat="46.64552" lon="6.04497">
        <ele>851.87</ele>
        <time>2011-10-14T13:54:30Z</time>
      </trkpt>
      <trkpt lat="46.64529" lon="6.04357">
        <ele>848.5</ele>
        <time>2011-10-14T13:54:41Z</time>
      </trkpt>
      <trkpt lat="46.64523" lon="6.0433">
        <ele>848.02</ele>
        <time>2011-10-14T13:54:43Z</time>
      </trkpt>
      <trkpt lat="46.64494" lon="6.042">
        <ele>845.14</ele>
        <time>2011-10-14T13:54:52Z</time>
      </trkpt>
      <trkpt lat="46.64483" lon="6.04124">
        <ele>842.73</ele>
        <time>2011-10-14T13:54:57Z</time>
      </trkpt>
      <trkpt lat="46.64459" lon="6.04034">
        <ele>839.37</ele>
        <time>2011-10-14T13:55:03Z</time>
      </trkpt>
      <trkpt lat="46.6442" lon="6.03921">
        <ele>835.52</ele>
        <time>2011-10-14T13:55:11Z</time>
      </trkpt>
      <trkpt lat="46.64391" lon="6.03842">
        <ele>832.64</ele>
        <time>2011-10-14T13:55:16Z</time>
      </trkpt>
      <trkpt lat="46.64363" lon="6.03782">
        <ele>829.27</ele>
        <time>2011-10-14T13:55:20Z</time>
      </trkpt>
      <trkpt lat="46.64355" lon="6.03769">
        <ele>829.76</ele>
        <time>2011-10-14T13:55:21Z</time>
      </trkpt>
      <trkpt lat="46.64345" lon="6.03757">
        <ele>828.31</ele>
        <time>2011-10-14T13:55:22Z</time>
      </trkpt>
      <trkpt lat="46.64307" lon="6.03716">
        <ele>824.95</ele>
        <time>2011-10-14T13:55:26Z</time>
      </trkpt>
      <trkpt lat="46.64297" lon="6.03707">
        <ele>825.43</ele>
        <time>2011-10-14T13:55:27Z</time>
      </trkpt>
      <trkpt lat="46.64286" lon="6.037">
        <ele>823.99</ele>
        <time>2011-10-14T13:55:28Z</time>
      </trkpt>
      <trkpt lat="46.64274" lon="6.03696">
        <ele>824.47</ele>
        <time>2011-10-14T13:55:29Z</time>
      </trkpt>
      <trkpt lat="46.64263" lon="6.03694">
        <ele>822.55</ele>
        <time>2011-10-14T13:55:30Z</time>
      </trkpt>
      <trkpt lat="46.64251" lon="6.03693">
        <ele>823.03</ele>
        <time>2011-10-14T13:55:31Z</time>
      </trkpt>
      <trkpt lat="46.6424" lon="6.03694">
        <ele>821.1</ele>
        <time>2011-10-14T13:55:32Z</time>
      </trkpt>
      <trkpt lat="46.64229" lon="6.03695">
        <ele>820.62</ele>
        <time>2011-10-14T13:55:33Z</time>
      </trkpt>
      <trkpt lat="46.64194" lon="6.037">
        <ele>818.7</ele>
        <time>2011-10-14T13:55:36Z</time>
      </trkpt>
      <trkpt lat="46.64182" lon="6.03696">
        <ele>819.18</ele>
        <time>2011-10-14T13:55:37Z</time>
      </trkpt>
      <trkpt lat="46.64171" lon="6.0369">
        <ele>818.7</ele>
        <time>2011-10-14T13:55:38Z</time>
      </trkpt>
      <trkpt lat="46.64161" lon="6.03681">
        <ele>818.22</ele>
        <time>2011-10-14T13:55:39Z</time>
      </trkpt>
      <trkpt lat="46.64151" lon="6.03672">
        <ele>818.22</ele>
        <time>2011-10-14T13:55:40Z</time>
      </trkpt>
      <trkpt lat="46.64131" lon="6.03654">
        <ele>816.78</ele>
        <time>2011-10-14T13:55:42Z</time>
      </trkpt>
      <trkpt lat="46.64092" lon="6.03624">
        <ele>814.85</ele>
        <time>2011-10-14T13:55:46Z</time>
      </trkpt>
      <trkpt lat="46.64081" lon="6.03622">
        <ele>813.89</ele>
        <time>2011-10-14T13:55:47Z</time>
      </trkpt>
      <trkpt lat="46.6407" lon="6.03624">
        <ele>813.41</ele>
        <time>2011-10-14T13:55:48Z</time>
      </trkpt>
      <trkpt lat="46.64049" lon="6.03629">
        <ele>812.45</ele>
        <time>2011-10-14T13:55:50Z</time>
      </trkpt>
      <trkpt lat="46.64039" lon="6.03625">
        <ele>813.41</ele>
        <time>2011-10-14T13:55:51Z</time>
      </trkpt>
      <trkpt lat="46.6401" lon="6.03609">
        <ele>811.49</ele>
        <time>2011-10-14T13:55:54Z</time>
      </trkpt>
      <trkpt lat="46.64001" lon="6.03602">
        <ele>811.49</ele>
        <time>2011-10-14T13:55:55Z</time>
      </trkpt>
      <trkpt lat="46.63994" lon="6.03593">
        <ele>811.49</ele>
        <time>2011-10-14T13:55:56Z</time>
      </trkpt>
      <trkpt lat="46.63969" lon="6.03549">
        <ele>811.97</ele>
        <time>2011-10-14T13:56:00Z</time>
      </trkpt>
      <trkpt lat="46.63961" lon="6.03541">
        <ele>811.97</ele>
        <time>2011-10-14T13:56:01Z</time>
      </trkpt>
      <trkpt lat="46.63953" lon="6.03535">
        <ele>811.01</ele>
        <time>2011-10-14T13:56:02Z</time>
      </trkpt>
      <trkpt lat="46.63944" lon="6.03532">
        <ele>810.53</ele>
        <time>2011-10-14T13:56:03Z</time>
      </trkpt>
      <trkpt lat="46.63934" lon="6.03528">
        <ele>810.53</ele>
        <time>2011-10-14T13:56:04Z</time>
      </trkpt>
      <trkpt lat="46.63907" lon="6.03523">
        <ele>808.61</ele>
        <time>2011-10-14T13:56:07Z</time>
      </trkpt>
      <trkpt lat="46.63848" lon="6.03512">
        <ele>805.24</ele>
        <time>2011-10-14T13:56:13Z</time>
      </trkpt>
      <trkpt lat="46.63838" lon="6.03506">
        <ele>805.24</ele>
        <time>2011-10-14T13:56:14Z</time>
      </trkpt>
      <trkpt lat="46.63829" lon="6.03498">
        <ele>804.76</ele>
        <time>2011-10-14T13:56:15Z</time>
      </trkpt>
      <trkpt lat="46.63821" lon="6.03488">
        <ele>804.28</ele>
        <time>2011-10-14T13:56:16Z</time>
      </trkpt>
      <trkpt lat="46.63813" lon="6.03477">
        <ele>803.32</ele>
        <time>2011-10-14T13:56:17Z</time>
      </trkpt>
      <trkpt lat="46.63759" lon="6.03388">
        <ele>799.95</ele>
        <time>2011-10-14T13:56:25Z</time>
      </trkpt>
      <trkpt lat="46.63753" lon="6.03377">
        <ele>799.95</ele>
        <time>2011-10-14T13:56:26Z</time>
      </trkpt>
      <trkpt lat="46.63747" lon="6.03367">
        <ele>800.92</ele>
        <time>2011-10-14T13:56:27Z</time>
      </trkpt>
      <trkpt lat="46.63743" lon="6.03355">
        <ele>800.44</ele>
        <time>2011-10-14T13:56:28Z</time>
      </trkpt>
      <trkpt lat="46.63739" lon="6.03343">
        <ele>800.44</ele>
        <time>2011-10-14T13:56:29Z</time>
      </trkpt>
      <trkpt lat="46.63736" lon="6.0333">
        <ele>800.44</ele>
        <time>2011-10-14T13:56:30Z</time>
      </trkpt>
      <trkpt lat="46.63734" lon="6.03318">
        <ele>800.44</ele>
        <time>2011-10-14T13:56:31Z</time>
      </trkpt>
      <trkpt lat="46.63723" lon="6.03256">
        <ele>799.95</ele>
        <time>2011-10-14T13:56:36Z</time>
      </trkpt>
      <trkpt lat="46.63723" lon="6.03243">
        <ele>799.95</ele>
        <time>2011-10-14T13:56:37Z</time>
      </trkpt>
      <trkpt lat="46.63724" lon="6.03231">
        <ele>800.44</ele>
        <time>2011-10-14T13:56:38Z</time>
      </trkpt>
      <trkpt lat="46.63727" lon="6.03198">
        <ele>801.88</ele>
        <time>2011-10-14T13:56:41Z</time>
      </trkpt>
      <trkpt lat="46.63727" lon="6.03188">
        <ele>801.88</ele>
        <time>2011-10-14T13:56:42Z</time>
      </trkpt>
      <trkpt lat="46.63726" lon="6.03177">
        <ele>801.88</ele>
        <time>2011-10-14T13:56:43Z</time>
      </trkpt>
      <trkpt lat="46.63725" lon="6.03167">
        <ele>802.84</ele>
        <time>2011-10-14T13:56:44Z</time>
      </trkpt>
      <trkpt lat="46.63723" lon="6.03158">
        <ele>802.36</ele>
        <time>2011-10-14T13:56:45Z</time>
      </trkpt>
      <trkpt lat="46.63704" lon="6.03098">
        <ele>802.36</ele>
        <time>2011-10-14T13:56:52Z</time>
      </trkpt>
      <trkpt lat="46.63684" lon="6.03065">
        <ele>800.92</ele>
        <time>2011-10-14T13:56:56Z</time>
      </trkpt>
      <trkpt lat="46.63682" lon="6.03055">
        <ele>800.44</ele>
        <time>2011-10-14T13:56:57Z</time>
      </trkpt>
      <trkpt lat="46.63683" lon="6.03045">
        <ele>800.92</ele>
        <time>2011-10-14T13:56:58Z</time>
      </trkpt>
      <trkpt lat="46.63684" lon="6.03036">
        <ele>800.92</ele>
        <time>2011-10-14T13:56:59Z</time>
      </trkpt>
      <trkpt lat="46.63683" lon="6.03028">
        <ele>800.44</ele>
        <time>2011-10-14T13:57:00Z</time>
      </trkpt>
      <trkpt lat="46.63679" lon="6.03022">
        <ele>800.92</ele>
        <time>2011-10-14T13:57:01Z</time>
      </trkpt>
      <trkpt lat="46.63676" lon="6.03016">
        <ele>800.92</ele>
        <time>2011-10-14T13:57:02Z</time>
      </trkpt>
      <trkpt lat="46.63675" lon="6.0301">
        <ele>801.4</ele>
        <time>2011-10-14T13:57:03Z</time>
      </trkpt>
      <trkpt lat="46.63674" lon="6.03002">
        <ele>801.88</ele>
        <time>2011-10-14T13:57:04Z</time>
      </trkpt>
      <trkpt lat="46.63674" lon="6.02995">
        <ele>801.4</ele>
        <time>2011-10-14T13:57:05Z</time>
      </trkpt>
      <trkpt lat="46.63674" lon="6.02988">
        <ele>801.88</ele>
        <time>2011-10-14T13:57:06Z</time>
      </trkpt>
      <trkpt lat="46.63673" lon="6.0298">
        <ele>801.88</ele>
        <time>2011-10-14T13:57:07Z</time>
      </trkpt>
      <trkpt lat="46.63662" lon="6.02937">
        <ele>805.72</ele>
        <time>2011-10-14T13:57:15Z</time>
      </trkpt>
      <trkpt lat="46.63662" lon="6.02933">
        <ele>805.72</ele>
        <time>2011-10-14T13:57:16Z</time>
      </trkpt>
      <trkpt lat="46.6366" lon="6.02897">
        <ele>807.64</ele>
        <time>2011-10-14T13:57:26Z</time>
      </trkpt>
      <trkpt lat="46.63661" lon="6.02894">
        <ele>807.64</ele>
        <time>2011-10-14T13:57:27Z</time>
      </trkpt>
      <trkpt lat="46.63662" lon="6.02889">
        <ele>808.13</ele>
        <time>2011-10-14T13:57:29Z</time>
      </trkpt>
      <trkpt lat="46.63663" lon="6.02887">
        <ele>808.61</ele>
        <time>2011-10-14T13:57:30Z</time>
      </trkpt>
      <trkpt lat="46.63665" lon="6.02885">
        <ele>807.64</ele>
        <time>2011-10-14T13:57:31Z</time>
      </trkpt>
      <trkpt lat="46.63667" lon="6.02884">
        <ele>807.64</ele>
        <time>2011-10-14T13:57:32Z</time>
      </trkpt>
      <trkpt lat="46.63668" lon="6.02882">
        <ele>808.13</ele>
        <time>2011-10-14T13:57:33Z</time>
      </trkpt>
      <trkpt lat="46.6367" lon="6.0288">
        <ele>808.13</ele>
        <time>2011-10-14T13:57:34Z</time>
      </trkpt>
      <trkpt lat="46.63672" lon="6.02879">
        <ele>808.13</ele>
        <time>2011-10-14T13:57:35Z</time>
      </trkpt>
      <trkpt lat="46.63686" lon="6.02863">
        <ele>810.05</ele>
        <time>2011-10-14T13:57:47Z</time>
      </trkpt>
      <trkpt lat="46.63689" lon="6.02861">
        <ele>810.05</ele>
        <time>2011-10-14T13:57:49Z</time>
      </trkpt>
      <trkpt lat="46.6369" lon="6.0286">
        <ele>810.53</ele>
        <time>2011-10-14T13:57:50Z</time>
      </trkpt>
      <trkpt lat="46.63692" lon="6.02859">
        <ele>810.53</ele>
        <time>2011-10-14T13:58:02Z</time>
      </trkpt>
      <trkpt lat="46.63692" lon="6.0286">
        <ele>805.72</ele>
        <time>2011-10-14T13:58:07Z</time>
      </trkpt>
      <trkpt lat="46.63692" lon="6.0286">
        <ele>816.3</ele>
        <time>2011-10-14T15:03:04Z</time>
      </trkpt>
      <trkpt lat="46.63692" lon="6.0286">
        <ele>808.61</ele>
        <time>2011-10-14T15:03:05Z</time>
      </trkpt>
      <trkpt lat="46.63692" lon="6.0286">
        <ele>808.13</ele>
        <time>2011-10-14T15:03:06Z</time>
      </trkpt>
    </trkseg>
  </trk>
</gpx>